PWSweather.com
Personal Weather Stations
Station Observations
KMNHANSK2
Andys Live Weather Stations, Hanska, MN 56041

Andys Live Weather StationsHanska, MN 56041

Lat: 44.170119, Lon: -94.381619

Elevation: 1004

Station Type: Davis Instruments Vantage Pro2 Plus

http://www.madeliasliveweather.com/thompsonfarms/

High Low Average
Temperature 32.1°F0.1°C 30.3°F-0.9°C 31.1°F-0.5°C
Dew Point 31.6°F-0.2°C 29.8°F-1.2°C 30.7°F-0.7°C
Winds 14.0 mph 22.5 kmh 2.0 mph 3.2 kmh 8.0 mph ENE12.9 kmh ENE
Wind Gusts 14.0 mph22.5 kmh 5.0 mph8.0 kmh 11.0 mph17.7 kmh
Humidity 99% 97% 99%
Pressure 30.50 in1032.8 mb 30.40 in1029.5 mb -
Precipitation 0.00 in0.0 mm - -
Hour Temp Dew Point Humidity Winds Wind Gusts Pressure Precip Precip Rate Daily Precip Total
12:00 AM 30.8°F-0.7°C 30.3°F-0.9°C 98% 8.0 mph NE12.9 kmh NE 11.0 mph17.7 kmh 30.40 in1029.5 mb 0.00 in0.0 mm 0.00 in/hr0.0 mm/hr 0.00 in0.0 mm
12:01 AM 30.8°F-0.7°C 30.3°F-0.9°C 98% 7.0 mph NE11.3 kmh NE 8.0 mph12.9 kmh 30.40 in1029.5 mb 0.00 in0.0 mm 0.00 in/hr0.0 mm/hr 0.00 in0.0 mm
12:02 AM 30.8°F-0.7°C 30.3°F-0.9°C 98% 7.0 mph NE11.3 kmh NE 9.0 mph14.5 kmh 30.40 in1029.5 mb 0.00 in0.0 mm 0.00 in/hr0.0 mm/hr 0.00 in0.0 mm
12:03 AM 30.8°F-0.7°C 30.3°F-0.9°C 98% 8.0 mph NE12.9 kmh NE 9.0 mph14.5 kmh 30.40 in1029.5 mb 0.00 in0.0 mm 0.00 in/hr0.0 mm/hr 0.00 in0.0 mm
12:05 AM 30.8°F-0.7°C 30.3°F-0.9°C 98% 7.0 mph NE11.3 kmh NE 9.0 mph14.5 kmh 30.40 in1029.5 mb 0.00 in0.0 mm 0.00 in/hr0.0 mm/hr 0.00 in0.0 mm
12:07 AM 30.8°F-0.7°C 30.3°F-0.9°C 98% 7.0 mph NE11.3 kmh NE 9.0 mph14.5 kmh 30.40 in1029.5 mb 0.00 in0.0 mm 0.00 in/hr0.0 mm/hr 0.00 in0.0 mm
12:08 AM 30.8°F-0.7°C 30.3°F-0.9°C 98% 6.0 mph NE9.7 kmh NE 9.0 mph14.5 kmh 30.40 in1029.5 mb 0.00 in0.0 mm 0.00 in/hr0.0 mm/hr 0.00 in0.0 mm
12:09 AM 30.8°F-0.7°C 30.3°F-0.9°C 98% 4.0 mph ENE6.4 kmh ENE 9.0 mph14.5 kmh 30.40 in1029.5 mb 0.00 in0.0 mm 0.00 in/hr0.0 mm/hr 0.00 in0.0 mm
12:11 AM 30.8°F-0.7°C 30.3°F-0.9°C 98% 5.0 mph E8.0 kmh E 9.0 mph14.5 kmh 30.40 in1029.5 mb 0.00 in0.0 mm 0.00 in/hr0.0 mm/hr 0.00 in0.0 mm
12:12 AM 30.8°F-0.7°C 30.3°F-0.9°C 98% 7.0 mph E11.3 kmh E 9.0 mph14.5 kmh 30.41 in1029.8 mb 0.00 in0.0 mm 0.00 in/hr0.0 mm/hr 0.00 in0.0 mm
12:13 AM 30.9°F-0.6°C 30.4°F-0.9°C 98% 7.0 mph E11.3 kmh E 9.0 mph14.5 kmh 30.41 in1029.8 mb 0.00 in0.0 mm 0.00 in/hr0.0 mm/hr 0.00 in0.0 mm
12:14 AM 30.9°F-0.6°C 30.4°F-0.9°C 98% 7.0 mph ENE11.3 kmh ENE 9.0 mph14.5 kmh 30.41 in1029.8 mb 0.00 in0.0 mm 0.00 in/hr0.0 mm/hr 0.00 in0.0 mm
12:15 AM 30.8°F-0.7°C 30.3°F-0.9°C 98% 4.0 mph ENE6.4 kmh ENE 9.0 mph14.5 kmh 30.41 in1029.8 mb 0.00 in0.0 mm 0.00 in/hr0.0 mm/hr 0.00 in0.0 mm
12:16 AM 30.9°F-0.6°C 30.4°F-0.9°C 98% 7.0 mph ENE11.3 kmh ENE 9.0 mph14.5 kmh 30.41 in1029.8 mb 0.00 in0.0 mm 0.00 in/hr0.0 mm/hr 0.00 in0.0 mm
12:17 AM 30.8°F-0.7°C 30.3°F-0.9°C 98% 8.0 mph ENE12.9 kmh ENE 9.0 mph14.5 kmh 30.41 in1029.8 mb 0.00 in0.0 mm 0.00 in/hr0.0 mm/hr 0.00 in0.0 mm
12:18 AM 30.8°F-0.7°C 30.3°F-0.9°C 98% 7.0 mph ENE11.3 kmh ENE 9.0 mph14.5 kmh 30.41 in1029.8 mb 0.00 in0.0 mm 0.00 in/hr0.0 mm/hr 0.00 in0.0 mm
12:19 AM 30.8°F-0.7°C 30.3°F-0.9°C 98% 8.0 mph ENE12.9 kmh ENE 9.0 mph14.5 kmh 30.41 in1029.8 mb 0.00 in0.0 mm 0.00 in/hr0.0 mm/hr 0.00 in0.0 mm
12:20 AM 30.8°F-0.7°C 30.3°F-0.9°C 98% 8.0 mph ENE12.9 kmh ENE 9.0 mph14.5 kmh 30.41 in1029.8 mb 0.00 in0.0 mm 0.00 in/hr0.0 mm/hr 0.00 in0.0 mm
12:21 AM 30.8°F-0.7°C 30.3°F-0.9°C 98% 4.0 mph NE6.4 kmh NE 9.0 mph14.5 kmh 30.41 in1029.8 mb 0.00 in0.0 mm 0.00 in/hr0.0 mm/hr 0.00 in0.0 mm
12:23 AM 30.8°F-0.7°C 30.3°F-0.9°C 98% 8.0 mph NE12.9 kmh NE 9.0 mph14.5 kmh 30.41 in1029.8 mb 0.00 in0.0 mm 0.00 in/hr0.0 mm/hr 0.00 in0.0 mm
12:24 AM 30.8°F-0.7°C 30.3°F-0.9°C 98% 7.0 mph ENE11.3 kmh ENE 9.0 mph14.5 kmh 30.41 in1029.8 mb 0.00 in0.0 mm 0.00 in/hr0.0 mm/hr 0.00 in0.0 mm
12:25 AM 30.9°F-0.6°C 30.4°F-0.9°C 98% 7.0 mph ENE11.3 kmh ENE 9.0 mph14.5 kmh 30.41 in1029.8 mb 0.00 in0.0 mm 0.00 in/hr0.0 mm/hr 0.00 in0.0 mm
12:26 AM 30.9°F-0.6°C 30.4°F-0.9°C 98% 4.0 mph ENE6.4 kmh ENE 9.0 mph14.5 kmh 30.41 in1029.8 mb 0.00 in0.0 mm 0.00 in/hr0.0 mm/hr 0.00 in0.0 mm
12:27 AM 30.9°F-0.6°C 30.4°F-0.9°C 98% 5.0 mph NE8.0 kmh NE 9.0 mph14.5 kmh 30.41 in1029.8 mb 0.00 in0.0 mm 0.00 in/hr0.0 mm/hr 0.00 in0.0 mm
12:28 AM 30.9°F-0.6°C 30.4°F-0.9°C 98% 6.0 mph NE9.7 kmh NE 9.0 mph14.5 kmh 30.41 in1029.8 mb 0.00 in0.0 mm 0.00 in/hr0.0 mm/hr 0.00 in0.0 mm
12:30 AM 30.9°F-0.6°C 30.4°F-0.9°C 98% 6.0 mph NE9.7 kmh NE 9.0 mph14.5 kmh 30.41 in1029.8 mb 0.00 in0.0 mm 0.00 in/hr0.0 mm/hr 0.00 in0.0 mm
12:31 AM 30.9°F-0.6°C 30.4°F-0.9°C 98% 8.0 mph ENE12.9 kmh ENE 9.0 mph14.5 kmh 30.41 in1029.8 mb 0.00 in0.0 mm 0.00 in/hr0.0 mm/hr 0.00 in0.0 mm
12:32 AM 30.9°F-0.6°C 30.4°F-0.9°C 98% 4.0 mph NE6.4 kmh NE 9.0 mph14.5 kmh 30.41 in1029.8 mb 0.00 in0.0 mm 0.00 in/hr0.0 mm/hr 0.00 in0.0 mm
12:33 AM 30.9°F-0.6°C 30.4°F-0.9°C 98% 5.0 mph NE8.0 kmh NE 9.0 mph14.5 kmh 30.41 in1029.8 mb 0.00 in0.0 mm 0.00 in/hr0.0 mm/hr 0.00 in0.0 mm
12:34 AM 30.8°F-0.7°C 30.3°F-0.9°C 98% 7.0 mph ENE11.3 kmh ENE 9.0 mph14.5 kmh 30.41 in1029.8 mb 0.00 in0.0 mm 0.00 in/hr0.0 mm/hr 0.00 in0.0 mm
12:35 AM 30.8°F-0.7°C 30.3°F-0.9°C 98% 5.0 mph ENE8.0 kmh ENE 9.0 mph14.5 kmh 30.41 in1029.8 mb 0.00 in0.0 mm 0.00 in/hr0.0 mm/hr 0.00 in0.0 mm
12:36 AM 30.8°F-0.7°C 30.3°F-0.9°C 98% 4.0 mph ENE6.4 kmh ENE 9.0 mph14.5 kmh 30.41 in1029.8 mb 0.00 in0.0 mm 0.00 in/hr0.0 mm/hr 0.00 in0.0 mm
12:38 AM 30.8°F-0.7°C 30.3°F-0.9°C 98% 5.0 mph E8.0 kmh E 9.0 mph14.5 kmh 30.41 in1029.8 mb 0.00 in0.0 mm 0.00 in/hr0.0 mm/hr 0.00 in0.0 mm
12:39 AM 30.8°F-0.7°C 30.3°F-0.9°C 98% 6.0 mph E9.7 kmh E 9.0 mph14.5 kmh 30.41 in1029.8 mb 0.00 in0.0 mm 0.00 in/hr0.0 mm/hr 0.00 in0.0 mm
12:40 AM 30.9°F-0.6°C 30.4°F-0.9°C 98% 5.0 mph E8.0 kmh E 9.0 mph14.5 kmh 30.41 in1029.8 mb 0.00 in0.0 mm 0.00 in/hr0.0 mm/hr 0.00 in0.0 mm
12:42 AM 30.9°F-0.6°C 30.4°F-0.9°C 98% 7.0 mph E11.3 kmh E 9.0 mph14.5 kmh 30.41 in1029.8 mb 0.00 in0.0 mm 0.00 in/hr0.0 mm/hr 0.00 in0.0 mm
12:43 AM 30.8°F-0.7°C 30.3°F-0.9°C 98% 7.0 mph E11.3 kmh E 9.0 mph14.5 kmh 30.41 in1029.8 mb 0.00 in0.0 mm 0.00 in/hr0.0 mm/hr 0.00 in0.0 mm
12:44 AM 30.8°F-0.7°C 30.3°F-0.9°C 98% 6.0 mph E9.7 kmh E 9.0 mph14.5 kmh 30.41 in1029.8 mb 0.00 in0.0 mm 0.00 in/hr0.0 mm/hr 0.00 in0.0 mm
12:45 AM 30.8°F-0.7°C 30.3°F-0.9°C 98% 4.0 mph E6.4 kmh E 9.0 mph14.5 kmh 30.41 in1029.8 mb 0.00 in0.0 mm 0.00 in/hr0.0 mm/hr 0.00 in0.0 mm
12:46 AM 30.8°F-0.7°C 30.3°F-0.9°C 98% 6.0 mph E9.7 kmh E 9.0 mph14.5 kmh 30.41 in1029.8 mb 0.00 in0.0 mm 0.00 in/hr0.0 mm/hr 0.00 in0.0 mm
12:47 AM 30.8°F-0.7°C 30.3°F-0.9°C 98% 5.0 mph ENE8.0 kmh ENE 9.0 mph14.5 kmh 30.41 in1029.8 mb 0.00 in0.0 mm 0.00 in/hr0.0 mm/hr 0.00 in0.0 mm
12:48 AM 30.8°F-0.7°C 30.3°F-0.9°C 98% 7.0 mph E11.3 kmh E 9.0 mph14.5 kmh 30.41 in1029.8 mb 0.00 in0.0 mm 0.00 in/hr0.0 mm/hr 0.00 in0.0 mm
12:49 AM 30.9°F-0.6°C 30.4°F-0.9°C 98% 5.0 mph E8.0 kmh E 9.0 mph14.5 kmh 30.42 in1030.1 mb 0.00 in0.0 mm 0.00 in/hr0.0 mm/hr 0.00 in0.0 mm
12:50 AM 30.8°F-0.7°C 30.3°F-0.9°C 98% 6.0 mph E9.7 kmh E 9.0 mph14.5 kmh 30.42 in1030.1 mb 0.00 in0.0 mm 0.00 in/hr0.0 mm/hr 0.00 in0.0 mm
12:51 AM 30.9°F-0.6°C 30.4°F-0.9°C 98% 7.0 mph E11.3 kmh E 9.0 mph14.5 kmh 30.42 in1030.1 mb 0.00 in0.0 mm 0.00 in/hr0.0 mm/hr 0.00 in0.0 mm
12:52 AM 30.9°F-0.6°C 30.4°F-0.9°C 98% 8.0 mph E12.9 kmh E 9.0 mph14.5 kmh 30.42 in1030.1 mb 0.00 in0.0 mm 0.00 in/hr0.0 mm/hr 0.00 in0.0 mm
12:53 AM 30.9°F-0.6°C 30.4°F-0.9°C 98% 6.0 mph E9.7 kmh E 9.0 mph14.5 kmh 30.42 in1030.1 mb 0.00 in0.0 mm 0.00 in/hr0.0 mm/hr 0.00 in0.0 mm
12:55 AM 30.8°F-0.7°C 30.3°F-0.9°C 98% 6.0 mph E9.7 kmh E 9.0 mph14.5 kmh 30.42 in1030.1 mb 0.00 in0.0 mm 0.00 in/hr0.0 mm/hr 0.00 in0.0 mm
12:56 AM 30.8°F-0.7°C 30.3°F-0.9°C 98% 5.0 mph ENE8.0 kmh ENE 9.0 mph14.5 kmh 30.42 in1030.1 mb 0.00 in0.0 mm 0.00 in/hr0.0 mm/hr 0.00 in0.0 mm
12:57 AM 30.8°F-0.7°C 30.3°F-0.9°C 98% 4.0 mph ENE6.4 kmh ENE 9.0 mph14.5 kmh 30.42 in1030.1 mb 0.00 in0.0 mm 0.00 in/hr0.0 mm/hr 0.00 in0.0 mm
12:58 AM 30.8°F-0.7°C 30.3°F-0.9°C 98% 4.0 mph ENE6.4 kmh ENE 9.0 mph14.5 kmh 30.42 in1030.1 mb 0.00 in0.0 mm 0.00 in/hr0.0 mm/hr 0.00 in0.0 mm
01:00 AM 30.8°F-0.7°C 30.3°F-0.9°C 98% 5.0 mph E8.0 kmh E 9.0 mph14.5 kmh 30.42 in1030.1 mb 0.00 in0.0 mm 0.00 in/hr0.0 mm/hr 0.00 in0.0 mm
01:01 AM 30.8°F-0.7°C 30.3°F-0.9°C 98% 4.0 mph E6.4 kmh E 7.0 mph11.3 kmh 30.42 in1030.1 mb 0.00 in0.0 mm 0.00 in/hr0.0 mm/hr 0.00 in0.0 mm
01:03 AM 30.8°F-0.7°C 30.3°F-0.9°C 98% 7.0 mph E11.3 kmh E 8.0 mph12.9 kmh 30.42 in1030.1 mb 0.00 in0.0 mm 0.00 in/hr0.0 mm/hr 0.00 in0.0 mm
01:04 AM 30.8°F-0.7°C 30.3°F-0.9°C 98% 6.0 mph E9.7 kmh E 8.0 mph12.9 kmh 30.42 in1030.1 mb 0.00 in0.0 mm 0.00 in/hr0.0 mm/hr 0.00 in0.0 mm
01:05 AM 30.8°F-0.7°C 30.3°F-0.9°C 98% 6.0 mph E9.7 kmh E 8.0 mph12.9 kmh 30.42 in1030.1 mb 0.00 in0.0 mm 0.00 in/hr0.0 mm/hr 0.00 in0.0 mm
01:06 AM 30.8°F-0.7°C 30.3°F-0.9°C 98% 5.0 mph E8.0 kmh E 8.0 mph12.9 kmh 30.42 in1030.1 mb 0.00 in0.0 mm 0.00 in/hr0.0 mm/hr 0.00 in0.0 mm
01:07 AM 30.9°F-0.6°C 30.4°F-0.9°C 98% 6.0 mph E9.7 kmh E 8.0 mph12.9 kmh 30.42 in1030.1 mb 0.00 in0.0 mm 0.00 in/hr0.0 mm/hr 0.00 in0.0 mm
01:08 AM 30.9°F-0.6°C 30.4°F-0.9°C 98% 4.0 mph ENE6.4 kmh ENE 8.0 mph12.9 kmh 30.42 in1030.1 mb 0.00 in0.0 mm 0.00 in/hr0.0 mm/hr 0.00 in0.0 mm
01:09 AM 30.9°F-0.6°C 30.4°F-0.9°C 98% 5.0 mph E8.0 kmh E 8.0 mph12.9 kmh 30.42 in1030.1 mb 0.00 in0.0 mm 0.00 in/hr0.0 mm/hr 0.00 in0.0 mm
01:10 AM 30.9°F-0.6°C 30.4°F-0.9°C 98% 5.0 mph ENE8.0 kmh ENE 8.0 mph12.9 kmh 30.42 in1030.1 mb 0.00 in0.0 mm 0.00 in/hr0.0 mm/hr 0.00 in0.0 mm
01:12 AM 30.8°F-0.7°C 30.3°F-0.9°C 98% 5.0 mph E8.0 kmh E 8.0 mph12.9 kmh 30.42 in1030.1 mb 0.00 in0.0 mm 0.00 in/hr0.0 mm/hr 0.00 in0.0 mm
01:13 AM 30.8°F-0.7°C 30.3°F-0.9°C 98% 7.0 mph ENE11.3 kmh ENE 8.0 mph12.9 kmh 30.42 in1030.1 mb 0.00 in0.0 mm 0.00 in/hr0.0 mm/hr 0.00 in0.0 mm
01:15 AM 30.8°F-0.7°C 30.3°F-0.9°C 98% 7.0 mph ENE11.3 kmh ENE 8.0 mph12.9 kmh 30.42 in1030.1 mb 0.00 in0.0 mm 0.00 in/hr0.0 mm/hr 0.00 in0.0 mm
01:16 AM 30.8°F-0.7°C 30.3°F-0.9°C 98% 9.0 mph ENE14.5 kmh ENE 11.0 mph17.7 kmh 30.42 in1030.1 mb 0.00 in0.0 mm 0.00 in/hr0.0 mm/hr 0.00 in0.0 mm
01:18 AM 30.8°F-0.7°C 30.3°F-0.9°C 98% 8.0 mph E12.9 kmh E 11.0 mph17.7 kmh 30.42 in1030.1 mb 0.00 in0.0 mm 0.00 in/hr0.0 mm/hr 0.00 in0.0 mm
01:20 AM 30.7°F-0.7°C 30.2°F-1.0°C 98% 8.0 mph E12.9 kmh E 11.0 mph17.7 kmh 30.42 in1030.1 mb 0.00 in0.0 mm 0.00 in/hr0.0 mm/hr 0.00 in0.0 mm
01:21 AM 30.7°F-0.7°C 30.2°F-1.0°C 98% 8.0 mph E12.9 kmh E 11.0 mph17.7 kmh 30.42 in1030.1 mb 0.00 in0.0 mm 0.00 in/hr0.0 mm/hr 0.00 in0.0 mm
01:22 AM 30.7°F-0.7°C 30.2°F-1.0°C 98% 7.0 mph E11.3 kmh E 11.0 mph17.7 kmh 30.42 in1030.1 mb 0.00 in0.0 mm 0.00 in/hr0.0 mm/hr 0.00 in0.0 mm
01:23 AM 30.7°F-0.7°C 30.2°F-1.0°C 98% 8.0 mph E12.9 kmh E 11.0 mph17.7 kmh 30.42 in1030.1 mb 0.00 in0.0 mm 0.00 in/hr0.0 mm/hr 0.00 in0.0 mm
01:25 AM 30.7°F-0.7°C 30.2°F-1.0°C 98% 7.0 mph E11.3 kmh E 11.0 mph17.7 kmh 30.42 in1030.1 mb 0.00 in0.0 mm 0.00 in/hr0.0 mm/hr 0.00 in0.0 mm
01:26 AM 30.7°F-0.7°C 30.2°F-1.0°C 98% 8.0 mph E12.9 kmh E 11.0 mph17.7 kmh 30.42 in1030.1 mb 0.00 in0.0 mm 0.00 in/hr0.0 mm/hr 0.00 in0.0 mm
01:27 AM 30.7°F-0.7°C 30.2°F-1.0°C 98% 8.0 mph E12.9 kmh E 11.0 mph17.7 kmh 30.41 in1029.8 mb 0.00 in0.0 mm 0.00 in/hr0.0 mm/hr 0.00 in0.0 mm
01:28 AM 30.7°F-0.7°C 30.2°F-1.0°C 98% 9.0 mph E14.5 kmh E 11.0 mph17.7 kmh 30.41 in1029.8 mb 0.00 in0.0 mm 0.00 in/hr0.0 mm/hr 0.00 in0.0 mm
01:30 AM 30.7°F-0.7°C 30.2°F-1.0°C 98% 7.0 mph ENE11.3 kmh ENE 11.0 mph17.7 kmh 30.41 in1029.8 mb 0.00 in0.0 mm 0.00 in/hr0.0 mm/hr 0.00 in0.0 mm
01:32 AM 30.7°F-0.7°C 30.2°F-1.0°C 98% 8.0 mph ENE12.9 kmh ENE 9.0 mph14.5 kmh 30.41 in1029.8 mb 0.00 in0.0 mm 0.00 in/hr0.0 mm/hr 0.00 in0.0 mm
01:33 AM 30.7°F-0.7°C 30.2°F-1.0°C 98% 8.0 mph ENE12.9 kmh ENE 9.0 mph14.5 kmh 30.41 in1029.8 mb 0.00 in0.0 mm 0.00 in/hr0.0 mm/hr 0.00 in0.0 mm
01:34 AM 30.7°F-0.7°C 30.2°F-1.0°C 98% 8.0 mph ENE12.9 kmh ENE 9.0 mph14.5 kmh 30.42 in1030.1 mb 0.00 in0.0 mm 0.00 in/hr0.0 mm/hr 0.00 in0.0 mm
01:35 AM 30.7°F-0.7°C 30.2°F-1.0°C 98% 10.0 mph ENE16.1 kmh ENE 11.0 mph17.7 kmh 30.42 in1030.1 mb 0.00 in0.0 mm 0.00 in/hr0.0 mm/hr 0.00 in0.0 mm
01:36 AM 30.7°F-0.7°C 30.2°F-1.0°C 98% 10.0 mph E16.1 kmh E 11.0 mph17.7 kmh 30.42 in1030.1 mb 0.00 in0.0 mm 0.00 in/hr0.0 mm/hr 0.00 in0.0 mm
01:37 AM 30.7°F-0.7°C 30.2°F-1.0°C 98% 8.0 mph E12.9 kmh E 11.0 mph17.7 kmh 30.41 in1029.8 mb 0.00 in0.0 mm 0.00 in/hr0.0 mm/hr 0.00 in0.0 mm
01:38 AM 30.6°F-0.8°C 30.1°F-1.1°C 98% 7.0 mph E11.3 kmh E 11.0 mph17.7 kmh 30.42 in1030.1 mb 0.00 in0.0 mm 0.00 in/hr0.0 mm/hr 0.00 in0.0 mm
01:39 AM 30.6°F-0.8°C 30.1°F-1.1°C 98% 5.0 mph E8.0 kmh E 11.0 mph17.7 kmh 30.42 in1030.1 mb 0.00 in0.0 mm 0.00 in/hr0.0 mm/hr 0.00 in0.0 mm
01:40 AM 30.6°F-0.8°C 30.1°F-1.1°C 98% 6.0 mph E9.7 kmh E 11.0 mph17.7 kmh 30.42 in1030.1 mb 0.00 in0.0 mm 0.00 in/hr0.0 mm/hr 0.00 in0.0 mm
01:42 AM 30.6°F-0.8°C 30.1°F-1.1°C 98% 8.0 mph E12.9 kmh E 11.0 mph17.7 kmh 30.42 in1030.1 mb 0.00 in0.0 mm 0.00 in/hr0.0 mm/hr 0.00 in0.0 mm
01:43 AM 30.6°F-0.8°C 30.1°F-1.1°C 98% 9.0 mph ENE14.5 kmh ENE 11.0 mph17.7 kmh 30.42 in1030.1 mb 0.00 in0.0 mm 0.00 in/hr0.0 mm/hr 0.00 in0.0 mm
01:44 AM 30.6°F-0.8°C 30.1°F-1.1°C 98% 7.0 mph ENE11.3 kmh ENE 11.0 mph17.7 kmh 30.42 in1030.1 mb 0.00 in0.0 mm 0.00 in/hr0.0 mm/hr 0.00 in0.0 mm
01:45 AM 30.6°F-0.8°C 30.1°F-1.1°C 98% 7.0 mph ENE11.3 kmh ENE 11.0 mph17.7 kmh 30.42 in1030.1 mb 0.00 in0.0 mm 0.00 in/hr0.0 mm/hr 0.00 in0.0 mm
01:47 AM 30.6°F-0.8°C 30.1°F-1.1°C 98% 8.0 mph E12.9 kmh E 11.0 mph17.7 kmh 30.42 in1030.1 mb 0.00 in0.0 mm 0.00 in/hr0.0 mm/hr 0.00 in0.0 mm
01:48 AM 30.6°F-0.8°C 30.1°F-1.1°C 98% 7.0 mph E11.3 kmh E 11.0 mph17.7 kmh 30.42 in1030.1 mb 0.00 in0.0 mm 0.00 in/hr0.0 mm/hr 0.00 in0.0 mm
01:50 AM 30.6°F-0.8°C 30.1°F-1.1°C 98% 9.0 mph ENE14.5 kmh ENE 11.0 mph17.7 kmh 30.42 in1030.1 mb 0.00 in0.0 mm 0.00 in/hr0.0 mm/hr 0.00 in0.0 mm
01:51 AM 30.6°F-0.8°C 30.1°F-1.1°C 98% 7.0 mph ENE11.3 kmh ENE 11.0 mph17.7 kmh 30.42 in1030.1 mb 0.00 in0.0 mm 0.00 in/hr0.0 mm/hr 0.00 in0.0 mm
01:52 AM 30.7°F-0.7°C 30.2°F-1.0°C 98% 8.0 mph ENE12.9 kmh ENE 11.0 mph17.7 kmh 30.42 in1030.1 mb 0.00 in0.0 mm 0.00 in/hr0.0 mm/hr 0.00 in0.0 mm
01:53 AM 30.7°F-0.7°C 30.2°F-1.0°C 98% 7.0 mph E11.3 kmh E 11.0 mph17.7 kmh 30.42 in1030.1 mb 0.00 in0.0 mm 0.00 in/hr0.0 mm/hr 0.00 in0.0 mm
01:54 AM 30.7°F-0.7°C 30.2°F-1.0°C 98% 8.0 mph ENE12.9 kmh ENE 11.0 mph17.7 kmh 30.41 in1029.8 mb 0.00 in0.0 mm 0.00 in/hr0.0 mm/hr 0.00 in0.0 mm
01:55 AM 30.7°F-0.7°C 30.2°F-1.0°C 98% 7.0 mph E11.3 kmh E 11.0 mph17.7 kmh 30.41 in1029.8 mb 0.00 in0.0 mm 0.00 in/hr0.0 mm/hr 0.00 in0.0 mm
01:56 AM 30.7°F-0.7°C 30.2°F-1.0°C 98% 10.0 mph ENE16.1 kmh ENE 11.0 mph17.7 kmh 30.42 in1030.1 mb 0.00 in0.0 mm 0.00 in/hr0.0 mm/hr 0.00 in0.0 mm
01:57 AM 30.7°F-0.7°C 30.2°F-1.0°C 98% 6.0 mph E9.7 kmh E 11.0 mph17.7 kmh 30.42 in1030.1 mb 0.00 in0.0 mm 0.00 in/hr0.0 mm/hr 0.00 in0.0 mm
01:58 AM 30.7°F-0.7°C 30.2°F-1.0°C 98% 8.0 mph ENE12.9 kmh ENE 11.0 mph17.7 kmh 30.41 in1029.8 mb 0.00 in0.0 mm 0.00 in/hr0.0 mm/hr 0.00 in0.0 mm
02:00 AM 30.7°F-0.7°C 30.2°F-1.0°C 98% 7.0 mph E11.3 kmh E 11.0 mph17.7 kmh 30.41 in1029.8 mb 0.00 in0.0 mm 0.00 in/hr0.0 mm/hr 0.00 in0.0 mm
02:01 AM 30.7°F-0.7°C 30.2°F-1.0°C 98% 7.0 mph ENE11.3 kmh ENE 8.0 mph12.9 kmh 30.41 in1029.8 mb 0.00 in0.0 mm 0.00 in/hr0.0 mm/hr 0.00 in0.0 mm
02:02 AM 30.7°F-0.7°C 30.2°F-1.0°C 98% 7.0 mph E11.3 kmh E 8.0 mph12.9 kmh 30.42 in1030.1 mb 0.00 in0.0 mm 0.00 in/hr0.0 mm/hr 0.00 in0.0 mm
02:03 AM 30.7°F-0.7°C 30.2°F-1.0°C 98% 8.0 mph E12.9 kmh E 9.0 mph14.5 kmh 30.42 in1030.1 mb 0.00 in0.0 mm 0.00 in/hr0.0 mm/hr 0.00 in0.0 mm
02:04 AM 30.7°F-0.7°C 30.2°F-1.0°C 98% 8.0 mph E12.9 kmh E 9.0 mph14.5 kmh 30.42 in1030.1 mb 0.00 in0.0 mm 0.00 in/hr0.0 mm/hr 0.00 in0.0 mm
02:05 AM 30.7°F-0.7°C 30.2°F-1.0°C 98% 5.0 mph E8.0 kmh E 9.0 mph14.5 kmh 30.42 in1030.1 mb 0.00 in0.0 mm 0.00 in/hr0.0 mm/hr 0.00 in0.0 mm
02:06 AM 30.7°F-0.7°C 30.2°F-1.0°C 98% 8.0 mph E12.9 kmh E 9.0 mph14.5 kmh 30.42 in1030.1 mb 0.00 in0.0 mm 0.00 in/hr0.0 mm/hr 0.00 in0.0 mm
02:07 AM 30.7°F-0.7°C 30.2°F-1.0°C 98% 7.0 mph E11.3 kmh E 9.0 mph14.5 kmh 30.42 in1030.1 mb 0.00 in0.0 mm 0.00 in/hr0.0 mm/hr 0.00 in0.0 mm
02:08 AM 30.7°F-0.7°C 30.2°F-1.0°C 98% 7.0 mph E11.3 kmh E 9.0 mph14.5 kmh 30.42 in1030.1 mb 0.00 in0.0 mm 0.00 in/hr0.0 mm/hr 0.00 in0.0 mm
02:10 AM 30.7°F-0.7°C 30.2°F-1.0°C 98% 5.0 mph E8.0 kmh E 9.0 mph14.5 kmh 30.42 in1030.1 mb 0.00 in0.0 mm 0.00 in/hr0.0 mm/hr 0.00 in0.0 mm
02:11 AM 30.7°F-0.7°C 30.2°F-1.0°C 98% 8.0 mph ENE12.9 kmh ENE 9.0 mph14.5 kmh 30.41 in1029.8 mb 0.00 in0.0 mm 0.00 in/hr0.0 mm/hr 0.00 in0.0 mm
02:12 AM 30.8°F-0.7°C 30.3°F-0.9°C 98% 7.0 mph E11.3 kmh E 9.0 mph14.5 kmh 30.41 in1029.8 mb 0.00 in0.0 mm 0.00 in/hr0.0 mm/hr 0.00 in0.0 mm
02:13 AM 30.8°F-0.7°C 30.3°F-0.9°C 98% 5.0 mph ENE8.0 kmh ENE 9.0 mph14.5 kmh 30.41 in1029.8 mb 0.00 in0.0 mm 0.00 in/hr0.0 mm/hr 0.00 in0.0 mm
02:15 AM 30.8°F-0.7°C 30.3°F-0.9°C 98% 6.0 mph E9.7 kmh E 9.0 mph14.5 kmh 30.41 in1029.8 mb 0.00 in0.0 mm 0.00 in/hr0.0 mm/hr 0.00 in0.0 mm
02:17 AM 30.8°F-0.7°C 30.3°F-0.9°C 98% 6.0 mph E9.7 kmh E 9.0 mph14.5 kmh 30.41 in1029.8 mb 0.00 in0.0 mm 0.00 in/hr0.0 mm/hr 0.00 in0.0 mm
02:19 AM 30.8°F-0.7°C 30.3°F-0.9°C 98% 6.0 mph E9.7 kmh E 9.0 mph14.5 kmh 30.41 in1029.8 mb 0.00 in0.0 mm 0.00 in/hr0.0 mm/hr 0.00 in0.0 mm
02:20 AM 30.8°F-0.7°C 30.3°F-0.9°C 98% 5.0 mph ENE8.0 kmh ENE 9.0 mph14.5 kmh 30.41 in1029.8 mb 0.00 in0.0 mm 0.00 in/hr0.0 mm/hr 0.00 in0.0 mm
02:21 AM 30.8°F-0.7°C 30.3°F-0.9°C 98% 7.0 mph ENE11.3 kmh ENE 9.0 mph14.5 kmh 30.41 in1029.8 mb 0.00 in0.0 mm 0.00 in/hr0.0 mm/hr 0.00 in0.0 mm
02:22 AM 30.8°F-0.7°C 30.3°F-0.9°C 98% 5.0 mph E8.0 kmh E 9.0 mph14.5 kmh 30.41 in1029.8 mb 0.00 in0.0 mm 0.00 in/hr0.0 mm/hr 0.00 in0.0 mm
02:23 AM 30.8°F-0.7°C 30.3°F-0.9°C 98% 6.0 mph E9.7 kmh E 9.0 mph14.5 kmh 30.41 in1029.8 mb 0.00 in0.0 mm 0.00 in/hr0.0 mm/hr 0.00 in0.0 mm
02:25 AM 30.8°F-0.7°C 30.3°F-0.9°C 98% 6.0 mph E9.7 kmh E 9.0 mph14.5 kmh 30.41 in1029.8 mb 0.00 in0.0 mm 0.00 in/hr0.0 mm/hr 0.00 in0.0 mm
02:26 AM 30.8°F-0.7°C 30.3°F-0.9°C 98% 7.0 mph E11.3 kmh E 9.0 mph14.5 kmh 30.41 in1029.8 mb 0.00 in0.0 mm 0.00 in/hr0.0 mm/hr 0.00 in0.0 mm
02:28 AM 30.8°F-0.7°C 30.3°F-0.9°C 98% 7.0 mph E11.3 kmh E 9.0 mph14.5 kmh 30.41 in1029.8 mb 0.00 in0.0 mm 0.00 in/hr0.0 mm/hr 0.00 in0.0 mm
02:29 AM 30.8°F-0.7°C 30.3°F-0.9°C 98% 6.0 mph E9.7 kmh E 9.0 mph14.5 kmh 30.41 in1029.8 mb 0.00 in0.0 mm 0.00 in/hr0.0 mm/hr 0.00 in0.0 mm
02:30 AM 30.8°F-0.7°C 30.3°F-0.9°C 98% 7.0 mph E11.3 kmh E 9.0 mph14.5 kmh 30.41 in1029.8 mb 0.00 in0.0 mm 0.00 in/hr0.0 mm/hr 0.00 in0.0 mm
02:31 AM 30.8°F-0.7°C 30.3°F-0.9°C 98% 6.0 mph E9.7 kmh E 9.0 mph14.5 kmh 30.41 in1029.8 mb 0.00 in0.0 mm 0.00 in/hr0.0 mm/hr 0.00 in0.0 mm
02:32 AM 30.7°F-0.7°C 30.2°F-1.0°C 98% 8.0 mph E12.9 kmh E 10.0 mph16.1 kmh 30.42 in1030.1 mb 0.00 in0.0 mm 0.00 in/hr0.0 mm/hr 0.00 in0.0 mm
02:33 AM 30.7°F-0.7°C 30.2°F-1.0°C 98% 6.0 mph E9.7 kmh E 10.0 mph16.1 kmh 30.41 in1029.8 mb 0.00 in0.0 mm 0.00 in/hr0.0 mm/hr 0.00 in0.0 mm
02:35 AM 30.7°F-0.7°C 30.2°F-1.0°C 98% 9.0 mph E14.5 kmh E 10.0 mph16.1 kmh 30.41 in1029.8 mb 0.00 in0.0 mm 0.00 in/hr0.0 mm/hr 0.00 in0.0 mm
02:36 AM 30.6°F-0.8°C 30.1°F-1.1°C 98% 7.0 mph E11.3 kmh E 10.0 mph16.1 kmh 30.42 in1030.1 mb 0.00 in0.0 mm 0.00 in/hr0.0 mm/hr 0.00 in0.0 mm
02:38 AM 30.6°F-0.8°C 30.1°F-1.1°C 98% 8.0 mph E12.9 kmh E 10.0 mph16.1 kmh 30.42 in1030.1 mb 0.00 in0.0 mm 0.00 in/hr0.0 mm/hr 0.00 in0.0 mm
02:39 AM 30.6°F-0.8°C 30.1°F-1.1°C 98% 7.0 mph E11.3 kmh E 10.0 mph16.1 kmh 30.42 in1030.1 mb 0.00 in0.0 mm 0.00 in/hr0.0 mm/hr 0.00 in0.0 mm
02:40 AM 30.6°F-0.8°C 30.1°F-1.1°C 98% 7.0 mph E11.3 kmh E 10.0 mph16.1 kmh 30.41 in1029.8 mb 0.00 in0.0 mm 0.00 in/hr0.0 mm/hr 0.00 in0.0 mm
02:41 AM 30.6°F-0.8°C 30.1°F-1.1°C 98% 5.0 mph E8.0 kmh E 10.0 mph16.1 kmh 30.41 in1029.8 mb 0.00 in0.0 mm 0.00 in/hr0.0 mm/hr 0.00 in0.0 mm
02:43 AM 30.6°F-0.8°C 30.1°F-1.1°C 98% 7.0 mph E11.3 kmh E 10.0 mph16.1 kmh 30.41 in1029.8 mb 0.00 in0.0 mm 0.00 in/hr0.0 mm/hr 0.00 in0.0 mm
02:44 AM 30.6°F-0.8°C 30.1°F-1.1°C 98% 6.0 mph E9.7 kmh E 10.0 mph16.1 kmh 30.41 in1029.8 mb 0.00 in0.0 mm 0.00 in/hr0.0 mm/hr 0.00 in0.0 mm
02:45 AM 30.6°F-0.8°C 30.1°F-1.1°C 98% 5.0 mph ENE8.0 kmh ENE 10.0 mph16.1 kmh 30.41 in1029.8 mb 0.00 in0.0 mm 0.00 in/hr0.0 mm/hr 0.00 in0.0 mm
02:46 AM 30.7°F-0.7°C 30.2°F-1.0°C 98% 9.0 mph ENE14.5 kmh ENE 10.0 mph16.1 kmh 30.41 in1029.8 mb 0.00 in0.0 mm 0.00 in/hr0.0 mm/hr 0.00 in0.0 mm
02:48 AM 30.6°F-0.8°C 30.1°F-1.1°C 98% 7.0 mph E11.3 kmh E 10.0 mph16.1 kmh 30.41 in1029.8 mb 0.00 in0.0 mm 0.00 in/hr0.0 mm/hr 0.00 in0.0 mm
02:50 AM 30.6°F-0.8°C 30.1°F-1.1°C 98% 8.0 mph E12.9 kmh E 10.0 mph16.1 kmh 30.41 in1029.8 mb 0.00 in0.0 mm 0.00 in/hr0.0 mm/hr 0.00 in0.0 mm
02:51 AM 30.6°F-0.8°C 30.1°F-1.1°C 98% 8.0 mph E12.9 kmh E 10.0 mph16.1 kmh 30.41 in1029.8 mb 0.00 in0.0 mm 0.00 in/hr0.0 mm/hr 0.00 in0.0 mm
02:52 AM 30.6°F-0.8°C 30.1°F-1.1°C 98% 4.0 mph E6.4 kmh E 10.0 mph16.1 kmh 30.41 in1029.8 mb 0.00 in0.0 mm 0.00 in/hr0.0 mm/hr 0.00 in0.0 mm
02:53 AM 30.6°F-0.8°C 30.1°F-1.1°C 98% 6.0 mph E9.7 kmh E 10.0 mph16.1 kmh 30.41 in1029.8 mb 0.00 in0.0 mm 0.00 in/hr0.0 mm/hr 0.00 in0.0 mm
02:55 AM 30.6°F-0.8°C 30.1°F-1.1°C 98% 5.0 mph ENE8.0 kmh ENE 10.0 mph16.1 kmh 30.41 in1029.8 mb 0.00 in0.0 mm 0.00 in/hr0.0 mm/hr 0.00 in0.0 mm
02:56 AM 30.5°F-0.8°C 30.0°F-1.1°C 98% 7.0 mph ENE11.3 kmh ENE 10.0 mph16.1 kmh 30.41 in1029.8 mb 0.00 in0.0 mm 0.00 in/hr0.0 mm/hr 0.00 in0.0 mm
02:57 AM 30.5°F-0.8°C 30.0°F-1.1°C 98% 8.0 mph ENE12.9 kmh ENE 10.0 mph16.1 kmh 30.41 in1029.8 mb 0.00 in0.0 mm 0.00 in/hr0.0 mm/hr 0.00 in0.0 mm
02:59 AM 30.6°F-0.8°C 30.1°F-1.1°C 98% 7.0 mph ENE11.3 kmh ENE 10.0 mph16.1 kmh 30.41 in1029.8 mb 0.00 in0.0 mm 0.00 in/hr0.0 mm/hr 0.00 in0.0 mm
03:00 AM 30.5°F-0.8°C 30.0°F-1.1°C 98% 7.0 mph ENE11.3 kmh ENE 10.0 mph16.1 kmh 30.41 in1029.8 mb 0.00 in0.0 mm 0.00 in/hr0.0 mm/hr 0.00 in0.0 mm
03:01 AM 30.5°F-0.8°C 30.0°F-1.1°C 98% 5.0 mph ENE8.0 kmh ENE 7.0 mph11.3 kmh 30.41 in1029.8 mb 0.00 in0.0 mm 0.00 in/hr0.0 mm/hr 0.00 in0.0 mm
03:03 AM 30.5°F-0.8°C 30.0°F-1.1°C 98% 7.0 mph E11.3 kmh E 7.0 mph11.3 kmh 30.41 in1029.8 mb 0.00 in0.0 mm 0.00 in/hr0.0 mm/hr 0.00 in0.0 mm
03:04 AM 30.5°F-0.8°C 30.0°F-1.1°C 98% 6.0 mph E9.7 kmh E 8.0 mph12.9 kmh 30.41 in1029.8 mb 0.00 in0.0 mm 0.00 in/hr0.0 mm/hr 0.00 in0.0 mm
03:05 AM 30.5°F-0.8°C 30.0°F-1.1°C 98% 7.0 mph E11.3 kmh E 8.0 mph12.9 kmh 30.41 in1029.8 mb 0.00 in0.0 mm 0.00 in/hr0.0 mm/hr 0.00 in0.0 mm
03:06 AM 30.6°F-0.8°C 30.1°F-1.1°C 98% 8.0 mph E12.9 kmh E 10.0 mph16.1 kmh 30.41 in1029.8 mb 0.00 in0.0 mm 0.00 in/hr0.0 mm/hr 0.00 in0.0 mm
03:07 AM 30.6°F-0.8°C 30.1°F-1.1°C 98% 7.0 mph E11.3 kmh E 10.0 mph16.1 kmh 30.41 in1029.8 mb 0.00 in0.0 mm 0.00 in/hr0.0 mm/hr 0.00 in0.0 mm
03:08 AM 30.6°F-0.8°C 30.1°F-1.1°C 98% 7.0 mph ENE11.3 kmh ENE 10.0 mph16.1 kmh 30.41 in1029.8 mb 0.00 in0.0 mm 0.00 in/hr0.0 mm/hr 0.00 in0.0 mm
03:10 AM 30.6°F-0.8°C 30.1°F-1.1°C 98% 7.0 mph E11.3 kmh E 10.0 mph16.1 kmh 30.41 in1029.8 mb 0.00 in0.0 mm 0.00 in/hr0.0 mm/hr 0.00 in0.0 mm
03:11 AM 30.6°F-0.8°C 30.1°F-1.1°C 98% 9.0 mph E14.5 kmh E 10.0 mph16.1 kmh 30.41 in1029.8 mb 0.00 in0.0 mm 0.00 in/hr0.0 mm/hr 0.00 in0.0 mm
03:12 AM 30.6°F-0.8°C 30.1°F-1.1°C 98% 6.0 mph E9.7 kmh E 10.0 mph16.1 kmh 30.41 in1029.8 mb 0.00 in0.0 mm 0.00 in/hr0.0 mm/hr 0.00 in0.0 mm
03:13 AM 30.6°F-0.8°C 30.1°F-1.1°C 98% 7.0 mph ENE11.3 kmh ENE 10.0 mph16.1 kmh 30.41 in1029.8 mb 0.00 in0.0 mm 0.00 in/hr0.0 mm/hr 0.00 in0.0 mm
03:15 AM 30.6°F-0.8°C 30.1°F-1.1°C 98% 7.0 mph E11.3 kmh E 10.0 mph16.1 kmh 30.41 in1029.8 mb 0.00 in0.0 mm 0.00 in/hr0.0 mm/hr 0.00 in0.0 mm
03:16 AM 30.6°F-0.8°C 30.1°F-1.1°C 98% 7.0 mph ENE11.3 kmh ENE 10.0 mph16.1 kmh 30.41 in1029.8 mb 0.00 in0.0 mm 0.00 in/hr0.0 mm/hr 0.00 in0.0 mm
03:18 AM 30.6°F-0.8°C 30.1°F-1.1°C 98% 7.0 mph E11.3 kmh E 10.0 mph16.1 kmh 30.41 in1029.8 mb 0.00 in0.0 mm 0.00 in/hr0.0 mm/hr 0.00 in0.0 mm
03:19 AM 30.6°F-0.8°C 30.1°F-1.1°C 98% 8.0 mph ENE12.9 kmh ENE 10.0 mph16.1 kmh 30.41 in1029.8 mb 0.00 in0.0 mm 0.00 in/hr0.0 mm/hr 0.00 in0.0 mm
03:20 AM 30.6°F-0.8°C 30.1°F-1.1°C 98% 9.0 mph E14.5 kmh E 10.0 mph16.1 kmh 30.40 in1029.5 mb 0.00 in0.0 mm 0.00 in/hr0.0 mm/hr 0.00 in0.0 mm
03:21 AM 30.6°F-0.8°C 30.1°F-1.1°C 98% 10.0 mph E16.1 kmh E 10.0 mph16.1 kmh 30.40 in1029.5 mb 0.00 in0.0 mm 0.00 in/hr0.0 mm/hr 0.00 in0.0 mm
03:22 AM 30.6°F-0.8°C 30.1°F-1.1°C 98% 7.0 mph E11.3 kmh E 10.0 mph16.1 kmh 30.40 in1029.5 mb 0.00 in0.0 mm 0.00 in/hr0.0 mm/hr 0.00 in0.0 mm
03:24 AM 30.6°F-0.8°C 30.1°F-1.1°C 98% 9.0 mph ENE14.5 kmh ENE 10.0 mph16.1 kmh 30.40 in1029.5 mb 0.00 in0.0 mm 0.00 in/hr0.0 mm/hr 0.00 in0.0 mm
03:25 AM 30.6°F-0.8°C 30.1°F-1.1°C 98% 7.0 mph ENE11.3 kmh ENE 10.0 mph16.1 kmh 30.40 in1029.5 mb 0.00 in0.0 mm 0.00 in/hr0.0 mm/hr 0.00 in0.0 mm
03:26 AM 30.6°F-0.8°C 30.1°F-1.1°C 98% 7.0 mph ENE11.3 kmh ENE 10.0 mph16.1 kmh 30.40 in1029.5 mb 0.00 in0.0 mm 0.00 in/hr0.0 mm/hr 0.00 in0.0 mm
03:27 AM 30.6°F-0.8°C 30.1°F-1.1°C 98% 7.0 mph ENE11.3 kmh ENE 10.0 mph16.1 kmh 30.40 in1029.5 mb 0.00 in0.0 mm 0.00 in/hr0.0 mm/hr 0.00 in0.0 mm
03:28 AM 30.6°F-0.8°C 30.1°F-1.1°C 98% 8.0 mph ENE12.9 kmh ENE 10.0 mph16.1 kmh 30.40 in1029.5 mb 0.00 in0.0 mm 0.00 in/hr0.0 mm/hr 0.00 in0.0 mm
03:29 AM 30.6°F-0.8°C 30.1°F-1.1°C 98% 9.0 mph E14.5 kmh E 10.0 mph16.1 kmh 30.40 in1029.5 mb 0.00 in0.0 mm 0.00 in/hr0.0 mm/hr 0.00 in0.0 mm
03:30 AM 30.6°F-0.8°C 30.1°F-1.1°C 98% 7.0 mph E11.3 kmh E 10.0 mph16.1 kmh 30.40 in1029.5 mb 0.00 in0.0 mm 0.00 in/hr0.0 mm/hr 0.00 in0.0 mm
03:31 AM 30.6°F-0.8°C 30.1°F-1.1°C 98% 8.0 mph ENE12.9 kmh ENE 11.0 mph17.7 kmh 30.40 in1029.5 mb 0.00 in0.0 mm 0.00 in/hr0.0 mm/hr 0.00 in0.0 mm
03:32 AM 30.6°F-0.8°C 30.1°F-1.1°C 98% 8.0 mph ENE12.9 kmh ENE 11.0 mph17.7 kmh 30.40 in1029.5 mb 0.00 in0.0 mm 0.00 in/hr0.0 mm/hr 0.00 in0.0 mm
03:33 AM 30.6°F-0.8°C 30.1°F-1.1°C 98% 7.0 mph ENE11.3 kmh ENE 11.0 mph17.7 kmh 30.40 in1029.5 mb 0.00 in0.0 mm 0.00 in/hr0.0 mm/hr 0.00 in0.0 mm
03:35 AM 30.6°F-0.8°C 30.1°F-1.1°C 98% 8.0 mph ENE12.9 kmh ENE 11.0 mph17.7 kmh 30.40 in1029.5 mb 0.00 in0.0 mm 0.00 in/hr0.0 mm/hr 0.00 in0.0 mm
03:36 AM 30.6°F-0.8°C 30.1°F-1.1°C 98% 10.0 mph ENE16.1 kmh ENE 11.0 mph17.7 kmh 30.40 in1029.5 mb 0.00 in0.0 mm 0.00 in/hr0.0 mm/hr 0.00 in0.0 mm
03:37 AM 30.6°F-0.8°C 30.1°F-1.1°C 98% 8.0 mph ENE12.9 kmh ENE 11.0 mph17.7 kmh 30.40 in1029.5 mb 0.00 in0.0 mm 0.00 in/hr0.0 mm/hr 0.00 in0.0 mm
03:38 AM 30.6°F-0.8°C 30.1°F-1.1°C 98% 5.0 mph ENE8.0 kmh ENE 11.0 mph17.7 kmh 30.40 in1029.5 mb 0.00 in0.0 mm 0.00 in/hr0.0 mm/hr 0.00 in0.0 mm
03:40 AM 30.6°F-0.8°C 30.1°F-1.1°C 98% 9.0 mph ENE14.5 kmh ENE 11.0 mph17.7 kmh 30.40 in1029.5 mb 0.00 in0.0 mm 0.00 in/hr0.0 mm/hr 0.00 in0.0 mm
03:41 AM 30.6°F-0.8°C 30.1°F-1.1°C 98% 7.0 mph ENE11.3 kmh ENE 11.0 mph17.7 kmh 30.40 in1029.5 mb 0.00 in0.0 mm 0.00 in/hr0.0 mm/hr 0.00 in0.0 mm
03:42 AM 30.5°F-0.8°C 30.0°F-1.1°C 98% 4.0 mph ENE6.4 kmh ENE 11.0 mph17.7 kmh 30.40 in1029.5 mb 0.00 in0.0 mm 0.00 in/hr0.0 mm/hr 0.00 in0.0 mm
03:43 AM 30.6°F-0.8°C 30.1°F-1.1°C 98% 8.0 mph ENE12.9 kmh ENE 11.0 mph17.7 kmh 30.40 in1029.5 mb 0.00 in0.0 mm 0.00 in/hr0.0 mm/hr 0.00 in0.0 mm
03:44 AM 30.5°F-0.8°C 30.0°F-1.1°C 98% 7.0 mph ENE11.3 kmh ENE 11.0 mph17.7 kmh 30.40 in1029.5 mb 0.00 in0.0 mm 0.00 in/hr0.0 mm/hr 0.00 in0.0 mm
03:46 AM 30.5°F-0.8°C 30.0°F-1.1°C 98% 9.0 mph NE14.5 kmh NE 11.0 mph17.7 kmh 30.40 in1029.5 mb 0.00 in0.0 mm 0.00 in/hr0.0 mm/hr 0.00 in0.0 mm
03:47 AM 30.5°F-0.8°C 30.0°F-1.1°C 98% 9.0 mph NE14.5 kmh NE 11.0 mph17.7 kmh 30.40 in1029.5 mb 0.00 in0.0 mm 0.00 in/hr0.0 mm/hr 0.00 in0.0 mm
03:48 AM 30.4°F-0.9°C 29.9°F-1.2°C 98% 9.0 mph ENE14.5 kmh ENE 12.0 mph19.3 kmh 30.40 in1029.5 mb 0.00 in0.0 mm 0.00 in/hr0.0 mm/hr 0.00 in0.0 mm
03:50 AM 30.4°F-0.9°C 29.9°F-1.2°C 98% 7.0 mph ENE11.3 kmh ENE 12.0 mph19.3 kmh 30.40 in1029.5 mb 0.00 in0.0 mm 0.00 in/hr0.0 mm/hr 0.00 in0.0 mm
03:51 AM 30.3°F-0.9°C 29.8°F-1.2°C 98% 9.0 mph ENE14.5 kmh ENE 12.0 mph19.3 kmh 30.41 in1029.8 mb 0.00 in0.0 mm 0.00 in/hr0.0 mm/hr 0.00 in0.0 mm
03:52 AM 30.3°F-0.9°C 29.8°F-1.2°C 98% 8.0 mph ENE12.9 kmh ENE 12.0 mph19.3 kmh 30.41 in1029.8 mb 0.00 in0.0 mm 0.00 in/hr0.0 mm/hr 0.00 in0.0 mm
03:54 AM 30.4°F-0.9°C 29.9°F-1.2°C 98% 8.0 mph ENE12.9 kmh ENE 12.0 mph19.3 kmh 30.41 in1029.8 mb 0.00 in0.0 mm 0.00 in/hr0.0 mm/hr 0.00 in0.0 mm
03:56 AM 30.4°F-0.9°C 29.9°F-1.2°C 98% 8.0 mph ENE12.9 kmh ENE 12.0 mph19.3 kmh 30.41 in1029.8 mb 0.00 in0.0 mm 0.00 in/hr0.0 mm/hr 0.00 in0.0 mm
03:57 AM 30.4°F-0.9°C 29.9°F-1.2°C 98% 8.0 mph ENE12.9 kmh ENE 12.0 mph19.3 kmh 30.42 in1030.1 mb 0.00 in0.0 mm 0.00 in/hr0.0 mm/hr 0.00 in0.0 mm
03:58 AM 30.4°F-0.9°C 29.9°F-1.2°C 98% 9.0 mph ENE14.5 kmh ENE 12.0 mph19.3 kmh 30.42 in1030.1 mb 0.00 in0.0 mm 0.00 in/hr0.0 mm/hr 0.00 in0.0 mm
03:59 AM 30.4°F-0.9°C 29.9°F-1.2°C 98% 9.0 mph E14.5 kmh E 12.0 mph19.3 kmh 30.42 in1030.1 mb 0.00 in0.0 mm 0.00 in/hr0.0 mm/hr 0.00 in0.0 mm
04:00 AM 30.4°F-0.9°C 29.9°F-1.2°C 98% 6.0 mph E9.7 kmh E 12.0 mph19.3 kmh 30.42 in1030.1 mb 0.00 in0.0 mm 0.00 in/hr0.0 mm/hr 0.00 in0.0 mm
04:01 AM 30.4°F-0.9°C 29.9°F-1.2°C 98% 7.0 mph E11.3 kmh E 7.0 mph11.3 kmh 30.42 in1030.1 mb 0.00 in0.0 mm 0.00 in/hr0.0 mm/hr 0.00 in0.0 mm
04:03 AM 30.5°F-0.8°C 30.0°F-1.1°C 98% 6.0 mph E9.7 kmh E 8.0 mph12.9 kmh 30.43 in1030.5 mb 0.00 in0.0 mm 0.00 in/hr0.0 mm/hr 0.00 in0.0 mm
04:04 AM 30.5°F-0.8°C 30.0°F-1.1°C 98% 6.0 mph E9.7 kmh E 8.0 mph12.9 kmh 30.43 in1030.5 mb 0.00 in0.0 mm 0.00 in/hr0.0 mm/hr 0.00 in0.0 mm
04:05 AM 30.5°F-0.8°C 30.0°F-1.1°C 98% 7.0 mph E11.3 kmh E 8.0 mph12.9 kmh 30.43 in1030.5 mb 0.00 in0.0 mm 0.00 in/hr0.0 mm/hr 0.00 in0.0 mm
04:07 AM 30.6°F-0.8°C 30.1°F-1.1°C 98% 5.0 mph E8.0 kmh E 8.0 mph12.9 kmh 30.43 in1030.5 mb 0.00 in0.0 mm 0.00 in/hr0.0 mm/hr 0.00 in0.0 mm
04:08 AM 30.6°F-0.8°C 30.1°F-1.1°C 98% 6.0 mph E9.7 kmh E 8.0 mph12.9 kmh 30.43 in1030.5 mb 0.00 in0.0 mm 0.00 in/hr0.0 mm/hr 0.00 in0.0 mm
04:09 AM 30.6°F-0.8°C 30.1°F-1.1°C 98% 5.0 mph ENE8.0 kmh ENE 8.0 mph12.9 kmh 30.43 in1030.5 mb 0.00 in0.0 mm 0.00 in/hr0.0 mm/hr 0.00 in0.0 mm
04:10 AM 30.6°F-0.8°C 30.1°F-1.1°C 98% 5.0 mph ENE8.0 kmh ENE 8.0 mph12.9 kmh 30.43 in1030.5 mb 0.00 in0.0 mm 0.00 in/hr0.0 mm/hr 0.00 in0.0 mm
04:11 AM 30.6°F-0.8°C 30.1°F-1.1°C 98% 2.0 mph E3.2 kmh E 8.0 mph12.9 kmh 30.43 in1030.5 mb 0.00 in0.0 mm 0.00 in/hr0.0 mm/hr 0.00 in0.0 mm
04:12 AM 30.6°F-0.8°C 30.1°F-1.1°C 98% 3.0 mph ENE4.8 kmh ENE 8.0 mph12.9 kmh 30.43 in1030.5 mb 0.00 in0.0 mm 0.00 in/hr0.0 mm/hr 0.00 in0.0 mm
04:14 AM 30.7°F-0.7°C 30.2°F-1.0°C 98% 7.0 mph E11.3 kmh E 8.0 mph12.9 kmh 30.42 in1030.1 mb 0.00 in0.0 mm 0.00 in/hr0.0 mm/hr 0.00 in0.0 mm
04:15 AM 30.7°F-0.7°C 30.2°F-1.0°C 98% 7.0 mph E11.3 kmh E 8.0 mph12.9 kmh 30.42 in1030.1 mb 0.00 in0.0 mm 0.00 in/hr0.0 mm/hr 0.00 in0.0 mm
04:16 AM 30.7°F-0.7°C 30.2°F-1.0°C 98% 6.0 mph E9.7 kmh E 8.0 mph12.9 kmh 30.42 in1030.1 mb 0.00 in0.0 mm 0.00 in/hr0.0 mm/hr 0.00 in0.0 mm
04:17 AM 30.7°F-0.7°C 30.2°F-1.0°C 98% 5.0 mph ENE8.0 kmh ENE 8.0 mph12.9 kmh 30.43 in1030.5 mb 0.00 in0.0 mm 0.00 in/hr0.0 mm/hr 0.00 in0.0 mm
04:18 AM 30.7°F-0.7°C 30.2°F-1.0°C 98% 5.0 mph ENE8.0 kmh ENE 8.0 mph12.9 kmh 30.42 in1030.1 mb 0.00 in0.0 mm 0.00 in/hr0.0 mm/hr 0.00 in0.0 mm
04:19 AM 30.7°F-0.7°C 30.2°F-1.0°C 98% 7.0 mph ENE11.3 kmh ENE 8.0 mph12.9 kmh 30.42 in1030.1 mb 0.00 in0.0 mm 0.00 in/hr0.0 mm/hr 0.00 in0.0 mm
04:20 AM 30.7°F-0.7°C 30.2°F-1.0°C 98% 7.0 mph ENE11.3 kmh ENE 8.0 mph12.9 kmh 30.42 in1030.1 mb 0.00 in0.0 mm 0.00 in/hr0.0 mm/hr 0.00 in0.0 mm
04:22 AM 30.8°F-0.7°C 30.3°F-0.9°C 98% 5.0 mph ENE8.0 kmh ENE 8.0 mph12.9 kmh 30.43 in1030.5 mb 0.00 in0.0 mm 0.00 in/hr0.0 mm/hr 0.00 in0.0 mm
04:23 AM 30.8°F-0.7°C 30.3°F-0.9°C 98% 7.0 mph ENE11.3 kmh ENE 8.0 mph12.9 kmh 30.42 in1030.1 mb 0.00 in0.0 mm 0.00 in/hr0.0 mm/hr 0.00 in0.0 mm
04:24 AM 30.8°F-0.7°C 30.6°F-0.8°C 99% 8.0 mph NE12.9 kmh NE 9.0 mph14.5 kmh 30.42 in1030.1 mb 0.00 in0.0 mm 0.00 in/hr0.0 mm/hr 0.00 in0.0 mm
04:26 AM 30.8°F-0.7°C 30.6°F-0.8°C 99% 9.0 mph NE14.5 kmh NE 10.0 mph16.1 kmh 30.42 in1030.1 mb 0.00 in0.0 mm 0.00 in/hr0.0 mm/hr 0.00 in0.0 mm
04:27 AM 30.8°F-0.7°C 30.6°F-0.8°C 99% 7.0 mph NE11.3 kmh NE 10.0 mph16.1 kmh 30.42 in1030.1 mb 0.00 in0.0 mm 0.00 in/hr0.0 mm/hr 0.00 in0.0 mm
04:28 AM 30.8°F-0.7°C 30.6°F-0.8°C 99% 8.0 mph NE12.9 kmh NE 10.0 mph16.1 kmh 30.43 in1030.5 mb 0.00 in0.0 mm 0.00 in/hr0.0 mm/hr 0.00 in0.0 mm
04:29 AM 30.8°F-0.7°C 30.6°F-0.8°C 99% 7.0 mph NE11.3 kmh NE 10.0 mph16.1 kmh 30.43 in1030.5 mb 0.00 in0.0 mm 0.00 in/hr0.0 mm/hr 0.00 in0.0 mm
04:30 AM 30.8°F-0.7°C 30.6°F-0.8°C 99% 5.0 mph NE8.0 kmh NE 7.0 mph11.3 kmh 30.43 in1030.5 mb 0.00 in0.0 mm 0.00 in/hr0.0 mm/hr 0.00 in0.0 mm
04:31 AM 30.8°F-0.7°C 30.3°F-0.9°C 98% 8.0 mph NE12.9 kmh NE 9.0 mph14.5 kmh 30.43 in1030.5 mb 0.00 in0.0 mm 0.00 in/hr0.0 mm/hr 0.00 in0.0 mm
04:32 AM 30.8°F-0.7°C 30.3°F-0.9°C 98% 8.0 mph NE12.9 kmh NE 9.0 mph14.5 kmh 30.43 in1030.5 mb 0.00 in0.0 mm 0.00 in/hr0.0 mm/hr 0.00 in0.0 mm
04:33 AM 30.7°F-0.7°C 30.2°F-1.0°C 98% 9.0 mph NE14.5 kmh NE 9.0 mph14.5 kmh 30.43 in1030.5 mb 0.00 in0.0 mm 0.00 in/hr0.0 mm/hr 0.00 in0.0 mm
04:34 AM 30.8°F-0.7°C 30.3°F-0.9°C 98% 8.0 mph NE12.9 kmh NE 9.0 mph14.5 kmh 30.43 in1030.5 mb 0.00 in0.0 mm 0.00 in/hr0.0 mm/hr 0.00 in0.0 mm
04:36 AM 30.8°F-0.7°C 30.3°F-0.9°C 98% 8.0 mph NE12.9 kmh NE 9.0 mph14.5 kmh 30.43 in1030.5 mb 0.00 in0.0 mm 0.00 in/hr0.0 mm/hr 0.00 in0.0 mm
04:37 AM 30.8°F-0.7°C 30.3°F-0.9°C 98% 5.0 mph NE8.0 kmh NE 9.0 mph14.5 kmh 30.43 in1030.5 mb 0.00 in0.0 mm 0.00 in/hr0.0 mm/hr 0.00 in0.0 mm
04:38 AM 30.8°F-0.7°C 30.3°F-0.9°C 98% 9.0 mph NE14.5 kmh NE 9.0 mph14.5 kmh 30.43 in1030.5 mb 0.00 in0.0 mm 0.00 in/hr0.0 mm/hr 0.00 in0.0 mm
04:40 AM 30.8°F-0.7°C 30.3°F-0.9°C 98% 5.0 mph NE8.0 kmh NE 9.0 mph14.5 kmh 30.43 in1030.5 mb 0.00 in0.0 mm 0.00 in/hr0.0 mm/hr 0.00 in0.0 mm
04:41 AM 30.8°F-0.7°C 30.3°F-0.9°C 98% 7.0 mph ENE11.3 kmh ENE 9.0 mph14.5 kmh 30.43 in1030.5 mb 0.00 in0.0 mm 0.00 in/hr0.0 mm/hr 0.00 in0.0 mm
04:42 AM 30.8°F-0.7°C 30.3°F-0.9°C 98% 8.0 mph ENE12.9 kmh ENE 9.0 mph14.5 kmh 30.43 in1030.5 mb 0.00 in0.0 mm 0.00 in/hr0.0 mm/hr 0.00 in0.0 mm
04:43 AM 30.8°F-0.7°C 30.3°F-0.9°C 98% 8.0 mph ENE12.9 kmh ENE 9.0 mph14.5 kmh 30.43 in1030.5 mb 0.00 in0.0 mm 0.00 in/hr0.0 mm/hr 0.00 in0.0 mm
04:44 AM 30.8°F-0.7°C 30.3°F-0.9°C 98% 8.0 mph NE12.9 kmh NE 9.0 mph14.5 kmh 30.43 in1030.5 mb 0.00 in0.0 mm 0.00 in/hr0.0 mm/hr 0.00 in0.0 mm
04:45 AM 30.8°F-0.7°C 30.3°F-0.9°C 98% 7.0 mph NE11.3 kmh NE 10.0 mph16.1 kmh 30.43 in1030.5 mb 0.00 in0.0 mm 0.00 in/hr0.0 mm/hr 0.00 in0.0 mm
04:46 AM 30.8°F-0.7°C 30.3°F-0.9°C 98% 7.0 mph NE11.3 kmh NE 10.0 mph16.1 kmh 30.43 in1030.5 mb 0.00 in0.0 mm 0.00 in/hr0.0 mm/hr 0.00 in0.0 mm
04:47 AM 30.8°F-0.7°C 30.3°F-0.9°C 98% 5.0 mph E8.0 kmh E 10.0 mph16.1 kmh 30.43 in1030.5 mb 0.00 in0.0 mm 0.00 in/hr0.0 mm/hr 0.00 in0.0 mm
04:48 AM 30.8°F-0.7°C 30.3°F-0.9°C 98% 7.0 mph NE11.3 kmh NE 10.0 mph16.1 kmh 30.43 in1030.5 mb 0.00 in0.0 mm 0.00 in/hr0.0 mm/hr 0.00 in0.0 mm
04:49 AM 30.8°F-0.7°C 30.3°F-0.9°C 98% 7.0 mph NE11.3 kmh NE 10.0 mph16.1 kmh 30.43 in1030.5 mb 0.00 in0.0 mm 0.00 in/hr0.0 mm/hr 0.00 in0.0 mm
04:50 AM 30.8°F-0.7°C 30.3°F-0.9°C 98% 6.0 mph NE9.7 kmh NE 10.0 mph16.1 kmh 30.43 in1030.5 mb 0.00 in0.0 mm 0.00 in/hr0.0 mm/hr 0.00 in0.0 mm
04:51 AM 30.8°F-0.7°C 30.3°F-0.9°C 98% 6.0 mph NE9.7 kmh NE 10.0 mph16.1 kmh 30.43 in1030.5 mb 0.00 in0.0 mm 0.00 in/hr0.0 mm/hr 0.00 in0.0 mm
04:52 AM 30.8°F-0.7°C 30.3°F-0.9°C 98% 7.0 mph NE11.3 kmh NE 10.0 mph16.1 kmh 30.43 in1030.5 mb 0.00 in0.0 mm 0.00 in/hr0.0 mm/hr 0.00 in0.0 mm
04:53 AM 30.7°F-0.7°C 30.2°F-1.0°C 98% 7.0 mph NE11.3 kmh NE 10.0 mph16.1 kmh 30.43 in1030.5 mb 0.00 in0.0 mm 0.00 in/hr0.0 mm/hr 0.00 in0.0 mm
04:55 AM 30.8°F-0.7°C 30.3°F-0.9°C 98% 6.0 mph NE9.7 kmh NE 10.0 mph16.1 kmh 30.43 in1030.5 mb 0.00 in0.0 mm 0.00 in/hr0.0 mm/hr 0.00 in0.0 mm
04:56 AM 30.7°F-0.7°C 30.2°F-1.0°C 98% 6.0 mph NE9.7 kmh NE 10.0 mph16.1 kmh 30.43 in1030.5 mb 0.00 in0.0 mm 0.00 in/hr0.0 mm/hr 0.00 in0.0 mm
04:57 AM 30.7°F-0.7°C 30.2°F-1.0°C 98% 6.0 mph NE9.7 kmh NE 10.0 mph16.1 kmh 30.43 in1030.5 mb 0.00 in0.0 mm 0.00 in/hr0.0 mm/hr 0.00 in0.0 mm
04:58 AM 30.7°F-0.7°C 30.2°F-1.0°C 98% 7.0 mph NE11.3 kmh NE 10.0 mph16.1 kmh 30.43 in1030.5 mb 0.00 in0.0 mm 0.00 in/hr0.0 mm/hr 0.00 in0.0 mm
04:59 AM 30.7°F-0.7°C 30.2°F-1.0°C 98% 5.0 mph NE8.0 kmh NE 10.0 mph16.1 kmh 30.43 in1030.5 mb 0.00 in0.0 mm 0.00 in/hr0.0 mm/hr 0.00 in0.0 mm
05:00 AM 30.7°F-0.7°C 30.2°F-1.0°C 98% 7.0 mph NE11.3 kmh NE 10.0 mph16.1 kmh 30.43 in1030.5 mb 0.00 in0.0 mm 0.00 in/hr0.0 mm/hr 0.00 in0.0 mm
05:02 AM 30.8°F-0.7°C 30.3°F-0.9°C 98% 6.0 mph NE9.7 kmh NE 8.0 mph12.9 kmh 30.43 in1030.5 mb 0.00 in0.0 mm 0.00 in/hr0.0 mm/hr 0.00 in0.0 mm
05:04 AM 30.7°F-0.7°C 30.2°F-1.0°C 98% 6.0 mph NE9.7 kmh NE 8.0 mph12.9 kmh 30.44 in1030.8 mb 0.00 in0.0 mm 0.00 in/hr0.0 mm/hr 0.00 in0.0 mm
05:05 AM 30.7°F-0.7°C 30.2°F-1.0°C 98% 7.0 mph NE11.3 kmh NE 9.0 mph14.5 kmh 30.44 in1030.8 mb 0.00 in0.0 mm 0.00 in/hr0.0 mm/hr 0.00 in0.0 mm
05:06 AM 30.7°F-0.7°C 30.2°F-1.0°C 98% 7.0 mph NE11.3 kmh NE 9.0 mph14.5 kmh 30.44 in1030.8 mb 0.00 in0.0 mm 0.00 in/hr0.0 mm/hr 0.00 in0.0 mm
05:07 AM 30.7°F-0.7°C 30.2°F-1.0°C 98% 6.0 mph NE9.7 kmh NE 9.0 mph14.5 kmh 30.44 in1030.8 mb 0.00 in0.0 mm 0.00 in/hr0.0 mm/hr 0.00 in0.0 mm
05:08 AM 30.7°F-0.7°C 30.2°F-1.0°C 98% 5.0 mph NE8.0 kmh NE 9.0 mph14.5 kmh 30.44 in1030.8 mb 0.00 in0.0 mm 0.00 in/hr0.0 mm/hr 0.00 in0.0 mm
05:10 AM 30.7°F-0.7°C 30.2°F-1.0°C 98% 7.0 mph NE11.3 kmh NE 9.0 mph14.5 kmh 30.44 in1030.8 mb 0.00 in0.0 mm 0.00 in/hr0.0 mm/hr 0.00 in0.0 mm
05:11 AM 30.7°F-0.7°C 30.2°F-1.0°C 98% 5.0 mph NE8.0 kmh NE 9.0 mph14.5 kmh 30.44 in1030.8 mb 0.00 in0.0 mm 0.00 in/hr0.0 mm/hr 0.00 in0.0 mm
05:12 AM 30.7°F-0.7°C 30.2°F-1.0°C 98% 6.0 mph NE9.7 kmh NE 9.0 mph14.5 kmh 30.44 in1030.8 mb 0.00 in0.0 mm 0.00 in/hr0.0 mm/hr 0.00 in0.0 mm
05:13 AM 30.7°F-0.7°C 30.2°F-1.0°C 98% 5.0 mph NE8.0 kmh NE 9.0 mph14.5 kmh 30.44 in1030.8 mb 0.00 in0.0 mm 0.00 in/hr0.0 mm/hr 0.00 in0.0 mm
05:15 AM 30.7°F-0.7°C 30.2°F-1.0°C 98% 7.0 mph NE11.3 kmh NE 9.0 mph14.5 kmh 30.44 in1030.8 mb 0.00 in0.0 mm 0.00 in/hr0.0 mm/hr 0.00 in0.0 mm
05:16 AM 30.7°F-0.7°C 30.5°F-0.8°C 99% 4.0 mph NE6.4 kmh NE 9.0 mph14.5 kmh 30.45 in1031.2 mb 0.00 in0.0 mm 0.00 in/hr0.0 mm/hr 0.00 in0.0 mm
05:17 AM 30.7°F-0.7°C 30.2°F-1.0°C 98% 4.0 mph NE6.4 kmh NE 9.0 mph14.5 kmh 30.45 in1031.2 mb 0.00 in0.0 mm 0.00 in/hr0.0 mm/hr 0.00 in0.0 mm
05:18 AM 30.7°F-0.7°C 30.2°F-1.0°C 98% 7.0 mph NE11.3 kmh NE 9.0 mph14.5 kmh 30.45 in1031.2 mb 0.00 in0.0 mm 0.00 in/hr0.0 mm/hr 0.00 in0.0 mm
05:20 AM 30.7°F-0.7°C 30.2°F-1.0°C 98% 7.0 mph NE11.3 kmh NE 9.0 mph14.5 kmh 30.45 in1031.2 mb 0.00 in0.0 mm 0.00 in/hr0.0 mm/hr 0.00 in0.0 mm
05:21 AM 30.8°F-0.7°C 30.3°F-0.9°C 98% 7.0 mph NE11.3 kmh NE 9.0 mph14.5 kmh 30.45 in1031.2 mb 0.00 in0.0 mm 0.00 in/hr0.0 mm/hr 0.00 in0.0 mm
05:22 AM 30.7°F-0.7°C 30.2°F-1.0°C 98% 7.0 mph NE11.3 kmh NE 9.0 mph14.5 kmh 30.45 in1031.2 mb 0.00 in0.0 mm 0.00 in/hr0.0 mm/hr 0.00 in0.0 mm
05:23 AM 30.8°F-0.7°C 30.3°F-0.9°C 98% 7.0 mph NE11.3 kmh NE 9.0 mph14.5 kmh 30.45 in1031.2 mb 0.00 in0.0 mm 0.00 in/hr0.0 mm/hr 0.00 in0.0 mm
05:25 AM 30.8°F-0.7°C 30.3°F-0.9°C 98% 5.0 mph NE8.0 kmh NE 9.0 mph14.5 kmh 30.45 in1031.2 mb 0.00 in0.0 mm 0.00 in/hr0.0 mm/hr 0.00 in0.0 mm
05:26 AM 30.8°F-0.7°C 30.3°F-0.9°C 98% 6.0 mph NE9.7 kmh NE 9.0 mph14.5 kmh 30.45 in1031.2 mb 0.00 in0.0 mm 0.00 in/hr0.0 mm/hr 0.00 in0.0 mm
05:27 AM 30.8°F-0.7°C 30.3°F-0.9°C 98% 6.0 mph NE9.7 kmh NE 9.0 mph14.5 kmh 30.45 in1031.2 mb 0.00 in0.0 mm 0.00 in/hr0.0 mm/hr 0.00 in0.0 mm
05:28 AM 30.8°F-0.7°C 30.3°F-0.9°C 98% 7.0 mph NE11.3 kmh NE 9.0 mph14.5 kmh 30.45 in1031.2 mb 0.00 in0.0 mm 0.00 in/hr0.0 mm/hr 0.00 in0.0 mm
05:29 AM 30.8°F-0.7°C 30.3°F-0.9°C 98% 5.0 mph NE8.0 kmh NE 9.0 mph14.5 kmh 30.45 in1031.2 mb 0.00 in0.0 mm 0.00 in/hr0.0 mm/hr 0.00 in0.0 mm
05:30 AM 30.8°F-0.7°C 30.3°F-0.9°C 98% 7.0 mph NE11.3 kmh NE 9.0 mph14.5 kmh 30.45 in1031.2 mb 0.00 in0.0 mm 0.00 in/hr0.0 mm/hr 0.00 in0.0 mm
05:31 AM 30.8°F-0.7°C 30.3°F-0.9°C 98% 6.0 mph NE9.7 kmh NE 7.0 mph11.3 kmh 30.45 in1031.2 mb 0.00 in0.0 mm 0.00 in/hr0.0 mm/hr 0.00 in0.0 mm
05:32 AM 30.8°F-0.7°C 30.3°F-0.9°C 98% 5.0 mph NE8.0 kmh NE 8.0 mph12.9 kmh 30.45 in1031.2 mb 0.00 in0.0 mm 0.00 in/hr0.0 mm/hr 0.00 in0.0 mm
05:34 AM 30.8°F-0.7°C 30.3°F-0.9°C 98% 6.0 mph NE9.7 kmh NE 8.0 mph12.9 kmh 30.45 in1031.2 mb 0.00 in0.0 mm 0.00 in/hr0.0 mm/hr 0.00 in0.0 mm
05:35 AM 30.8°F-0.7°C 30.3°F-0.9°C 98% 5.0 mph NE8.0 kmh NE 8.0 mph12.9 kmh 30.45 in1031.2 mb 0.00 in0.0 mm 0.00 in/hr0.0 mm/hr 0.00 in0.0 mm
05:36 AM 30.8°F-0.7°C 30.3°F-0.9°C 98% 6.0 mph NE9.7 kmh NE 8.0 mph12.9 kmh 30.45 in1031.2 mb 0.00 in0.0 mm 0.00 in/hr0.0 mm/hr 0.00 in0.0 mm
05:37 AM 30.8°F-0.7°C 30.6°F-0.8°C 99% 7.0 mph NE11.3 kmh NE 8.0 mph12.9 kmh 30.45 in1031.2 mb 0.00 in0.0 mm 0.00 in/hr0.0 mm/hr 0.00 in0.0 mm
05:38 AM 30.8°F-0.7°C 30.3°F-0.9°C 98% 6.0 mph NE9.7 kmh NE 9.0 mph14.5 kmh 30.45 in1031.2 mb 0.00 in0.0 mm 0.00 in/hr0.0 mm/hr 0.00 in0.0 mm
05:39 AM 30.8°F-0.7°C 30.3°F-0.9°C 98% 8.0 mph NE12.9 kmh NE 9.0 mph14.5 kmh 30.45 in1031.2 mb 0.00 in0.0 mm 0.00 in/hr0.0 mm/hr 0.00 in0.0 mm
05:40 AM 30.8°F-0.7°C 30.3°F-0.9°C 98% 7.0 mph NE11.3 kmh NE 9.0 mph14.5 kmh 30.46 in1031.5 mb 0.00 in0.0 mm 0.00 in/hr0.0 mm/hr 0.00 in0.0 mm
05:41 AM 30.8°F-0.7°C 30.3°F-0.9°C 98% 7.0 mph NE11.3 kmh NE 9.0 mph14.5 kmh 30.46 in1031.5 mb 0.00 in0.0 mm 0.00 in/hr0.0 mm/hr 0.00 in0.0 mm
05:42 AM 30.8°F-0.7°C 30.3°F-0.9°C 98% 7.0 mph NE11.3 kmh NE 9.0 mph14.5 kmh 30.46 in1031.5 mb 0.00 in0.0 mm 0.00 in/hr0.0 mm/hr 0.00 in0.0 mm
05:43 AM 30.9°F-0.6°C 30.4°F-0.9°C 98% 7.0 mph NE11.3 kmh NE 9.0 mph14.5 kmh 30.46 in1031.5 mb 0.00 in0.0 mm 0.00 in/hr0.0 mm/hr 0.00 in0.0 mm
05:44 AM 30.8°F-0.7°C 30.3°F-0.9°C 98% 5.0 mph NE8.0 kmh NE 9.0 mph14.5 kmh 30.46 in1031.5 mb 0.00 in0.0 mm 0.00 in/hr0.0 mm/hr 0.00 in0.0 mm
05:46 AM 30.8°F-0.7°C 30.3°F-0.9°C 98% 5.0 mph NE8.0 kmh NE 9.0 mph14.5 kmh 30.46 in1031.5 mb 0.00 in0.0 mm 0.00 in/hr0.0 mm/hr 0.00 in0.0 mm
05:47 AM 30.9°F-0.6°C 30.4°F-0.9°C 98% 5.0 mph NE8.0 kmh NE 9.0 mph14.5 kmh 30.45 in1031.2 mb 0.00 in0.0 mm 0.00 in/hr0.0 mm/hr 0.00 in0.0 mm
05:48 AM 30.8°F-0.7°C 30.3°F-0.9°C 98% 6.0 mph NE9.7 kmh NE 9.0 mph14.5 kmh 30.45 in1031.2 mb 0.00 in0.0 mm 0.00 in/hr0.0 mm/hr 0.00 in0.0 mm
05:49 AM 30.8°F-0.7°C 30.3°F-0.9°C 98% 6.0 mph NE9.7 kmh NE 9.0 mph14.5 kmh 30.45 in1031.2 mb 0.00 in0.0 mm 0.00 in/hr0.0 mm/hr 0.00 in0.0 mm
05:50 AM 30.9°F-0.6°C 30.4°F-0.9°C 98% 5.0 mph NE8.0 kmh NE 9.0 mph14.5 kmh 30.45 in1031.2 mb 0.00 in0.0 mm 0.00 in/hr0.0 mm/hr 0.00 in0.0 mm
05:52 AM 30.8°F-0.7°C 30.3°F-0.9°C 98% 5.0 mph NE8.0 kmh NE 9.0 mph14.5 kmh 30.45 in1031.2 mb 0.00 in0.0 mm 0.00 in/hr0.0 mm/hr 0.00 in0.0 mm
05:53 AM 30.8°F-0.7°C 30.3°F-0.9°C 98% 6.0 mph NE9.7 kmh NE 9.0 mph14.5 kmh 30.45 in1031.2 mb 0.00 in0.0 mm 0.00 in/hr0.0 mm/hr 0.00 in0.0 mm
05:54 AM 30.9°F-0.6°C 30.4°F-0.9°C 98% 5.0 mph NE8.0 kmh NE 9.0 mph14.5 kmh 30.45 in1031.2 mb 0.00 in0.0 mm 0.00 in/hr0.0 mm/hr 0.00 in0.0 mm
05:55 AM 30.8°F-0.7°C 30.3°F-0.9°C 98% 7.0 mph NE11.3 kmh NE 9.0 mph14.5 kmh 30.45 in1031.2 mb 0.00 in0.0 mm 0.00 in/hr0.0 mm/hr 0.00 in0.0 mm
05:56 AM 30.9°F-0.6°C 30.4°F-0.9°C 98% 6.0 mph NE9.7 kmh NE 9.0 mph14.5 kmh 30.45 in1031.2 mb 0.00 in0.0 mm 0.00 in/hr0.0 mm/hr 0.00 in0.0 mm
05:57 AM 30.9°F-0.6°C 30.4°F-0.9°C 98% 6.0 mph NE9.7 kmh NE 9.0 mph14.5 kmh 30.45 in1031.2 mb 0.00 in0.0 mm 0.00 in/hr0.0 mm/hr 0.00 in0.0 mm
05:59 AM 30.9°F-0.6°C 30.4°F-0.9°C 98% 7.0 mph NE11.3 kmh NE 9.0 mph14.5 kmh 30.45 in1031.2 mb 0.00 in0.0 mm 0.00 in/hr0.0 mm/hr 0.00 in0.0 mm
06:00 AM 30.8°F-0.7°C 30.3°F-0.9°C 98% 6.0 mph NE9.7 kmh NE 6.0 mph9.7 kmh 30.45 in1031.2 mb 0.00 in0.0 mm 0.00 in/hr0.0 mm/hr 0.00 in0.0 mm
06:02 AM 30.8°F-0.7°C 30.3°F-0.9°C 98% 8.0 mph NE12.9 kmh NE 8.0 mph12.9 kmh 30.45 in1031.2 mb 0.00 in0.0 mm 0.00 in/hr0.0 mm/hr 0.00 in0.0 mm
06:04 AM 30.8°F-0.7°C 30.3°F-0.9°C 98% 6.0 mph NE9.7 kmh NE 8.0 mph12.9 kmh 30.45 in1031.2 mb 0.00 in0.0 mm 0.00 in/hr0.0 mm/hr 0.00 in0.0 mm
06:05 AM 30.8°F-0.7°C 30.3°F-0.9°C 98% 7.0 mph NE11.3 kmh NE 8.0 mph12.9 kmh 30.45 in1031.2 mb 0.00 in0.0 mm 0.00 in/hr0.0 mm/hr 0.00 in0.0 mm
06:06 AM 30.8°F-0.7°C 30.3°F-0.9°C 98% 6.0 mph NE9.7 kmh NE 8.0 mph12.9 kmh 30.45 in1031.2 mb 0.00 in0.0 mm 0.00 in/hr0.0 mm/hr 0.00 in0.0 mm
06:07 AM 30.8°F-0.7°C 30.3°F-0.9°C 98% 6.0 mph NE9.7 kmh NE 8.0 mph12.9 kmh 30.45 in1031.2 mb 0.00 in0.0 mm 0.00 in/hr0.0 mm/hr 0.00 in0.0 mm
06:09 AM 30.8°F-0.7°C 30.3°F-0.9°C 98% 8.0 mph NE12.9 kmh NE 9.0 mph14.5 kmh 30.45 in1031.2 mb 0.00 in0.0 mm 0.00 in/hr0.0 mm/hr 0.00 in0.0 mm
06:10 AM 30.8°F-0.7°C 30.3°F-0.9°C 98% 8.0 mph NE12.9 kmh NE 10.0 mph16.1 kmh 30.45 in1031.2 mb 0.00 in0.0 mm 0.00 in/hr0.0 mm/hr 0.00 in0.0 mm
06:11 AM 30.8°F-0.7°C 30.3°F-0.9°C 98% 6.0 mph NE9.7 kmh NE 10.0 mph16.1 kmh 30.45 in1031.2 mb 0.00 in0.0 mm 0.00 in/hr0.0 mm/hr 0.00 in0.0 mm
06:12 AM 30.9°F-0.6°C 30.4°F-0.9°C 98% 7.0 mph NE11.3 kmh NE 10.0 mph16.1 kmh 30.45 in1031.2 mb 0.00 in0.0 mm 0.00 in/hr0.0 mm/hr 0.00 in0.0 mm
06:13 AM 30.9°F-0.6°C 30.4°F-0.9°C 98% 8.0 mph NE12.9 kmh NE 10.0 mph16.1 kmh 30.45 in1031.2 mb 0.00 in0.0 mm 0.00 in/hr0.0 mm/hr 0.00 in0.0 mm
06:14 AM 30.9°F-0.6°C 30.4°F-0.9°C 98% 6.0 mph NE9.7 kmh NE 10.0 mph16.1 kmh 30.45 in1031.2 mb 0.00 in0.0 mm 0.00 in/hr0.0 mm/hr 0.00 in0.0 mm
06:15 AM 30.8°F-0.7°C 30.3°F-0.9°C 98% 7.0 mph NE11.3 kmh NE 10.0 mph16.1 kmh 30.45 in1031.2 mb 0.00 in0.0 mm 0.00 in/hr0.0 mm/hr 0.00 in0.0 mm
06:16 AM 30.8°F-0.7°C 30.3°F-0.9°C 98% 7.0 mph NE11.3 kmh NE 10.0 mph16.1 kmh 30.45 in1031.2 mb 0.00 in0.0 mm 0.00 in/hr0.0 mm/hr 0.00 in0.0 mm
06:18 AM 30.8°F-0.7°C 30.3°F-0.9°C 98% 9.0 mph NE14.5 kmh NE 10.0 mph16.1 kmh 30.45 in1031.2 mb 0.00 in0.0 mm 0.00 in/hr0.0 mm/hr 0.00 in0.0 mm
06:20 AM 30.8°F-0.7°C 30.3°F-0.9°C 98% 7.0 mph NE11.3 kmh NE 10.0 mph16.1 kmh 30.45 in1031.2 mb 0.00 in0.0 mm 0.00 in/hr0.0 mm/hr 0.00 in0.0 mm
06:21 AM 30.8°F-0.7°C 30.3°F-0.9°C 98% 9.0 mph NE14.5 kmh NE 10.0 mph16.1 kmh 30.45 in1031.2 mb 0.00 in0.0 mm 0.00 in/hr0.0 mm/hr 0.00 in0.0 mm
06:23 AM 30.8°F-0.7°C 30.3°F-0.9°C 98% 9.0 mph NE14.5 kmh NE 10.0 mph16.1 kmh 30.45 in1031.2 mb 0.00 in0.0 mm 0.00 in/hr0.0 mm/hr 0.00 in0.0 mm
06:24 AM 30.8°F-0.7°C 30.3°F-0.9°C 98% 6.0 mph NE9.7 kmh NE 10.0 mph16.1 kmh 30.45 in1031.2 mb 0.00 in0.0 mm 0.00 in/hr0.0 mm/hr 0.00 in0.0 mm
06:25 AM 30.8°F-0.7°C 30.3°F-0.9°C 98% 7.0 mph NE11.3 kmh NE 11.0 mph17.7 kmh 30.45 in1031.2 mb 0.00 in0.0 mm 0.00 in/hr0.0 mm/hr 0.00 in0.0 mm
06:26 AM 30.8°F-0.7°C 30.3°F-0.9°C 98% 6.0 mph NE9.7 kmh NE 11.0 mph17.7 kmh 30.45 in1031.2 mb 0.00 in0.0 mm 0.00 in/hr0.0 mm/hr 0.00 in0.0 mm
06:28 AM 30.7°F-0.7°C 30.2°F-1.0°C 98% 10.0 mph NE16.1 kmh NE 11.0 mph17.7 kmh 30.45 in1031.2 mb 0.00 in0.0 mm 0.00 in/hr0.0 mm/hr 0.00 in0.0 mm
06:30 AM 30.7°F-0.7°C 30.2°F-1.0°C 98% 9.0 mph NE14.5 kmh NE 12.0 mph19.3 kmh 30.45 in1031.2 mb 0.00 in0.0 mm 0.00 in/hr0.0 mm/hr 0.00 in0.0 mm
06:31 AM 30.7°F-0.7°C 30.2°F-1.0°C 98% 8.0 mph NE12.9 kmh NE 10.0 mph16.1 kmh 30.45 in1031.2 mb 0.00 in0.0 mm 0.00 in/hr0.0 mm/hr 0.00 in0.0 mm
06:33 AM 30.6°F-0.8°C 30.4°F-0.9°C 99% 7.0 mph NE11.3 kmh NE 11.0 mph17.7 kmh 30.45 in1031.2 mb 0.00 in0.0 mm 0.00 in/hr0.0 mm/hr 0.00 in0.0 mm
06:34 AM 30.6°F-0.8°C 30.4°F-0.9°C 99% 7.0 mph NE11.3 kmh NE 11.0 mph17.7 kmh 30.45 in1031.2 mb 0.00 in0.0 mm 0.00 in/hr0.0 mm/hr 0.00 in0.0 mm
06:35 AM 30.6°F-0.8°C 30.4°F-0.9°C 99% 5.0 mph NE8.0 kmh NE 11.0 mph17.7 kmh 30.45 in1031.2 mb 0.00 in0.0 mm 0.00 in/hr0.0 mm/hr 0.00 in0.0 mm
06:36 AM 30.6°F-0.8°C 30.4°F-0.9°C 99% 8.0 mph NE12.9 kmh NE 11.0 mph17.7 kmh 30.45 in1031.2 mb 0.00 in0.0 mm 0.00 in/hr0.0 mm/hr 0.00 in0.0 mm
06:37 AM 30.6°F-0.8°C 30.4°F-0.9°C 99% 9.0 mph NE14.5 kmh NE 11.0 mph17.7 kmh 30.46 in1031.5 mb 0.00 in0.0 mm 0.00 in/hr0.0 mm/hr 0.00 in0.0 mm
06:38 AM 30.6°F-0.8°C 30.4°F-0.9°C 99% 7.0 mph NE11.3 kmh NE 11.0 mph17.7 kmh 30.46 in1031.5 mb 0.00 in0.0 mm 0.00 in/hr0.0 mm/hr 0.00 in0.0 mm
06:39 AM 30.6°F-0.8°C 30.4°F-0.9°C 99% 9.0 mph NE14.5 kmh NE 11.0 mph17.7 kmh 30.46 in1031.5 mb 0.00 in0.0 mm 0.00 in/hr0.0 mm/hr 0.00 in0.0 mm
06:40 AM 30.6°F-0.8°C 30.4°F-0.9°C 99% 8.0 mph NE12.9 kmh NE 11.0 mph17.7 kmh 30.46 in1031.5 mb 0.00 in0.0 mm 0.00 in/hr0.0 mm/hr 0.00 in0.0 mm
06:41 AM 30.6°F-0.8°C 30.4°F-0.9°C 99% 9.0 mph NE14.5 kmh NE 11.0 mph17.7 kmh 30.46 in1031.5 mb 0.00 in0.0 mm 0.00 in/hr0.0 mm/hr 0.00 in0.0 mm
06:42 AM 30.6°F-0.8°C 30.4°F-0.9°C 99% 10.0 mph NE16.1 kmh NE 11.0 mph17.7 kmh 30.46 in1031.5 mb 0.00 in0.0 mm 0.00 in/hr0.0 mm/hr 0.00 in0.0 mm
06:43 AM 30.6°F-0.8°C 30.4°F-0.9°C 99% 10.0 mph NE16.1 kmh NE 12.0 mph19.3 kmh 30.46 in1031.5 mb 0.00 in0.0 mm 0.00 in/hr0.0 mm/hr 0.00 in0.0 mm
06:45 AM 30.6°F-0.8°C 30.4°F-0.9°C 99% 10.0 mph NE16.1 kmh NE 12.0 mph19.3 kmh 30.46 in1031.5 mb 0.00 in0.0 mm 0.00 in/hr0.0 mm/hr 0.00 in0.0 mm
06:46 AM 30.7°F-0.7°C 30.5°F-0.8°C 99% 7.0 mph NE11.3 kmh NE 12.0 mph19.3 kmh 30.46 in1031.5 mb 0.00 in0.0 mm 0.00 in/hr0.0 mm/hr 0.00 in0.0 mm
06:47 AM 30.7°F-0.7°C 30.5°F-0.8°C 99% 10.0 mph NE16.1 kmh NE 12.0 mph19.3 kmh 30.46 in1031.5 mb 0.00 in0.0 mm 0.00 in/hr0.0 mm/hr 0.00 in0.0 mm
06:48 AM 30.7°F-0.7°C 30.2°F-1.0°C 98% 10.0 mph NE16.1 kmh NE 12.0 mph19.3 kmh 30.46 in1031.5 mb 0.00 in0.0 mm 0.00 in/hr0.0 mm/hr 0.00 in0.0 mm
06:49 AM 30.7°F-0.7°C 30.2°F-1.0°C 98% 8.0 mph NE12.9 kmh NE 12.0 mph19.3 kmh 30.46 in1031.5 mb 0.00 in0.0 mm 0.00 in/hr0.0 mm/hr 0.00 in0.0 mm
06:50 AM 30.7°F-0.7°C 30.2°F-1.0°C 98% 11.0 mph NE17.7 kmh NE 12.0 mph19.3 kmh 30.46 in1031.5 mb 0.00 in0.0 mm 0.00 in/hr0.0 mm/hr 0.00 in0.0 mm
06:51 AM 30.7°F-0.7°C 30.2°F-1.0°C 98% 11.0 mph NE17.7 kmh NE 12.0 mph19.3 kmh 30.46 in1031.5 mb 0.00 in0.0 mm 0.00 in/hr0.0 mm/hr 0.00 in0.0 mm
06:52 AM 30.7°F-0.7°C 30.2°F-1.0°C 98% 10.0 mph NE16.1 kmh NE 12.0 mph19.3 kmh 30.46 in1031.5 mb 0.00 in0.0 mm 0.00 in/hr0.0 mm/hr 0.00 in0.0 mm
06:53 AM 30.7°F-0.7°C 30.2°F-1.0°C 98% 11.0 mph NE17.7 kmh NE 12.0 mph19.3 kmh 30.46 in1031.5 mb 0.00 in0.0 mm 0.00 in/hr0.0 mm/hr 0.00 in0.0 mm
06:54 AM 30.7°F-0.7°C 30.2°F-1.0°C 98% 9.0 mph NE14.5 kmh NE 12.0 mph19.3 kmh 30.46 in1031.5 mb 0.00 in0.0 mm 0.00 in/hr0.0 mm/hr 0.00 in0.0 mm
06:56 AM 30.7°F-0.7°C 30.2°F-1.0°C 98% 9.0 mph NE14.5 kmh NE 13.0 mph20.9 kmh 30.46 in1031.5 mb 0.00 in0.0 mm 0.00 in/hr0.0 mm/hr 0.00 in0.0 mm
06:57 AM 30.8°F-0.7°C 30.3°F-0.9°C 98% 8.0 mph ENE12.9 kmh ENE 13.0 mph20.9 kmh 30.46 in1031.5 mb 0.00 in0.0 mm 0.00 in/hr0.0 mm/hr 0.00 in0.0 mm
06:58 AM 30.7°F-0.7°C 30.2°F-1.0°C 98% 11.0 mph NE17.7 kmh NE 13.0 mph20.9 kmh 30.46 in1031.5 mb 0.00 in0.0 mm 0.00 in/hr0.0 mm/hr 0.00 in0.0 mm
06:59 AM 30.8°F-0.7°C 30.6°F-0.8°C 99% 8.0 mph NE12.9 kmh NE 13.0 mph20.9 kmh 30.46 in1031.5 mb 0.00 in0.0 mm 0.00 in/hr0.0 mm/hr 0.00 in0.0 mm
07:00 AM 30.8°F-0.7°C 30.6°F-0.8°C 99% 8.0 mph NE12.9 kmh NE 13.0 mph20.9 kmh 30.46 in1031.5 mb 0.00 in0.0 mm 0.00 in/hr0.0 mm/hr 0.00 in0.0 mm
07:02 AM 30.8°F-0.7°C 30.3°F-0.9°C 98% 7.0 mph NE11.3 kmh NE 11.0 mph17.7 kmh 30.46 in1031.5 mb 0.00 in0.0 mm 0.00 in/hr0.0 mm/hr 0.00 in0.0 mm
07:04 AM 30.8°F-0.7°C 30.3°F-0.9°C 98% 8.0 mph NE12.9 kmh NE 13.0 mph20.9 kmh 30.47 in1031.8 mb 0.00 in0.0 mm 0.00 in/hr0.0 mm/hr 0.00 in0.0 mm
07:06 AM 30.8°F-0.7°C 30.3°F-0.9°C 98% 10.0 mph NE16.1 kmh NE 13.0 mph20.9 kmh 30.47 in1031.8 mb 0.00 in0.0 mm 0.00 in/hr0.0 mm/hr 0.00 in0.0 mm
07:07 AM 30.8°F-0.7°C 30.3°F-0.9°C 98% 9.0 mph NE14.5 kmh NE 13.0 mph20.9 kmh 30.47 in1031.8 mb 0.00 in0.0 mm 0.00 in/hr0.0 mm/hr 0.00 in0.0 mm
07:09 AM 30.8°F-0.7°C 30.6°F-0.8°C 99% 9.0 mph NE14.5 kmh NE 13.0 mph20.9 kmh 30.47 in1031.8 mb 0.00 in0.0 mm 0.00 in/hr0.0 mm/hr 0.00 in0.0 mm
07:10 AM 30.7°F-0.7°C 30.5°F-0.8°C 99% 9.0 mph NE14.5 kmh NE 13.0 mph20.9 kmh 30.47 in1031.8 mb 0.00 in0.0 mm 0.00 in/hr0.0 mm/hr 0.00 in0.0 mm
07:11 AM 30.7°F-0.7°C 30.2°F-1.0°C 98% 8.0 mph NE12.9 kmh NE 13.0 mph20.9 kmh 30.47 in1031.8 mb 0.00 in0.0 mm 0.00 in/hr0.0 mm/hr 0.00 in0.0 mm
07:13 AM 30.7°F-0.7°C 30.5°F-0.8°C 99% 9.0 mph NE14.5 kmh NE 13.0 mph20.9 kmh 30.47 in1031.8 mb 0.00 in0.0 mm 0.00 in/hr0.0 mm/hr 0.00 in0.0 mm
07:14 AM 30.7°F-0.7°C 30.5°F-0.8°C 99% 9.0 mph ENE14.5 kmh ENE 13.0 mph20.9 kmh 30.47 in1031.8 mb 0.00 in0.0 mm 0.00 in/hr0.0 mm/hr 0.00 in0.0 mm
07:16 AM 30.7°F-0.7°C 30.5°F-0.8°C 99% 7.0 mph NE11.3 kmh NE 13.0 mph20.9 kmh 30.47 in1031.8 mb 0.00 in0.0 mm 0.00 in/hr0.0 mm/hr 0.00 in0.0 mm
07:18 AM 30.7°F-0.7°C 30.5°F-0.8°C 99% 8.0 mph NE12.9 kmh NE 13.0 mph20.9 kmh 30.47 in1031.8 mb 0.00 in0.0 mm 0.00 in/hr0.0 mm/hr 0.00 in0.0 mm
07:20 AM 30.7°F-0.7°C 30.5°F-0.8°C 99% 10.0 mph NE16.1 kmh NE 13.0 mph20.9 kmh 30.47 in1031.8 mb 0.00 in0.0 mm 0.00 in/hr0.0 mm/hr 0.00 in0.0 mm
07:22 AM 30.7°F-0.7°C 30.5°F-0.8°C 99% 7.0 mph NE11.3 kmh NE 13.0 mph20.9 kmh 30.47 in1031.8 mb 0.00 in0.0 mm 0.00 in/hr0.0 mm/hr 0.00 in0.0 mm
07:23 AM 30.7°F-0.7°C 30.5°F-0.8°C 99% 9.0 mph NE14.5 kmh NE 13.0 mph20.9 kmh 30.47 in1031.8 mb 0.00 in0.0 mm 0.00 in/hr0.0 mm/hr 0.00 in0.0 mm
07:24 AM 30.7°F-0.7°C 30.5°F-0.8°C 99% 10.0 mph NE16.1 kmh NE 13.0 mph20.9 kmh 30.47 in1031.8 mb 0.00 in0.0 mm 0.00 in/hr0.0 mm/hr 0.00 in0.0 mm
07:25 AM 30.7°F-0.7°C 30.5°F-0.8°C 99% 8.0 mph ENE12.9 kmh ENE 13.0 mph20.9 kmh 30.47 in1031.8 mb 0.00 in0.0 mm 0.00 in/hr0.0 mm/hr 0.00 in0.0 mm
07:26 AM 30.7°F-0.7°C 30.5°F-0.8°C 99% 8.0 mph NE12.9 kmh NE 13.0 mph20.9 kmh 30.47 in1031.8 mb 0.00 in0.0 mm 0.00 in/hr0.0 mm/hr 0.00 in0.0 mm
07:28 AM 30.8°F-0.7°C 30.6°F-0.8°C 99% 5.0 mph ENE8.0 kmh ENE 13.0 mph20.9 kmh 30.47 in1031.8 mb 0.00 in0.0 mm 0.00 in/hr0.0 mm/hr 0.00 in0.0 mm
07:29 AM 30.7°F-0.7°C 30.5°F-0.8°C 99% 7.0 mph NE11.3 kmh NE 13.0 mph20.9 kmh 30.47 in1031.8 mb 0.00 in0.0 mm 0.00 in/hr0.0 mm/hr 0.00 in0.0 mm
07:30 AM 30.8°F-0.7°C 30.6°F-0.8°C 99% 6.0 mph NE9.7 kmh NE 13.0 mph20.9 kmh 30.47 in1031.8 mb 0.00 in0.0 mm 0.00 in/hr0.0 mm/hr 0.00 in0.0 mm
07:31 AM 30.8°F-0.7°C 30.6°F-0.8°C 99% 6.0 mph NE9.7 kmh NE 7.0 mph11.3 kmh 30.47 in1031.8 mb 0.00 in0.0 mm 0.00 in/hr0.0 mm/hr 0.00 in0.0 mm
07:32 AM 30.9°F-0.6°C 30.7°F-0.7°C 99% 7.0 mph NE11.3 kmh NE 11.0 mph17.7 kmh 30.47 in1031.8 mb 0.00 in0.0 mm 0.00 in/hr0.0 mm/hr 0.00 in0.0 mm
07:34 AM 30.8°F-0.7°C 30.6°F-0.8°C 99% 7.0 mph ENE11.3 kmh ENE 11.0 mph17.7 kmh 30.47 in1031.8 mb 0.00 in0.0 mm 0.00 in/hr0.0 mm/hr 0.00 in0.0 mm
07:36 AM 30.9°F-0.6°C 30.7°F-0.7°C 99% 8.0 mph NE12.9 kmh NE 11.0 mph17.7 kmh 30.47 in1031.8 mb 0.00 in0.0 mm 0.00 in/hr0.0 mm/hr 0.00 in0.0 mm
07:37 AM 30.9°F-0.6°C 30.7°F-0.7°C 99% 8.0 mph NE12.9 kmh NE 11.0 mph17.7 kmh 30.47 in1031.8 mb 0.00 in0.0 mm 0.00 in/hr0.0 mm/hr 0.00 in0.0 mm
07:38 AM 30.9°F-0.6°C 30.7°F-0.7°C 99% 8.0 mph NE12.9 kmh NE 11.0 mph17.7 kmh 30.47 in1031.8 mb 0.00 in0.0 mm 0.00 in/hr0.0 mm/hr 0.00 in0.0 mm
07:40 AM 30.9°F-0.6°C 30.7°F-0.7°C 99% 9.0 mph ENE14.5 kmh ENE 11.0 mph17.7 kmh 30.47 in1031.8 mb 0.00 in0.0 mm 0.00 in/hr0.0 mm/hr 0.00 in0.0 mm
07:42 AM 30.9°F-0.6°C 30.7°F-0.7°C 99% 9.0 mph ENE14.5 kmh ENE 11.0 mph17.7 kmh 30.47 in1031.8 mb 0.00 in0.0 mm 0.00 in/hr0.0 mm/hr 0.00 in0.0 mm
07:43 AM 30.9°F-0.6°C 30.7°F-0.7°C 99% 7.0 mph NE11.3 kmh NE 11.0 mph17.7 kmh 30.47 in1031.8 mb 0.00 in0.0 mm 0.00 in/hr0.0 mm/hr 0.00 in0.0 mm
07:44 AM 30.8°F-0.7°C 30.6°F-0.8°C 99% 8.0 mph NE12.9 kmh NE 11.0 mph17.7 kmh 30.47 in1031.8 mb 0.00 in0.0 mm 0.00 in/hr0.0 mm/hr 0.00 in0.0 mm
07:45 AM 30.9°F-0.6°C 30.7°F-0.7°C 99% 11.0 mph ENE17.7 kmh ENE 12.0 mph19.3 kmh 30.47 in1031.8 mb 0.00 in0.0 mm 0.00 in/hr0.0 mm/hr 0.00 in0.0 mm
07:47 AM 30.8°F-0.7°C 30.6°F-0.8°C 99% 8.0 mph ENE12.9 kmh ENE 12.0 mph19.3 kmh 30.47 in1031.8 mb 0.00 in0.0 mm 0.00 in/hr0.0 mm/hr 0.00 in0.0 mm
07:48 AM 30.8°F-0.7°C 30.6°F-0.8°C 99% 10.0 mph NE16.1 kmh NE 12.0 mph19.3 kmh 30.47 in1031.8 mb 0.00 in0.0 mm 0.00 in/hr0.0 mm/hr 0.00 in0.0 mm
07:49 AM 30.8°F-0.7°C 30.6°F-0.8°C 99% 9.0 mph ENE14.5 kmh ENE 12.0 mph19.3 kmh 30.47 in1031.8 mb 0.00 in0.0 mm 0.00 in/hr0.0 mm/hr 0.00 in0.0 mm
07:50 AM 30.8°F-0.7°C 30.6°F-0.8°C 99% 7.0 mph NE11.3 kmh NE 12.0 mph19.3 kmh 30.47 in1031.8 mb 0.00 in0.0 mm 0.00 in/hr0.0 mm/hr 0.00 in0.0 mm
07:51 AM 30.8°F-0.7°C 30.6°F-0.8°C 99% 8.0 mph E12.9 kmh E 12.0 mph19.3 kmh 30.47 in1031.8 mb 0.00 in0.0 mm 0.00 in/hr0.0 mm/hr 0.00 in0.0 mm
07:53 AM 30.8°F-0.7°C 30.6°F-0.8°C 99% 10.0 mph NE16.1 kmh NE 12.0 mph19.3 kmh 30.47 in1031.8 mb 0.00 in0.0 mm 0.00 in/hr0.0 mm/hr 0.00 in0.0 mm
07:54 AM 30.8°F-0.7°C 30.6°F-0.8°C 99% 9.0 mph ENE14.5 kmh ENE 12.0 mph19.3 kmh 30.47 in1031.8 mb 0.00 in0.0 mm 0.00 in/hr0.0 mm/hr 0.00 in0.0 mm
07:55 AM 30.8°F-0.7°C 30.6°F-0.8°C 99% 11.0 mph NE17.7 kmh NE 12.0 mph19.3 kmh 30.47 in1031.8 mb 0.00 in0.0 mm 0.00 in/hr0.0 mm/hr 0.00 in0.0 mm
07:56 AM 30.8°F-0.7°C 30.6°F-0.8°C 99% 10.0 mph NE16.1 kmh NE 12.0 mph19.3 kmh 30.47 in1031.8 mb 0.00 in0.0 mm 0.00 in/hr0.0 mm/hr 0.00 in0.0 mm
07:58 AM 30.8°F-0.7°C 30.6°F-0.8°C 99% 8.0 mph NE12.9 kmh NE 12.0 mph19.3 kmh 30.47 in1031.8 mb 0.00 in0.0 mm 0.00 in/hr0.0 mm/hr 0.00 in0.0 mm
07:59 AM 30.8°F-0.7°C 30.6°F-0.8°C 99% 6.0 mph NE9.7 kmh NE 12.0 mph19.3 kmh 30.48 in1032.2 mb 0.00 in0.0 mm 0.00 in/hr0.0 mm/hr 0.00 in0.0 mm
08:00 AM 30.8°F-0.7°C 30.6°F-0.8°C 99% 9.0 mph NE14.5 kmh NE 12.0 mph19.3 kmh 30.47 in1031.8 mb 0.00 in0.0 mm 0.00 in/hr0.0 mm/hr 0.00 in0.0 mm
08:02 AM 30.8°F-0.7°C 30.6°F-0.8°C 99% 9.0 mph ENE14.5 kmh ENE 12.0 mph19.3 kmh 30.47 in1031.8 mb 0.00 in0.0 mm 0.00 in/hr0.0 mm/hr 0.00 in0.0 mm
08:03 AM 30.8°F-0.7°C 30.6°F-0.8°C 99% 8.0 mph NE12.9 kmh NE 12.0 mph19.3 kmh 30.48 in1032.2 mb 0.00 in0.0 mm 0.00 in/hr0.0 mm/hr 0.00 in0.0 mm
08:04 AM 30.8°F-0.7°C 30.6°F-0.8°C 99% 10.0 mph NE16.1 kmh NE 12.0 mph19.3 kmh 30.47 in1031.8 mb 0.00 in0.0 mm 0.00 in/hr0.0 mm/hr 0.00 in0.0 mm
08:05 AM 30.8°F-0.7°C 30.6°F-0.8°C 99% 9.0 mph NE14.5 kmh NE 12.0 mph19.3 kmh 30.47 in1031.8 mb 0.00 in0.0 mm 0.00 in/hr0.0 mm/hr 0.00 in0.0 mm
08:06 AM 30.8°F-0.7°C 30.6°F-0.8°C 99% 8.0 mph NE12.9 kmh NE 12.0 mph19.3 kmh 30.47 in1031.8 mb 0.00 in0.0 mm 0.00 in/hr0.0 mm/hr 0.00 in0.0 mm
08:07 AM 30.8°F-0.7°C 30.6°F-0.8°C 99% 10.0 mph NE16.1 kmh NE 12.0 mph19.3 kmh 30.47 in1031.8 mb 0.00 in0.0 mm 0.00 in/hr0.0 mm/hr 0.00 in0.0 mm
08:09 AM 30.8°F-0.7°C 30.6°F-0.8°C 99% 11.0 mph NE17.7 kmh NE 12.0 mph19.3 kmh 30.47 in1031.8 mb 0.00 in0.0 mm 0.00 in/hr0.0 mm/hr 0.00 in0.0 mm
08:10 AM 30.8°F-0.7°C 30.6°F-0.8°C 99% 12.0 mph NE19.3 kmh NE 12.0 mph19.3 kmh 30.47 in1031.8 mb 0.00 in0.0 mm 0.00 in/hr0.0 mm/hr 0.00 in0.0 mm
08:12 AM 30.8°F-0.7°C 30.6°F-0.8°C 99% 11.0 mph NE17.7 kmh NE 13.0 mph20.9 kmh 30.47 in1031.8 mb 0.00 in0.0 mm 0.00 in/hr0.0 mm/hr 0.00 in0.0 mm
08:13 AM 30.8°F-0.7°C 30.6°F-0.8°C 99% 12.0 mph NE19.3 kmh NE 13.0 mph20.9 kmh 30.48 in1032.2 mb 0.00 in0.0 mm 0.00 in/hr0.0 mm/hr 0.00 in0.0 mm
08:14 AM 30.8°F-0.7°C 30.6°F-0.8°C 99% 11.0 mph NE17.7 kmh NE 13.0 mph20.9 kmh 30.48 in1032.2 mb 0.00 in0.0 mm 0.00 in/hr0.0 mm/hr 0.00 in0.0 mm
08:15 AM 30.8°F-0.7°C 30.6°F-0.8°C 99% 10.0 mph NE16.1 kmh NE 13.0 mph20.9 kmh 30.48 in1032.2 mb 0.00 in0.0 mm 0.00 in/hr0.0 mm/hr 0.00 in0.0 mm
08:16 AM 30.8°F-0.7°C 30.6°F-0.8°C 99% 10.0 mph ENE16.1 kmh ENE 13.0 mph20.9 kmh 30.47 in1031.8 mb 0.00 in0.0 mm 0.00 in/hr0.0 mm/hr 0.00 in0.0 mm
08:17 AM 30.8°F-0.7°C 30.6°F-0.8°C 99% 10.0 mph NE16.1 kmh NE 13.0 mph20.9 kmh 30.48 in1032.2 mb 0.00 in0.0 mm 0.00 in/hr0.0 mm/hr 0.00 in0.0 mm
08:18 AM 30.8°F-0.7°C 30.6°F-0.8°C 99% 9.0 mph NE14.5 kmh NE 13.0 mph20.9 kmh 30.48 in1032.2 mb 0.00 in0.0 mm 0.00 in/hr0.0 mm/hr 0.00 in0.0 mm
08:20 AM 30.8°F-0.7°C 30.6°F-0.8°C 99% 8.0 mph ENE12.9 kmh ENE 14.0 mph22.5 kmh 30.48 in1032.2 mb 0.00 in0.0 mm 0.00 in/hr0.0 mm/hr 0.00 in0.0 mm
08:21 AM 30.8°F-0.7°C 30.6°F-0.8°C 99% 10.0 mph NE16.1 kmh NE 14.0 mph22.5 kmh 30.48 in1032.2 mb 0.00 in0.0 mm 0.00 in/hr0.0 mm/hr 0.00 in0.0 mm
08:22 AM 30.8°F-0.7°C 30.6°F-0.8°C 99% 9.0 mph NE14.5 kmh NE 14.0 mph22.5 kmh 30.48 in1032.2 mb 0.00 in0.0 mm 0.00 in/hr0.0 mm/hr 0.00 in0.0 mm
08:23 AM 30.8°F-0.7°C 30.6°F-0.8°C 99% 8.0 mph NE12.9 kmh NE 14.0 mph22.5 kmh 30.48 in1032.2 mb 0.00 in0.0 mm 0.00 in/hr0.0 mm/hr 0.00 in0.0 mm
08:24 AM 30.8°F-0.7°C 30.6°F-0.8°C 99% 10.0 mph NE16.1 kmh NE 14.0 mph22.5 kmh 30.48 in1032.2 mb 0.00 in0.0 mm 0.00 in/hr0.0 mm/hr 0.00 in0.0 mm
08:25 AM 30.8°F-0.7°C 30.6°F-0.8°C 99% 9.0 mph NE14.5 kmh NE 14.0 mph22.5 kmh 30.48 in1032.2 mb 0.00 in0.0 mm 0.00 in/hr0.0 mm/hr 0.00 in0.0 mm
08:27 AM 30.8°F-0.7°C 30.6°F-0.8°C 99% 9.0 mph NE14.5 kmh NE 14.0 mph22.5 kmh 30.47 in1031.8 mb 0.00 in0.0 mm 0.00 in/hr0.0 mm/hr 0.00 in0.0 mm
08:28 AM 30.8°F-0.7°C 30.6°F-0.8°C 99% 8.0 mph NE12.9 kmh NE 14.0 mph22.5 kmh 30.47 in1031.8 mb 0.00 in0.0 mm 0.00 in/hr0.0 mm/hr 0.00 in0.0 mm
08:29 AM 30.9°F-0.6°C 30.7°F-0.7°C 99% 8.0 mph NE12.9 kmh NE 14.0 mph22.5 kmh 30.47 in1031.8 mb 0.00 in0.0 mm 0.00 in/hr0.0 mm/hr 0.00 in0.0 mm
08:30 AM 30.9°F-0.6°C 30.7°F-0.7°C 99% 10.0 mph NE16.1 kmh NE 14.0 mph22.5 kmh 30.47 in1031.8 mb 0.00 in0.0 mm 0.00 in/hr0.0 mm/hr 0.00 in0.0 mm
08:32 AM 30.9°F-0.6°C 30.7°F-0.7°C 99% 8.0 mph NE12.9 kmh NE 10.0 mph16.1 kmh 30.47 in1031.8 mb 0.00 in0.0 mm 0.00 in/hr0.0 mm/hr 0.00 in0.0 mm
08:33 AM 30.9°F-0.6°C 30.7°F-0.7°C 99% 6.0 mph NE9.7 kmh NE 10.0 mph16.1 kmh 30.47 in1031.8 mb 0.00 in0.0 mm 0.00 in/hr0.0 mm/hr 0.00 in0.0 mm
08:34 AM 30.9°F-0.6°C 30.7°F-0.7°C 99% 11.0 mph NE17.7 kmh NE 11.0 mph17.7 kmh 30.47 in1031.8 mb 0.00 in0.0 mm 0.00 in/hr0.0 mm/hr 0.00 in0.0 mm
08:35 AM 30.9°F-0.6°C 30.7°F-0.7°C 99% 10.0 mph NE16.1 kmh NE 11.0 mph17.7 kmh 30.47 in1031.8 mb 0.00 in0.0 mm 0.00 in/hr0.0 mm/hr 0.00 in0.0 mm
08:37 AM 30.9°F-0.6°C 30.7°F-0.7°C 99% 8.0 mph NE12.9 kmh NE 12.0 mph19.3 kmh 30.47 in1031.8 mb 0.00 in0.0 mm 0.00 in/hr0.0 mm/hr 0.00 in0.0 mm
08:38 AM 30.9°F-0.6°C 30.7°F-0.7°C 99% 10.0 mph NE16.1 kmh NE 12.0 mph19.3 kmh 30.47 in1031.8 mb 0.00 in0.0 mm 0.00 in/hr0.0 mm/hr 0.00 in0.0 mm
08:39 AM 30.8°F-0.7°C 30.6°F-0.8°C 99% 9.0 mph NE14.5 kmh NE 12.0 mph19.3 kmh 30.47 in1031.8 mb 0.00 in0.0 mm 0.00 in/hr0.0 mm/hr 0.00 in0.0 mm
08:40 AM 30.8°F-0.7°C 30.6°F-0.8°C 99% 8.0 mph NE12.9 kmh NE 12.0 mph19.3 kmh 30.47 in1031.8 mb 0.00 in0.0 mm 0.00 in/hr0.0 mm/hr 0.00 in0.0 mm
08:41 AM 30.8°F-0.7°C 30.6°F-0.8°C 99% 10.0 mph NE16.1 kmh NE 12.0 mph19.3 kmh 30.47 in1031.8 mb 0.00 in0.0 mm 0.00 in/hr0.0 mm/hr 0.00 in0.0 mm
08:42 AM 30.8°F-0.7°C 30.6°F-0.8°C 99% 10.0 mph NE16.1 kmh NE 12.0 mph19.3 kmh 30.47 in1031.8 mb 0.00 in0.0 mm 0.00 in/hr0.0 mm/hr 0.00 in0.0 mm
08:44 AM 30.8°F-0.7°C 30.6°F-0.8°C 99% 7.0 mph NE11.3 kmh NE 12.0 mph19.3 kmh 30.47 in1031.8 mb 0.00 in0.0 mm 0.00 in/hr0.0 mm/hr 0.00 in0.0 mm
08:45 AM 30.8°F-0.7°C 30.6°F-0.8°C 99% 9.0 mph NE14.5 kmh NE 12.0 mph19.3 kmh 30.47 in1031.8 mb 0.00 in0.0 mm 0.00 in/hr0.0 mm/hr 0.00 in0.0 mm
08:46 AM 30.8°F-0.7°C 30.6°F-0.8°C 99% 8.0 mph ENE12.9 kmh ENE 12.0 mph19.3 kmh 30.48 in1032.2 mb 0.00 in0.0 mm 0.00 in/hr0.0 mm/hr 0.00 in0.0 mm
08:48 AM 30.9°F-0.6°C 30.7°F-0.7°C 99% 8.0 mph NE12.9 kmh NE 12.0 mph19.3 kmh 30.48 in1032.2 mb 0.00 in0.0 mm 0.00 in/hr0.0 mm/hr 0.00 in0.0 mm
08:50 AM 30.9°F-0.6°C 30.7°F-0.7°C 99% 8.0 mph NE12.9 kmh NE 12.0 mph19.3 kmh 30.48 in1032.2 mb 0.00 in0.0 mm 0.00 in/hr0.0 mm/hr 0.00 in0.0 mm
08:51 AM 30.9°F-0.6°C 30.7°F-0.7°C 99% 11.0 mph NE17.7 kmh NE 12.0 mph19.3 kmh 30.48 in1032.2 mb 0.00 in0.0 mm 0.00 in/hr0.0 mm/hr 0.00 in0.0 mm
08:52 AM 30.9°F-0.6°C 30.7°F-0.7°C 99% 7.0 mph NE11.3 kmh NE 12.0 mph19.3 kmh 30.48 in1032.2 mb 0.00 in0.0 mm 0.00 in/hr0.0 mm/hr 0.00 in0.0 mm
08:54 AM 30.9°F-0.6°C 30.7°F-0.7°C 99% 9.0 mph NE14.5 kmh NE 12.0 mph19.3 kmh 30.48 in1032.2 mb 0.00 in0.0 mm 0.00 in/hr0.0 mm/hr 0.00 in0.0 mm
08:56 AM 30.9°F-0.6°C 30.7°F-0.7°C 99% 7.0 mph NE11.3 kmh NE 12.0 mph19.3 kmh 30.48 in1032.2 mb 0.00 in0.0 mm 0.00 in/hr0.0 mm/hr 0.00 in0.0 mm
08:57 AM 30.9°F-0.6°C 30.7°F-0.7°C 99% 7.0 mph NE11.3 kmh NE 12.0 mph19.3 kmh 30.48 in1032.2 mb 0.00 in0.0 mm 0.00 in/hr0.0 mm/hr 0.00 in0.0 mm
08:58 AM 30.9°F-0.6°C 30.7°F-0.7°C 99% 7.0 mph NE11.3 kmh NE 12.0 mph19.3 kmh 30.48 in1032.2 mb 0.00 in0.0 mm 0.00 in/hr0.0 mm/hr 0.00 in0.0 mm
09:00 AM 30.9°F-0.6°C 30.7°F-0.7°C 99% 5.0 mph NE8.0 kmh NE 12.0 mph19.3 kmh 30.48 in1032.2 mb 0.00 in0.0 mm 0.00 in/hr0.0 mm/hr 0.00 in0.0 mm
09:01 AM 30.9°F-0.6°C 30.7°F-0.7°C 99% 8.0 mph NE12.9 kmh NE 8.0 mph12.9 kmh 30.48 in1032.2 mb 0.00 in0.0 mm 0.00 in/hr0.0 mm/hr 0.00 in0.0 mm
09:03 AM 30.9°F-0.6°C 30.7°F-0.7°C 99% 7.0 mph NE11.3 kmh NE 10.0 mph16.1 kmh 30.48 in1032.2 mb 0.00 in0.0 mm 0.00 in/hr0.0 mm/hr 0.00 in0.0 mm
09:04 AM 30.9°F-0.6°C 30.7°F-0.7°C 99% 5.0 mph ENE8.0 kmh ENE 10.0 mph16.1 kmh 30.48 in1032.2 mb 0.00 in0.0 mm 0.00 in/hr0.0 mm/hr 0.00 in0.0 mm
09:05 AM 31.0°F-0.6°C 30.8°F-0.7°C 99% 5.0 mph ENE8.0 kmh ENE 10.0 mph16.1 kmh 30.48 in1032.2 mb 0.00 in0.0 mm 0.00 in/hr0.0 mm/hr 0.00 in0.0 mm
09:06 AM 31.0°F-0.6°C 30.8°F-0.7°C 99% 7.0 mph ENE11.3 kmh ENE 10.0 mph16.1 kmh 30.48 in1032.2 mb 0.00 in0.0 mm 0.00 in/hr0.0 mm/hr 0.00 in0.0 mm
09:08 AM 31.0°F-0.6°C 30.8°F-0.7°C 99% 7.0 mph ENE11.3 kmh ENE 10.0 mph16.1 kmh 30.48 in1032.2 mb 0.00 in0.0 mm 0.00 in/hr0.0 mm/hr 0.00 in0.0 mm
09:09 AM 31.0°F-0.6°C 30.8°F-0.7°C 99% 5.0 mph ENE8.0 kmh ENE 10.0 mph16.1 kmh 30.48 in1032.2 mb 0.00 in0.0 mm 0.00 in/hr0.0 mm/hr 0.00 in0.0 mm
09:10 AM 31.0°F-0.6°C 30.8°F-0.7°C 99% 8.0 mph ENE12.9 kmh ENE 10.0 mph16.1 kmh 30.48 in1032.2 mb 0.00 in0.0 mm 0.00 in/hr0.0 mm/hr 0.00 in0.0 mm
09:11 AM 31.0°F-0.6°C 30.8°F-0.7°C 99% 8.0 mph ENE12.9 kmh ENE 10.0 mph16.1 kmh 30.48 in1032.2 mb 0.00 in0.0 mm 0.00 in/hr0.0 mm/hr 0.00 in0.0 mm
09:12 AM 31.0°F-0.6°C 30.8°F-0.7°C 99% 7.0 mph ENE11.3 kmh ENE 10.0 mph16.1 kmh 30.48 in1032.2 mb 0.00 in0.0 mm 0.00 in/hr0.0 mm/hr 0.00 in0.0 mm
09:13 AM 31.0°F-0.6°C 30.8°F-0.7°C 99% 8.0 mph ENE12.9 kmh ENE 10.0 mph16.1 kmh 30.48 in1032.2 mb 0.00 in0.0 mm 0.00 in/hr0.0 mm/hr 0.00 in0.0 mm
09:14 AM 31.0°F-0.6°C 30.8°F-0.7°C 99% 10.0 mph ENE16.1 kmh ENE 10.0 mph16.1 kmh 30.48 in1032.2 mb 0.00 in0.0 mm 0.00 in/hr0.0 mm/hr 0.00 in0.0 mm
09:15 AM 31.0°F-0.6°C 30.8°F-0.7°C 99% 9.0 mph ENE14.5 kmh ENE 10.0 mph16.1 kmh 30.48 in1032.2 mb 0.00 in0.0 mm 0.00 in/hr0.0 mm/hr 0.00 in0.0 mm
09:16 AM 31.0°F-0.6°C 30.8°F-0.7°C 99% 7.0 mph ENE11.3 kmh ENE 10.0 mph16.1 kmh 30.48 in1032.2 mb 0.00 in0.0 mm 0.00 in/hr0.0 mm/hr 0.00 in0.0 mm
09:17 AM 31.0°F-0.6°C 30.8°F-0.7°C 99% 7.0 mph ENE11.3 kmh ENE 10.0 mph16.1 kmh 30.48 in1032.2 mb 0.00 in0.0 mm 0.00 in/hr0.0 mm/hr 0.00 in0.0 mm
09:18 AM 31.0°F-0.6°C 30.8°F-0.7°C 99% 5.0 mph ENE8.0 kmh ENE 10.0 mph16.1 kmh 30.49 in1032.5 mb 0.00 in0.0 mm 0.00 in/hr0.0 mm/hr 0.00 in0.0 mm
09:20 AM 31.0°F-0.6°C 30.8°F-0.7°C 99% 9.0 mph ENE14.5 kmh ENE 10.0 mph16.1 kmh 30.48 in1032.2 mb 0.00 in0.0 mm 0.00 in/hr0.0 mm/hr 0.00 in0.0 mm
09:21 AM 31.0°F-0.6°C 30.8°F-0.7°C 99% 10.0 mph ENE16.1 kmh ENE 10.0 mph16.1 kmh 30.48 in1032.2 mb 0.00 in0.0 mm 0.00 in/hr0.0 mm/hr 0.00 in0.0 mm
09:22 AM 31.0°F-0.6°C 30.8°F-0.7°C 99% 10.0 mph ENE16.1 kmh ENE 10.0 mph16.1 kmh 30.48 in1032.2 mb 0.00 in0.0 mm 0.00 in/hr0.0 mm/hr 0.00 in0.0 mm
09:23 AM 31.0°F-0.6°C 30.8°F-0.7°C 99% 8.0 mph ENE12.9 kmh ENE 11.0 mph17.7 kmh 30.48 in1032.2 mb 0.00 in0.0 mm 0.00 in/hr0.0 mm/hr 0.00 in0.0 mm
09:24 AM 31.0°F-0.6°C 30.8°F-0.7°C 99% 10.0 mph ENE16.1 kmh ENE 11.0 mph17.7 kmh 30.48 in1032.2 mb 0.00 in0.0 mm 0.00 in/hr0.0 mm/hr 0.00 in0.0 mm
09:25 AM 31.0°F-0.6°C 30.8°F-0.7°C 99% 9.0 mph ENE14.5 kmh ENE 11.0 mph17.7 kmh 30.48 in1032.2 mb 0.00 in0.0 mm 0.00 in/hr0.0 mm/hr 0.00 in0.0 mm
09:26 AM 30.9°F-0.6°C 30.7°F-0.7°C 99% 10.0 mph ENE16.1 kmh ENE 11.0 mph17.7 kmh 30.48 in1032.2 mb 0.00 in0.0 mm 0.00 in/hr0.0 mm/hr 0.00 in0.0 mm
09:27 AM 31.0°F-0.6°C 30.8°F-0.7°C 99% 10.0 mph NE16.1 kmh NE 11.0 mph17.7 kmh 30.48 in1032.2 mb 0.00 in0.0 mm 0.00 in/hr0.0 mm/hr 0.00 in0.0 mm
09:29 AM 31.0°F-0.6°C 30.8°F-0.7°C 99% 7.0 mph NE11.3 kmh NE 11.0 mph17.7 kmh 30.48 in1032.2 mb 0.00 in0.0 mm 0.00 in/hr0.0 mm/hr 0.00 in0.0 mm
09:30 AM 31.0°F-0.6°C 30.8°F-0.7°C 99% 9.0 mph NE14.5 kmh NE 11.0 mph17.7 kmh 30.48 in1032.2 mb 0.00 in0.0 mm 0.00 in/hr0.0 mm/hr 0.00 in0.0 mm
09:31 AM 31.0°F-0.6°C 30.8°F-0.7°C 99% 6.0 mph NE9.7 kmh NE 9.0 mph14.5 kmh 30.49 in1032.5 mb 0.00 in0.0 mm 0.00 in/hr0.0 mm/hr 0.00 in0.0 mm
09:32 AM 31.0°F-0.6°C 30.8°F-0.7°C 99% 9.0 mph NE14.5 kmh NE 11.0 mph17.7 kmh 30.48 in1032.2 mb 0.00 in0.0 mm 0.00 in/hr0.0 mm/hr 0.00 in0.0 mm
09:33 AM 31.0°F-0.6°C 30.8°F-0.7°C 99% 8.0 mph ENE12.9 kmh ENE 11.0 mph17.7 kmh 30.49 in1032.5 mb 0.00 in0.0 mm 0.00 in/hr0.0 mm/hr 0.00 in0.0 mm
09:34 AM 31.0°F-0.6°C 30.8°F-0.7°C 99% 8.0 mph NE12.9 kmh NE 11.0 mph17.7 kmh 30.49 in1032.5 mb 0.00 in0.0 mm 0.00 in/hr0.0 mm/hr 0.00 in0.0 mm
09:36 AM 31.0°F-0.6°C 30.8°F-0.7°C 99% 9.0 mph NE14.5 kmh NE 11.0 mph17.7 kmh 30.49 in1032.5 mb 0.00 in0.0 mm 0.00 in/hr0.0 mm/hr 0.00 in0.0 mm
09:38 AM 31.1°F-0.5°C 30.9°F-0.6°C 99% 9.0 mph NE14.5 kmh NE 11.0 mph17.7 kmh 30.49 in1032.5 mb 0.00 in0.0 mm 0.00 in/hr0.0 mm/hr 0.00 in0.0 mm
09:39 AM 31.1°F-0.5°C 30.9°F-0.6°C 99% 11.0 mph NE17.7 kmh NE 11.0 mph17.7 kmh 30.49 in1032.5 mb 0.00 in0.0 mm 0.00 in/hr0.0 mm/hr 0.00 in0.0 mm
09:40 AM 31.1°F-0.5°C 30.9°F-0.6°C 99% 8.0 mph NE12.9 kmh NE 11.0 mph17.7 kmh 30.48 in1032.2 mb 0.00 in0.0 mm 0.00 in/hr0.0 mm/hr 0.00 in0.0 mm
09:42 AM 31.0°F-0.6°C 30.8°F-0.7°C 99% 10.0 mph NE16.1 kmh NE 11.0 mph17.7 kmh 30.48 in1032.2 mb 0.00 in0.0 mm 0.00 in/hr0.0 mm/hr 0.00 in0.0 mm
09:43 AM 31.0°F-0.6°C 30.8°F-0.7°C 99% 9.0 mph NE14.5 kmh NE 11.0 mph17.7 kmh 30.48 in1032.2 mb 0.00 in0.0 mm 0.00 in/hr0.0 mm/hr 0.00 in0.0 mm
09:44 AM 31.0°F-0.6°C 30.8°F-0.7°C 99% 9.0 mph NE14.5 kmh NE 11.0 mph17.7 kmh 30.48 in1032.2 mb 0.00 in0.0 mm 0.00 in/hr0.0 mm/hr 0.00 in0.0 mm
09:46 AM 31.0°F-0.6°C 30.8°F-0.7°C 99% 11.0 mph NE17.7 kmh NE 12.0 mph19.3 kmh 30.48 in1032.2 mb 0.00 in0.0 mm 0.00 in/hr0.0 mm/hr 0.00 in0.0 mm
09:47 AM 31.0°F-0.6°C 30.8°F-0.7°C 99% 10.0 mph NE16.1 kmh NE 12.0 mph19.3 kmh 30.48 in1032.2 mb 0.00 in0.0 mm 0.00 in/hr0.0 mm/hr 0.00 in0.0 mm
09:48 AM 31.0°F-0.6°C 30.8°F-0.7°C 99% 7.0 mph NE11.3 kmh NE 12.0 mph19.3 kmh 30.48 in1032.2 mb 0.00 in0.0 mm 0.00 in/hr0.0 mm/hr 0.00 in0.0 mm
09:50 AM 31.1°F-0.5°C 30.9°F-0.6°C 99% 7.0 mph NE11.3 kmh NE 12.0 mph19.3 kmh 30.48 in1032.2 mb 0.00 in0.0 mm 0.00 in/hr0.0 mm/hr 0.00 in0.0 mm
09:51 AM 31.1°F-0.5°C 30.9°F-0.6°C 99% 9.0 mph NE14.5 kmh NE 12.0 mph19.3 kmh 30.48 in1032.2 mb 0.00 in0.0 mm 0.00 in/hr0.0 mm/hr 0.00 in0.0 mm
09:52 AM 31.1°F-0.5°C 30.9°F-0.6°C 99% 10.0 mph NE16.1 kmh NE 12.0 mph19.3 kmh 30.48 in1032.2 mb 0.00 in0.0 mm 0.00 in/hr0.0 mm/hr 0.00 in0.0 mm
09:53 AM 31.1°F-0.5°C 30.9°F-0.6°C 99% 7.0 mph NE11.3 kmh NE 12.0 mph19.3 kmh 30.48 in1032.2 mb 0.00 in0.0 mm 0.00 in/hr0.0 mm/hr 0.00 in0.0 mm
09:55 AM 31.1°F-0.5°C 30.9°F-0.6°C 99% 8.0 mph NE12.9 kmh NE 12.0 mph19.3 kmh 30.48 in1032.2 mb 0.00 in0.0 mm 0.00 in/hr0.0 mm/hr 0.00 in0.0 mm
09:56 AM 31.1°F-0.5°C 30.9°F-0.6°C 99% 7.0 mph NE11.3 kmh NE 12.0 mph19.3 kmh 30.48 in1032.2 mb 0.00 in0.0 mm 0.00 in/hr0.0 mm/hr 0.00 in0.0 mm
09:57 AM 31.1°F-0.5°C 30.9°F-0.6°C 99% 6.0 mph NE9.7 kmh NE 12.0 mph19.3 kmh 30.48 in1032.2 mb 0.00 in0.0 mm 0.00 in/hr0.0 mm/hr 0.00 in0.0 mm
09:58 AM 31.1°F-0.5°C 30.9°F-0.6°C 99% 6.0 mph NE9.7 kmh NE 12.0 mph19.3 kmh 30.49 in1032.5 mb 0.00 in0.0 mm 0.00 in/hr0.0 mm/hr 0.00 in0.0 mm
10:00 AM 31.1°F-0.5°C 30.9°F-0.6°C 99% 9.0 mph ENE14.5 kmh ENE 12.0 mph19.3 kmh 30.48 in1032.2 mb 0.00 in0.0 mm 0.00 in/hr0.0 mm/hr 0.00 in0.0 mm
10:01 AM 31.1°F-0.5°C 30.9°F-0.6°C 99% 9.0 mph NE14.5 kmh NE 10.0 mph16.1 kmh 30.48 in1032.2 mb 0.00 in0.0 mm 0.00 in/hr0.0 mm/hr 0.00 in0.0 mm
10:02 AM 31.1°F-0.5°C 30.9°F-0.6°C 99% 7.0 mph NE11.3 kmh NE 11.0 mph17.7 kmh 30.49 in1032.5 mb 0.00 in0.0 mm 0.00 in/hr0.0 mm/hr 0.00 in0.0 mm
10:03 AM 31.1°F-0.5°C 30.9°F-0.6°C 99% 7.0 mph ENE11.3 kmh ENE 11.0 mph17.7 kmh 30.49 in1032.5 mb 0.00 in0.0 mm 0.00 in/hr0.0 mm/hr 0.00 in0.0 mm
10:05 AM 31.1°F-0.5°C 30.9°F-0.6°C 99% 7.0 mph ENE11.3 kmh ENE 11.0 mph17.7 kmh 30.49 in1032.5 mb 0.00 in0.0 mm 0.00 in/hr0.0 mm/hr 0.00 in0.0 mm
10:06 AM 31.1°F-0.5°C 30.9°F-0.6°C 99% 5.0 mph ENE8.0 kmh ENE 11.0 mph17.7 kmh 30.49 in1032.5 mb 0.00 in0.0 mm 0.00 in/hr0.0 mm/hr 0.00 in0.0 mm
10:08 AM 31.1°F-0.5°C 30.9°F-0.6°C 99% 4.0 mph E6.4 kmh E 11.0 mph17.7 kmh 30.49 in1032.5 mb 0.00 in0.0 mm 0.00 in/hr0.0 mm/hr 0.00 in0.0 mm
10:09 AM 31.1°F-0.5°C 30.9°F-0.6°C 99% 10.0 mph E16.1 kmh E 11.0 mph17.7 kmh 30.49 in1032.5 mb 0.00 in0.0 mm 0.00 in/hr0.0 mm/hr 0.00 in0.0 mm
10:10 AM 31.1°F-0.5°C 30.9°F-0.6°C 99% 9.0 mph E14.5 kmh E 11.0 mph17.7 kmh 30.49 in1032.5 mb 0.00 in0.0 mm 0.00 in/hr0.0 mm/hr 0.00 in0.0 mm
10:11 AM 31.1°F-0.5°C 30.9°F-0.6°C 99% 8.0 mph E12.9 kmh E 11.0 mph17.7 kmh 30.49 in1032.5 mb 0.00 in0.0 mm 0.00 in/hr0.0 mm/hr 0.00 in0.0 mm
10:12 AM 31.1°F-0.5°C 30.9°F-0.6°C 99% 7.0 mph ENE11.3 kmh ENE 11.0 mph17.7 kmh 30.49 in1032.5 mb 0.00 in0.0 mm 0.00 in/hr0.0 mm/hr 0.00 in0.0 mm
10:13 AM 31.0°F-0.6°C 30.8°F-0.7°C 99% 8.0 mph E12.9 kmh E 11.0 mph17.7 kmh 30.49 in1032.5 mb 0.00 in0.0 mm 0.00 in/hr0.0 mm/hr 0.00 in0.0 mm
10:15 AM 31.0°F-0.6°C 30.8°F-0.7°C 99% 7.0 mph E11.3 kmh E 11.0 mph17.7 kmh 30.49 in1032.5 mb 0.00 in0.0 mm 0.00 in/hr0.0 mm/hr 0.00 in0.0 mm
10:17 AM 31.0°F-0.6°C 30.8°F-0.7°C 99% 8.0 mph E12.9 kmh E 11.0 mph17.7 kmh 30.49 in1032.5 mb 0.00 in0.0 mm 0.00 in/hr0.0 mm/hr 0.00 in0.0 mm
10:18 AM 31.0°F-0.6°C 30.8°F-0.7°C 99% 8.0 mph ENE12.9 kmh ENE 11.0 mph17.7 kmh 30.49 in1032.5 mb 0.00 in0.0 mm 0.00 in/hr0.0 mm/hr 0.00 in0.0 mm
10:19 AM 31.0°F-0.6°C 30.8°F-0.7°C 99% 7.0 mph ENE11.3 kmh ENE 11.0 mph17.7 kmh 30.49 in1032.5 mb 0.00 in0.0 mm 0.00 in/hr0.0 mm/hr 0.00 in0.0 mm
10:20 AM 31.0°F-0.6°C 30.8°F-0.7°C 99% 8.0 mph ENE12.9 kmh ENE 11.0 mph17.7 kmh 30.49 in1032.5 mb 0.00 in0.0 mm 0.00 in/hr0.0 mm/hr 0.00 in0.0 mm
10:21 AM 31.0°F-0.6°C 30.8°F-0.7°C 99% 8.0 mph E12.9 kmh E 11.0 mph17.7 kmh 30.50 in1032.8 mb 0.00 in0.0 mm 0.00 in/hr0.0 mm/hr 0.00 in0.0 mm
10:22 AM 31.0°F-0.6°C 30.8°F-0.7°C 99% 8.0 mph E12.9 kmh E 11.0 mph17.7 kmh 30.50 in1032.8 mb 0.00 in0.0 mm 0.00 in/hr0.0 mm/hr 0.00 in0.0 mm
10:23 AM 31.0°F-0.6°C 30.8°F-0.7°C 99% 5.0 mph E8.0 kmh E 11.0 mph17.7 kmh 30.50 in1032.8 mb 0.00 in0.0 mm 0.00 in/hr0.0 mm/hr 0.00 in0.0 mm
10:25 AM 31.0°F-0.6°C 30.8°F-0.7°C 99% 7.0 mph NE11.3 kmh NE 11.0 mph17.7 kmh 30.50 in1032.8 mb 0.00 in0.0 mm 0.00 in/hr0.0 mm/hr 0.00 in0.0 mm
10:26 AM 31.1°F-0.5°C 30.9°F-0.6°C 99% 7.0 mph ENE11.3 kmh ENE 11.0 mph17.7 kmh 30.50 in1032.8 mb 0.00 in0.0 mm 0.00 in/hr0.0 mm/hr 0.00 in0.0 mm
10:27 AM 31.1°F-0.5°C 30.9°F-0.6°C 99% 8.0 mph ENE12.9 kmh ENE 11.0 mph17.7 kmh 30.50 in1032.8 mb 0.00 in0.0 mm 0.00 in/hr0.0 mm/hr 0.00 in0.0 mm
10:28 AM 31.1°F-0.5°C 30.9°F-0.6°C 99% 8.0 mph ENE12.9 kmh ENE 11.0 mph17.7 kmh 30.50 in1032.8 mb 0.00 in0.0 mm 0.00 in/hr0.0 mm/hr 0.00 in0.0 mm
10:29 AM 31.1°F-0.5°C 30.9°F-0.6°C 99% 5.0 mph E8.0 kmh E 11.0 mph17.7 kmh 30.50 in1032.8 mb 0.00 in0.0 mm 0.00 in/hr0.0 mm/hr 0.00 in0.0 mm
10:30 AM 31.1°F-0.5°C 30.9°F-0.6°C 99% 5.0 mph ENE8.0 kmh ENE 11.0 mph17.7 kmh 30.50 in1032.8 mb 0.00 in0.0 mm 0.00 in/hr0.0 mm/hr 0.00 in0.0 mm
10:31 AM 31.1°F-0.5°C 30.9°F-0.6°C 99% 9.0 mph E14.5 kmh E 9.0 mph14.5 kmh 30.50 in1032.8 mb 0.00 in0.0 mm 0.00 in/hr0.0 mm/hr 0.00 in0.0 mm
10:32 AM 31.1°F-0.5°C 30.9°F-0.6°C 99% 9.0 mph E14.5 kmh E 9.0 mph14.5 kmh 30.50 in1032.8 mb 0.00 in0.0 mm 0.00 in/hr0.0 mm/hr 0.00 in0.0 mm
10:33 AM 31.1°F-0.5°C 30.9°F-0.6°C 99% 8.0 mph E12.9 kmh E 10.0 mph16.1 kmh 30.50 in1032.8 mb 0.00 in0.0 mm 0.00 in/hr0.0 mm/hr 0.00 in0.0 mm
10:34 AM 31.1°F-0.5°C 30.9°F-0.6°C 99% 8.0 mph E12.9 kmh E 10.0 mph16.1 kmh 30.50 in1032.8 mb 0.00 in0.0 mm 0.00 in/hr0.0 mm/hr 0.00 in0.0 mm
10:35 AM 31.1°F-0.5°C 30.9°F-0.6°C 99% 8.0 mph E12.9 kmh E 10.0 mph16.1 kmh 30.50 in1032.8 mb 0.00 in0.0 mm 0.00 in/hr0.0 mm/hr 0.00 in0.0 mm
10:36 AM 31.1°F-0.5°C 30.9°F-0.6°C 99% 8.0 mph E12.9 kmh E 10.0 mph16.1 kmh 30.50 in1032.8 mb 0.00 in0.0 mm 0.00 in/hr0.0 mm/hr 0.00 in0.0 mm
10:38 AM 31.1°F-0.5°C 30.9°F-0.6°C 99% 9.0 mph ENE14.5 kmh ENE 11.0 mph17.7 kmh 30.50 in1032.8 mb 0.00 in0.0 mm 0.00 in/hr0.0 mm/hr 0.00 in0.0 mm
10:39 AM 31.1°F-0.5°C 30.9°F-0.6°C 99% 8.0 mph E12.9 kmh E 11.0 mph17.7 kmh 30.50 in1032.8 mb 0.00 in0.0 mm 0.00 in/hr0.0 mm/hr 0.00 in0.0 mm
10:40 AM 31.1°F-0.5°C 30.9°F-0.6°C 99% 8.0 mph E12.9 kmh E 11.0 mph17.7 kmh 30.50 in1032.8 mb 0.00 in0.0 mm 0.00 in/hr0.0 mm/hr 0.00 in0.0 mm
10:41 AM 31.1°F-0.5°C 30.9°F-0.6°C 99% 9.0 mph ENE14.5 kmh ENE 11.0 mph17.7 kmh 30.50 in1032.8 mb 0.00 in0.0 mm 0.00 in/hr0.0 mm/hr 0.00 in0.0 mm
10:42 AM 31.1°F-0.5°C 30.9°F-0.6°C 99% 11.0 mph ENE17.7 kmh ENE 11.0 mph17.7 kmh 30.50 in1032.8 mb 0.00 in0.0 mm 0.00 in/hr0.0 mm/hr 0.00 in0.0 mm
10:43 AM 31.1°F-0.5°C 30.9°F-0.6°C 99% 10.0 mph E16.1 kmh E 11.0 mph17.7 kmh 30.50 in1032.8 mb 0.00 in0.0 mm 0.00 in/hr0.0 mm/hr 0.00 in0.0 mm
10:45 AM 31.1°F-0.5°C 30.9°F-0.6°C 99% 9.0 mph ENE14.5 kmh ENE 11.0 mph17.7 kmh 30.50 in1032.8 mb 0.00 in0.0 mm 0.00 in/hr0.0 mm/hr 0.00 in0.0 mm
10:46 AM 31.1°F-0.5°C 30.9°F-0.6°C 99% 10.0 mph E16.1 kmh E 11.0 mph17.7 kmh 30.50 in1032.8 mb 0.00 in0.0 mm 0.00 in/hr0.0 mm/hr 0.00 in0.0 mm
10:48 AM 31.1°F-0.5°C 30.9°F-0.6°C 99% 9.0 mph E14.5 kmh E 11.0 mph17.7 kmh 30.50 in1032.8 mb 0.00 in0.0 mm 0.00 in/hr0.0 mm/hr 0.00 in0.0 mm
10:49 AM 31.1°F-0.5°C 30.9°F-0.6°C 99% 8.0 mph ENE12.9 kmh ENE 11.0 mph17.7 kmh 30.50 in1032.8 mb 0.00 in0.0 mm 0.00 in/hr0.0 mm/hr 0.00 in0.0 mm
10:50 AM 31.1°F-0.5°C 30.9°F-0.6°C 99% 8.0 mph ENE12.9 kmh ENE 11.0 mph17.7 kmh 30.50 in1032.8 mb 0.00 in0.0 mm 0.00 in/hr0.0 mm/hr 0.00 in0.0 mm
10:52 AM 31.1°F-0.5°C 30.9°F-0.6°C 99% 7.0 mph E11.3 kmh E 11.0 mph17.7 kmh 30.50 in1032.8 mb 0.00 in0.0 mm 0.00 in/hr0.0 mm/hr 0.00 in0.0 mm
10:53 AM 31.1°F-0.5°C 30.9°F-0.6°C 99% 7.0 mph E11.3 kmh E 11.0 mph17.7 kmh 30.50 in1032.8 mb 0.00 in0.0 mm 0.00 in/hr0.0 mm/hr 0.00 in0.0 mm
10:55 AM 31.1°F-0.5°C 30.9°F-0.6°C 99% 7.0 mph E11.3 kmh E 11.0 mph17.7 kmh 30.50 in1032.8 mb 0.00 in0.0 mm 0.00 in/hr0.0 mm/hr 0.00 in0.0 mm
10:56 AM 31.1°F-0.5°C 30.9°F-0.6°C 99% 7.0 mph NE11.3 kmh NE 11.0 mph17.7 kmh 30.50 in1032.8 mb 0.00 in0.0 mm 0.00 in/hr0.0 mm/hr 0.00 in0.0 mm
10:58 AM 31.2°F-0.4°C 31.0°F-0.6°C 99% 8.0 mph ENE12.9 kmh ENE 11.0 mph17.7 kmh 30.50 in1032.8 mb 0.00 in0.0 mm 0.00 in/hr0.0 mm/hr 0.00 in0.0 mm
10:59 AM 31.2°F-0.4°C 31.0°F-0.6°C 99% 8.0 mph ENE12.9 kmh ENE 11.0 mph17.7 kmh 30.50 in1032.8 mb 0.00 in0.0 mm 0.00 in/hr0.0 mm/hr 0.00 in0.0 mm
11:00 AM 31.2°F-0.4°C 31.0°F-0.6°C 99% 9.0 mph ENE14.5 kmh ENE 11.0 mph17.7 kmh 30.50 in1032.8 mb 0.00 in0.0 mm 0.00 in/hr0.0 mm/hr 0.00 in0.0 mm
11:01 AM 31.2°F-0.4°C 31.0°F-0.6°C 99% 10.0 mph ENE16.1 kmh ENE 10.0 mph16.1 kmh 30.50 in1032.8 mb 0.00 in0.0 mm 0.00 in/hr0.0 mm/hr 0.00 in0.0 mm
11:03 AM 31.2°F-0.4°C 31.0°F-0.6°C 99% 7.0 mph ENE11.3 kmh ENE 10.0 mph16.1 kmh 30.50 in1032.8 mb 0.00 in0.0 mm 0.00 in/hr0.0 mm/hr 0.00 in0.0 mm
11:04 AM 31.1°F-0.5°C 30.9°F-0.6°C 99% 8.0 mph ENE12.9 kmh ENE 10.0 mph16.1 kmh 30.50 in1032.8 mb 0.00 in0.0 mm 0.00 in/hr0.0 mm/hr 0.00 in0.0 mm
11:06 AM 31.2°F-0.4°C 31.0°F-0.6°C 99% 9.0 mph ENE14.5 kmh ENE 10.0 mph16.1 kmh 30.49 in1032.5 mb 0.00 in0.0 mm 0.00 in/hr0.0 mm/hr 0.00 in0.0 mm
11:07 AM 31.1°F-0.5°C 30.9°F-0.6°C 99% 9.0 mph ENE14.5 kmh ENE 10.0 mph16.1 kmh 30.49 in1032.5 mb 0.00 in0.0 mm 0.00 in/hr0.0 mm/hr 0.00 in0.0 mm
11:08 AM 31.1°F-0.5°C 30.9°F-0.6°C 99% 11.0 mph NE17.7 kmh NE 11.0 mph17.7 kmh 30.49 in1032.5 mb 0.00 in0.0 mm 0.00 in/hr0.0 mm/hr 0.00 in0.0 mm
11:10 AM 31.2°F-0.4°C 31.0°F-0.6°C 99% 10.0 mph ENE16.1 kmh ENE 12.0 mph19.3 kmh 30.49 in1032.5 mb 0.00 in0.0 mm 0.00 in/hr0.0 mm/hr 0.00 in0.0 mm
11:12 AM 31.1°F-0.5°C 30.9°F-0.6°C 99% 8.0 mph ENE12.9 kmh ENE 12.0 mph19.3 kmh 30.49 in1032.5 mb 0.00 in0.0 mm 0.00 in/hr0.0 mm/hr 0.00 in0.0 mm
11:13 AM 31.2°F-0.4°C 31.0°F-0.6°C 99% 8.0 mph ENE12.9 kmh ENE 12.0 mph19.3 kmh 30.49 in1032.5 mb 0.00 in0.0 mm 0.00 in/hr0.0 mm/hr 0.00 in0.0 mm
11:14 AM 31.2°F-0.4°C 31.0°F-0.6°C 99% 8.0 mph E12.9 kmh E 12.0 mph19.3 kmh 30.50 in1032.8 mb 0.00 in0.0 mm 0.00 in/hr0.0 mm/hr 0.00 in0.0 mm
11:16 AM 31.2°F-0.4°C 31.0°F-0.6°C 99% 8.0 mph E12.9 kmh E 12.0 mph19.3 kmh 30.49 in1032.5 mb 0.00 in0.0 mm 0.00 in/hr0.0 mm/hr 0.00 in0.0 mm
11:18 AM 31.2°F-0.4°C 31.0°F-0.6°C 99% 9.0 mph ENE14.5 kmh ENE 12.0 mph19.3 kmh 30.49 in1032.5 mb 0.00 in0.0 mm 0.00 in/hr0.0 mm/hr 0.00 in0.0 mm
11:19 AM 31.2°F-0.4°C 31.0°F-0.6°C 99% 9.0 mph ENE14.5 kmh ENE 12.0 mph19.3 kmh 30.49 in1032.5 mb 0.00 in0.0 mm 0.00 in/hr0.0 mm/hr 0.00 in0.0 mm
11:20 AM 31.2°F-0.4°C 31.0°F-0.6°C 99% 10.0 mph NE16.1 kmh NE 12.0 mph19.3 kmh 30.49 in1032.5 mb 0.00 in0.0 mm 0.00 in/hr0.0 mm/hr 0.00 in0.0 mm
11:21 AM 31.2°F-0.4°C 31.0°F-0.6°C 99% 8.0 mph ENE12.9 kmh ENE 12.0 mph19.3 kmh 30.49 in1032.5 mb 0.00 in0.0 mm 0.00 in/hr0.0 mm/hr 0.00 in0.0 mm
11:22 AM 31.2°F-0.4°C 31.0°F-0.6°C 99% 10.0 mph ENE16.1 kmh ENE 12.0 mph19.3 kmh 30.49 in1032.5 mb 0.00 in0.0 mm 0.00 in/hr0.0 mm/hr 0.00 in0.0 mm
11:24 AM 31.2°F-0.4°C 31.0°F-0.6°C 99% 10.0 mph ENE16.1 kmh ENE 12.0 mph19.3 kmh 30.49 in1032.5 mb 0.00 in0.0 mm 0.00 in/hr0.0 mm/hr 0.00 in0.0 mm
11:25 AM 31.2°F-0.4°C 31.0°F-0.6°C 99% 10.0 mph ENE16.1 kmh ENE 12.0 mph19.3 kmh 30.49 in1032.5 mb 0.00 in0.0 mm 0.00 in/hr0.0 mm/hr 0.00 in0.0 mm
11:26 AM 31.2°F-0.4°C 31.0°F-0.6°C 99% 8.0 mph ENE12.9 kmh ENE 12.0 mph19.3 kmh 30.49 in1032.5 mb 0.00 in0.0 mm 0.00 in/hr0.0 mm/hr 0.00 in0.0 mm
11:27 AM 31.1°F-0.5°C 30.9°F-0.6°C 99% 8.0 mph NE12.9 kmh NE 12.0 mph19.3 kmh 30.49 in1032.5 mb 0.00 in0.0 mm 0.00 in/hr0.0 mm/hr 0.00 in0.0 mm
11:29 AM 31.2°F-0.4°C 31.0°F-0.6°C 99% 9.0 mph NE14.5 kmh NE 12.0 mph19.3 kmh 30.49 in1032.5 mb 0.00 in0.0 mm 0.00 in/hr0.0 mm/hr 0.00 in0.0 mm
11:30 AM 31.2°F-0.4°C 31.0°F-0.6°C 99% 10.0 mph NE16.1 kmh NE 10.0 mph16.1 kmh 30.49 in1032.5 mb 0.00 in0.0 mm 0.00 in/hr0.0 mm/hr 0.00 in0.0 mm
11:31 AM 31.2°F-0.4°C 31.0°F-0.6°C 99% 8.0 mph ENE12.9 kmh ENE 11.0 mph17.7 kmh 30.49 in1032.5 mb 0.00 in0.0 mm 0.00 in/hr0.0 mm/hr 0.00 in0.0 mm
11:33 AM 31.2°F-0.4°C 31.0°F-0.6°C 99% 9.0 mph ENE14.5 kmh ENE 12.0 mph19.3 kmh 30.49 in1032.5 mb 0.00 in0.0 mm 0.00 in/hr0.0 mm/hr 0.00 in0.0 mm
11:35 AM 31.2°F-0.4°C 31.0°F-0.6°C 99% 8.0 mph NE12.9 kmh NE 12.0 mph19.3 kmh 30.49 in1032.5 mb 0.00 in0.0 mm 0.00 in/hr0.0 mm/hr 0.00 in0.0 mm
11:36 AM 31.2°F-0.4°C 31.0°F-0.6°C 99% 10.0 mph NE16.1 kmh NE 12.0 mph19.3 kmh 30.49 in1032.5 mb 0.00 in0.0 mm 0.00 in/hr0.0 mm/hr 0.00 in0.0 mm
11:38 AM 31.2°F-0.4°C 31.0°F-0.6°C 99% 7.0 mph E11.3 kmh E 12.0 mph19.3 kmh 30.49 in1032.5 mb 0.00 in0.0 mm 0.00 in/hr0.0 mm/hr 0.00 in0.0 mm
11:39 AM 31.1°F-0.5°C 30.9°F-0.6°C 99% 7.0 mph ENE11.3 kmh ENE 12.0 mph19.3 kmh 30.49 in1032.5 mb 0.00 in0.0 mm 0.00 in/hr0.0 mm/hr 0.00 in0.0 mm
11:40 AM 31.2°F-0.4°C 31.0°F-0.6°C 99% 7.0 mph ENE11.3 kmh ENE 12.0 mph19.3 kmh 30.49 in1032.5 mb 0.00 in0.0 mm 0.00 in/hr0.0 mm/hr 0.00 in0.0 mm
11:42 AM 31.2°F-0.4°C 31.0°F-0.6°C 99% 9.0 mph E14.5 kmh E 12.0 mph19.3 kmh 30.49 in1032.5 mb 0.00 in0.0 mm 0.00 in/hr0.0 mm/hr 0.00 in0.0 mm
11:44 AM 31.2°F-0.4°C 31.0°F-0.6°C 99% 10.0 mph ENE16.1 kmh ENE 12.0 mph19.3 kmh 30.49 in1032.5 mb 0.00 in0.0 mm 0.00 in/hr0.0 mm/hr 0.00 in0.0 mm
11:45 AM 31.2°F-0.4°C 31.0°F-0.6°C 99% 10.0 mph ENE16.1 kmh ENE 12.0 mph19.3 kmh 30.49 in1032.5 mb 0.00 in0.0 mm 0.00 in/hr0.0 mm/hr 0.00 in0.0 mm
11:47 AM 31.2°F-0.4°C 31.0°F-0.6°C 99% 8.0 mph ENE12.9 kmh ENE 12.0 mph19.3 kmh 30.49 in1032.5 mb 0.00 in0.0 mm 0.00 in/hr0.0 mm/hr 0.00 in0.0 mm
11:48 AM 31.2°F-0.4°C 31.0°F-0.6°C 99% 9.0 mph ENE14.5 kmh ENE 12.0 mph19.3 kmh 30.49 in1032.5 mb 0.00 in0.0 mm 0.00 in/hr0.0 mm/hr 0.00 in0.0 mm
11:49 AM 31.2°F-0.4°C 31.0°F-0.6°C 99% 8.0 mph ENE12.9 kmh ENE 12.0 mph19.3 kmh 30.49 in1032.5 mb 0.00 in0.0 mm 0.00 in/hr0.0 mm/hr 0.00 in0.0 mm
11:50 AM 31.1°F-0.5°C 30.9°F-0.6°C 99% 9.0 mph ENE14.5 kmh ENE 12.0 mph19.3 kmh 30.49 in1032.5 mb 0.00 in0.0 mm 0.00 in/hr0.0 mm/hr 0.00 in0.0 mm
11:52 AM 31.1°F-0.5°C 30.9°F-0.6°C 99% 10.0 mph NE16.1 kmh NE 12.0 mph19.3 kmh 30.49 in1032.5 mb 0.00 in0.0 mm 0.00 in/hr0.0 mm/hr 0.00 in0.0 mm
11:54 AM 31.1°F-0.5°C 30.9°F-0.6°C 99% 8.0 mph NE12.9 kmh NE 12.0 mph19.3 kmh 30.49 in1032.5 mb 0.00 in0.0 mm 0.00 in/hr0.0 mm/hr 0.00 in0.0 mm
11:55 AM 31.0°F-0.6°C 30.8°F-0.7°C 99% 7.0 mph NE11.3 kmh NE 12.0 mph19.3 kmh 30.49 in1032.5 mb 0.00 in0.0 mm 0.00 in/hr0.0 mm/hr 0.00 in0.0 mm
11:56 AM 31.1°F-0.5°C 30.9°F-0.6°C 99% 12.0 mph ENE19.3 kmh ENE 13.0 mph20.9 kmh 30.48 in1032.2 mb 0.00 in0.0 mm 0.00 in/hr0.0 mm/hr 0.00 in0.0 mm
11:57 AM 31.0°F-0.6°C 30.8°F-0.7°C 99% 11.0 mph ENE17.7 kmh ENE 13.0 mph20.9 kmh 30.49 in1032.5 mb 0.00 in0.0 mm 0.00 in/hr0.0 mm/hr 0.00 in0.0 mm
11:58 AM 31.0°F-0.6°C 30.8°F-0.7°C 99% 10.0 mph ENE16.1 kmh ENE 13.0 mph20.9 kmh 30.49 in1032.5 mb 0.00 in0.0 mm 0.00 in/hr0.0 mm/hr 0.00 in0.0 mm
11:59 AM 31.0°F-0.6°C 30.8°F-0.7°C 99% 9.0 mph NE14.5 kmh NE 13.0 mph20.9 kmh 30.49 in1032.5 mb 0.00 in0.0 mm 0.00 in/hr0.0 mm/hr 0.00 in0.0 mm
12:00 PM 31.0°F-0.6°C 30.8°F-0.7°C 99% 10.0 mph NE16.1 kmh NE 13.0 mph20.9 kmh 30.49 in1032.5 mb 0.00 in0.0 mm 0.00 in/hr0.0 mm/hr 0.00 in0.0 mm
12:02 PM 30.9°F-0.6°C 30.7°F-0.7°C 99% 9.0 mph ENE14.5 kmh ENE 10.0 mph16.1 kmh 30.49 in1032.5 mb 0.00 in0.0 mm 0.00 in/hr0.0 mm/hr 0.00 in0.0 mm
12:03 PM 31.0°F-0.6°C 30.8°F-0.7°C 99% 11.0 mph ENE17.7 kmh ENE 11.0 mph17.7 kmh 30.49 in1032.5 mb 0.00 in0.0 mm 0.00 in/hr0.0 mm/hr 0.00 in0.0 mm
12:04 PM 31.0°F-0.6°C 30.8°F-0.7°C 99% 9.0 mph ENE14.5 kmh ENE 12.0 mph19.3 kmh 30.48 in1032.2 mb 0.00 in0.0 mm 0.00 in/hr0.0 mm/hr 0.00 in0.0 mm
12:06 PM 31.0°F-0.6°C 30.8°F-0.7°C 99% 7.0 mph ENE11.3 kmh ENE 12.0 mph19.3 kmh 30.48 in1032.2 mb 0.00 in0.0 mm 0.00 in/hr0.0 mm/hr 0.00 in0.0 mm
12:07 PM 31.0°F-0.6°C 30.8°F-0.7°C 99% 8.0 mph ENE12.9 kmh ENE 12.0 mph19.3 kmh 30.48 in1032.2 mb 0.00 in0.0 mm 0.00 in/hr0.0 mm/hr 0.00 in0.0 mm
12:09 PM 31.0°F-0.6°C 30.8°F-0.7°C 99% 7.0 mph ENE11.3 kmh ENE 12.0 mph19.3 kmh 30.48 in1032.2 mb 0.00 in0.0 mm 0.00 in/hr0.0 mm/hr 0.00 in0.0 mm
12:10 PM 31.0°F-0.6°C 30.8°F-0.7°C 99% 9.0 mph ENE14.5 kmh ENE 12.0 mph19.3 kmh 30.48 in1032.2 mb 0.00 in0.0 mm 0.00 in/hr0.0 mm/hr 0.00 in0.0 mm
12:12 PM 31.1°F-0.5°C 30.9°F-0.6°C 99% 10.0 mph NE16.1 kmh NE 12.0 mph19.3 kmh 30.48 in1032.2 mb 0.00 in0.0 mm 0.00 in/hr0.0 mm/hr 0.00 in0.0 mm
12:13 PM 31.1°F-0.5°C 30.9°F-0.6°C 99% 8.0 mph ENE12.9 kmh ENE 12.0 mph19.3 kmh 30.48 in1032.2 mb 0.00 in0.0 mm 0.00 in/hr0.0 mm/hr 0.00 in0.0 mm
12:15 PM 31.1°F-0.5°C 30.9°F-0.6°C 99% 9.0 mph ENE14.5 kmh ENE 12.0 mph19.3 kmh 30.48 in1032.2 mb 0.00 in0.0 mm 0.00 in/hr0.0 mm/hr 0.00 in0.0 mm
12:16 PM 31.1°F-0.5°C 30.9°F-0.6°C 99% 11.0 mph NE17.7 kmh NE 12.0 mph19.3 kmh 30.47 in1031.8 mb 0.00 in0.0 mm 0.00 in/hr0.0 mm/hr 0.00 in0.0 mm
12:17 PM 31.1°F-0.5°C 30.9°F-0.6°C 99% 8.0 mph NE12.9 kmh NE 12.0 mph19.3 kmh 30.47 in1031.8 mb 0.00 in0.0 mm 0.00 in/hr0.0 mm/hr 0.00 in0.0 mm
12:19 PM 31.1°F-0.5°C 30.9°F-0.6°C 99% 8.0 mph ENE12.9 kmh ENE 12.0 mph19.3 kmh 30.47 in1031.8 mb 0.00 in0.0 mm 0.00 in/hr0.0 mm/hr 0.00 in0.0 mm
12:20 PM 31.1°F-0.5°C 30.9°F-0.6°C 99% 9.0 mph ENE14.5 kmh ENE 12.0 mph19.3 kmh 30.48 in1032.2 mb 0.00 in0.0 mm 0.00 in/hr0.0 mm/hr 0.00 in0.0 mm
12:21 PM 31.1°F-0.5°C 30.9°F-0.6°C 99% 9.0 mph E14.5 kmh E 12.0 mph19.3 kmh 30.48 in1032.2 mb 0.00 in0.0 mm 0.00 in/hr0.0 mm/hr 0.00 in0.0 mm
12:22 PM 31.2°F-0.4°C 31.0°F-0.6°C 99% 8.0 mph ENE12.9 kmh ENE 12.0 mph19.3 kmh 30.48 in1032.2 mb 0.00 in0.0 mm 0.00 in/hr0.0 mm/hr 0.00 in0.0 mm
12:24 PM 31.2°F-0.4°C 31.0°F-0.6°C 99% 10.0 mph ENE16.1 kmh ENE 12.0 mph19.3 kmh 30.48 in1032.2 mb 0.00 in0.0 mm 0.00 in/hr0.0 mm/hr 0.00 in0.0 mm
12:25 PM 31.2°F-0.4°C 31.0°F-0.6°C 99% 8.0 mph NE12.9 kmh NE 12.0 mph19.3 kmh 30.48 in1032.2 mb 0.00 in0.0 mm 0.00 in/hr0.0 mm/hr 0.00 in0.0 mm
12:26 PM 31.2°F-0.4°C 31.0°F-0.6°C 99% 10.0 mph ENE16.1 kmh ENE 12.0 mph19.3 kmh 30.48 in1032.2 mb 0.00 in0.0 mm 0.00 in/hr0.0 mm/hr 0.00 in0.0 mm
12:28 PM 31.2°F-0.4°C 31.0°F-0.6°C 99% 10.0 mph ENE16.1 kmh ENE 12.0 mph19.3 kmh 30.48 in1032.2 mb 0.00 in0.0 mm 0.00 in/hr0.0 mm/hr 0.00 in0.0 mm
12:29 PM 31.2°F-0.4°C 31.0°F-0.6°C 99% 8.0 mph ENE12.9 kmh ENE 12.0 mph19.3 kmh 30.48 in1032.2 mb 0.00 in0.0 mm 0.00 in/hr0.0 mm/hr 0.00 in0.0 mm
12:30 PM 31.2°F-0.4°C 31.0°F-0.6°C 99% 6.0 mph NE9.7 kmh NE 12.0 mph19.3 kmh 30.48 in1032.2 mb 0.00 in0.0 mm 0.00 in/hr0.0 mm/hr 0.00 in0.0 mm
12:32 PM 31.2°F-0.4°C 31.0°F-0.6°C 99% 6.0 mph NE9.7 kmh NE 10.0 mph16.1 kmh 30.48 in1032.2 mb 0.00 in0.0 mm 0.00 in/hr0.0 mm/hr 0.00 in0.0 mm
12:33 PM 31.2°F-0.4°C 31.0°F-0.6°C 99% 8.0 mph NE12.9 kmh NE 10.0 mph16.1 kmh 30.48 in1032.2 mb 0.00 in0.0 mm 0.00 in/hr0.0 mm/hr 0.00 in0.0 mm
12:34 PM 31.2°F-0.4°C 31.0°F-0.6°C 99% 11.0 mph NE17.7 kmh NE 12.0 mph19.3 kmh 30.48 in1032.2 mb 0.00 in0.0 mm 0.00 in/hr0.0 mm/hr 0.00 in0.0 mm
12:36 PM 31.2°F-0.4°C 31.0°F-0.6°C 99% 8.0 mph ENE12.9 kmh ENE 12.0 mph19.3 kmh 30.48 in1032.2 mb 0.00 in0.0 mm 0.00 in/hr0.0 mm/hr 0.00 in0.0 mm
12:37 PM 31.2°F-0.4°C 31.0°F-0.6°C 99% 7.0 mph ENE11.3 kmh ENE 12.0 mph19.3 kmh 30.48 in1032.2 mb 0.00 in0.0 mm 0.00 in/hr0.0 mm/hr 0.00 in0.0 mm
12:39 PM 31.2°F-0.4°C 31.0°F-0.6°C 99% 8.0 mph NE12.9 kmh NE 12.0 mph19.3 kmh 30.48 in1032.2 mb 0.00 in0.0 mm 0.00 in/hr0.0 mm/hr 0.00 in0.0 mm
12:40 PM 31.2°F-0.4°C 31.0°F-0.6°C 99% 8.0 mph ENE12.9 kmh ENE 12.0 mph19.3 kmh 30.47 in1031.8 mb 0.00 in0.0 mm 0.00 in/hr0.0 mm/hr 0.00 in0.0 mm
12:42 PM 31.2°F-0.4°C 31.0°F-0.6°C 99% 8.0 mph NE12.9 kmh NE 12.0 mph19.3 kmh 30.47 in1031.8 mb 0.00 in0.0 mm 0.00 in/hr0.0 mm/hr 0.00 in0.0 mm
12:43 PM 31.2°F-0.4°C 31.0°F-0.6°C 99% 8.0 mph NE12.9 kmh NE 12.0 mph19.3 kmh 30.47 in1031.8 mb 0.00 in0.0 mm 0.00 in/hr0.0 mm/hr 0.00 in0.0 mm
12:45 PM 31.3°F-0.4°C 31.1°F-0.5°C 99% 8.0 mph NE12.9 kmh NE 12.0 mph19.3 kmh 30.47 in1031.8 mb 0.00 in0.0 mm 0.00 in/hr0.0 mm/hr 0.00 in0.0 mm
12:46 PM 31.3°F-0.4°C 31.1°F-0.5°C 99% 5.0 mph ENE8.0 kmh ENE 12.0 mph19.3 kmh 30.47 in1031.8 mb 0.00 in0.0 mm 0.00 in/hr0.0 mm/hr 0.00 in0.0 mm
12:48 PM 31.3°F-0.4°C 31.1°F-0.5°C 99% 7.0 mph E11.3 kmh E 12.0 mph19.3 kmh 30.47 in1031.8 mb 0.00 in0.0 mm 0.00 in/hr0.0 mm/hr 0.00 in0.0 mm
12:49 PM 31.3°F-0.4°C 31.1°F-0.5°C 99% 7.0 mph E11.3 kmh E 12.0 mph19.3 kmh 30.47 in1031.8 mb 0.00 in0.0 mm 0.00 in/hr0.0 mm/hr 0.00 in0.0 mm
12:50 PM 31.3°F-0.4°C 31.1°F-0.5°C 99% 9.0 mph E14.5 kmh E 12.0 mph19.3 kmh 30.47 in1031.8 mb 0.00 in0.0 mm 0.00 in/hr0.0 mm/hr 0.00 in0.0 mm
12:51 PM 31.4°F-0.3°C 31.2°F-0.4°C 99% 9.0 mph E14.5 kmh E 12.0 mph19.3 kmh 30.47 in1031.8 mb 0.00 in0.0 mm 0.00 in/hr0.0 mm/hr 0.00 in0.0 mm
12:52 PM 31.4°F-0.3°C 31.2°F-0.4°C 99% 8.0 mph E12.9 kmh E 12.0 mph19.3 kmh 30.47 in1031.8 mb 0.00 in0.0 mm 0.00 in/hr0.0 mm/hr 0.00 in0.0 mm
12:53 PM 31.3°F-0.4°C 31.1°F-0.5°C 99% 9.0 mph E14.5 kmh E 12.0 mph19.3 kmh 30.47 in1031.8 mb 0.00 in0.0 mm 0.00 in/hr0.0 mm/hr 0.00 in0.0 mm
12:55 PM 31.3°F-0.4°C 31.1°F-0.5°C 99% 9.0 mph E14.5 kmh E 12.0 mph19.3 kmh 30.47 in1031.8 mb 0.00 in0.0 mm 0.00 in/hr0.0 mm/hr 0.00 in0.0 mm
12:57 PM 31.3°F-0.4°C 31.1°F-0.5°C 99% 7.0 mph NE11.3 kmh NE 12.0 mph19.3 kmh 30.47 in1031.8 mb 0.00 in0.0 mm 0.00 in/hr0.0 mm/hr 0.00 in0.0 mm
12:58 PM 31.3°F-0.4°C 31.1°F-0.5°C 99% 7.0 mph NE11.3 kmh NE 12.0 mph19.3 kmh 30.47 in1031.8 mb 0.00 in0.0 mm 0.00 in/hr0.0 mm/hr 0.00 in0.0 mm
01:00 PM 31.2°F-0.4°C 31.0°F-0.6°C 99% 8.0 mph ENE12.9 kmh ENE 12.0 mph19.3 kmh 30.47 in1031.8 mb 0.00 in0.0 mm 0.00 in/hr0.0 mm/hr 0.00 in0.0 mm
01:01 PM 31.2°F-0.4°C 31.0°F-0.6°C 99% 7.0 mph NE11.3 kmh NE 9.0 mph14.5 kmh 30.47 in1031.8 mb 0.00 in0.0 mm 0.00 in/hr0.0 mm/hr 0.00 in0.0 mm
01:03 PM 31.2°F-0.4°C 31.0°F-0.6°C 99% 7.0 mph ENE11.3 kmh ENE 9.0 mph14.5 kmh 30.48 in1032.2 mb 0.00 in0.0 mm 0.00 in/hr0.0 mm/hr 0.00 in0.0 mm
01:04 PM 31.2°F-0.4°C 31.0°F-0.6°C 99% 9.0 mph ENE14.5 kmh ENE 9.0 mph14.5 kmh 30.48 in1032.2 mb 0.00 in0.0 mm 0.00 in/hr0.0 mm/hr 0.00 in0.0 mm
01:06 PM 31.3°F-0.4°C 31.1°F-0.5°C 99% 10.0 mph NE16.1 kmh NE 10.0 mph16.1 kmh 30.47 in1031.8 mb 0.00 in0.0 mm 0.00 in/hr0.0 mm/hr 0.00 in0.0 mm
01:07 PM 31.2°F-0.4°C 31.0°F-0.6°C 99% 8.0 mph NE12.9 kmh NE 11.0 mph17.7 kmh 30.47 in1031.8 mb 0.00 in0.0 mm 0.00 in/hr0.0 mm/hr 0.00 in0.0 mm
01:09 PM 31.3°F-0.4°C 31.1°F-0.5°C 99% 8.0 mph ENE12.9 kmh ENE 11.0 mph17.7 kmh 30.47 in1031.8 mb 0.00 in0.0 mm 0.00 in/hr0.0 mm/hr 0.00 in0.0 mm
01:10 PM 31.2°F-0.4°C 31.0°F-0.6°C 99% 9.0 mph ENE14.5 kmh ENE 11.0 mph17.7 kmh 30.47 in1031.8 mb 0.00 in0.0 mm 0.00 in/hr0.0 mm/hr 0.00 in0.0 mm
01:11 PM 31.2°F-0.4°C 31.0°F-0.6°C 99% 7.0 mph ENE11.3 kmh ENE 11.0 mph17.7 kmh 30.47 in1031.8 mb 0.00 in0.0 mm 0.00 in/hr0.0 mm/hr 0.00 in0.0 mm
01:12 PM 31.3°F-0.4°C 31.1°F-0.5°C 99% 7.0 mph ENE11.3 kmh ENE 11.0 mph17.7 kmh 30.47 in1031.8 mb 0.00 in0.0 mm 0.00 in/hr0.0 mm/hr 0.00 in0.0 mm
01:14 PM 31.3°F-0.4°C 31.1°F-0.5°C 99% 6.0 mph NE9.7 kmh NE 11.0 mph17.7 kmh 30.47 in1031.8 mb 0.00 in0.0 mm 0.00 in/hr0.0 mm/hr 0.00 in0.0 mm
01:15 PM 31.3°F-0.4°C 31.1°F-0.5°C 99% 7.0 mph NE11.3 kmh NE 11.0 mph17.7 kmh 30.47 in1031.8 mb 0.00 in0.0 mm 0.00 in/hr0.0 mm/hr 0.00 in0.0 mm
01:16 PM 31.3°F-0.4°C 31.1°F-0.5°C 99% 9.0 mph NE14.5 kmh NE 11.0 mph17.7 kmh 30.47 in1031.8 mb 0.00 in0.0 mm 0.00 in/hr0.0 mm/hr 0.00 in0.0 mm
01:17 PM 31.3°F-0.4°C 31.1°F-0.5°C 99% 7.0 mph NE11.3 kmh NE 11.0 mph17.7 kmh 30.47 in1031.8 mb 0.00 in0.0 mm 0.00 in/hr0.0 mm/hr 0.00 in0.0 mm
01:18 PM 31.3°F-0.4°C 31.1°F-0.5°C 99% 8.0 mph ENE12.9 kmh ENE 11.0 mph17.7 kmh 30.47 in1031.8 mb 0.00 in0.0 mm 0.00 in/hr0.0 mm/hr 0.00 in0.0 mm
01:20 PM 31.3°F-0.4°C 31.1°F-0.5°C 99% 8.0 mph ENE12.9 kmh ENE 11.0 mph17.7 kmh 30.47 in1031.8 mb 0.00 in0.0 mm 0.00 in/hr0.0 mm/hr 0.00 in0.0 mm
01:22 PM 31.3°F-0.4°C 31.1°F-0.5°C 99% 9.0 mph NE14.5 kmh NE 11.0 mph17.7 kmh 30.47 in1031.8 mb 0.00 in0.0 mm 0.00 in/hr0.0 mm/hr 0.00 in0.0 mm
01:24 PM 31.3°F-0.4°C 31.1°F-0.5°C 99% 10.0 mph ENE16.1 kmh ENE 12.0 mph19.3 kmh 30.46 in1031.5 mb 0.00 in0.0 mm 0.00 in/hr0.0 mm/hr 0.00 in0.0 mm
01:25 PM 31.3°F-0.4°C 31.1°F-0.5°C 99% 8.0 mph ENE12.9 kmh ENE 12.0 mph19.3 kmh 30.46 in1031.5 mb 0.00 in0.0 mm 0.00 in/hr0.0 mm/hr 0.00 in0.0 mm
01:27 PM 31.2°F-0.4°C 31.0°F-0.6°C 99% 13.0 mph NE20.9 kmh NE 13.0 mph20.9 kmh 30.46 in1031.5 mb 0.00 in0.0 mm 0.00 in/hr0.0 mm/hr 0.00 in0.0 mm
01:28 PM 31.2°F-0.4°C 31.0°F-0.6°C 99% 10.0 mph NE16.1 kmh NE 13.0 mph20.9 kmh 30.46 in1031.5 mb 0.00 in0.0 mm 0.00 in/hr0.0 mm/hr 0.00 in0.0 mm
01:30 PM 31.2°F-0.4°C 31.0°F-0.6°C 99% 8.0 mph NE12.9 kmh NE 13.0 mph20.9 kmh 30.46 in1031.5 mb 0.00 in0.0 mm 0.00 in/hr0.0 mm/hr 0.00 in0.0 mm
01:31 PM 31.2°F-0.4°C 31.0°F-0.6°C 99% 8.0 mph NE12.9 kmh NE 10.0 mph16.1 kmh 30.45 in1031.2 mb 0.00 in0.0 mm 0.00 in/hr0.0 mm/hr 0.00 in0.0 mm
01:33 PM 31.3°F-0.4°C 31.1°F-0.5°C 99% 13.0 mph NE20.9 kmh NE 13.0 mph20.9 kmh 30.45 in1031.2 mb 0.00 in0.0 mm 0.00 in/hr0.0 mm/hr 0.00 in0.0 mm
01:34 PM 31.3°F-0.4°C 31.1°F-0.5°C 99% 9.0 mph NE14.5 kmh NE 13.0 mph20.9 kmh 30.45 in1031.2 mb 0.00 in0.0 mm 0.00 in/hr0.0 mm/hr 0.00 in0.0 mm
01:35 PM 31.3°F-0.4°C 31.1°F-0.5°C 99% 9.0 mph NE14.5 kmh NE 13.0 mph20.9 kmh 30.45 in1031.2 mb 0.00 in0.0 mm 0.00 in/hr0.0 mm/hr 0.00 in0.0 mm
01:37 PM 31.4°F-0.3°C 31.2°F-0.4°C 99% 9.0 mph NE14.5 kmh NE 13.0 mph20.9 kmh 30.45 in1031.2 mb 0.00 in0.0 mm 0.00 in/hr0.0 mm/hr 0.00 in0.0 mm
01:38 PM 31.4°F-0.3°C 31.2°F-0.4°C 99% 9.0 mph NE14.5 kmh NE 13.0 mph20.9 kmh 30.45 in1031.2 mb 0.00 in0.0 mm 0.00 in/hr0.0 mm/hr 0.00 in0.0 mm
01:39 PM 31.4°F-0.3°C 31.2°F-0.4°C 99% 9.0 mph NE14.5 kmh NE 13.0 mph20.9 kmh 30.45 in1031.2 mb 0.00 in0.0 mm 0.00 in/hr0.0 mm/hr 0.00 in0.0 mm
01:40 PM 31.4°F-0.3°C 31.2°F-0.4°C 99% 13.0 mph NE20.9 kmh NE 13.0 mph20.9 kmh 30.45 in1031.2 mb 0.00 in0.0 mm 0.00 in/hr0.0 mm/hr 0.00 in0.0 mm
01:42 PM 31.4°F-0.3°C 31.2°F-0.4°C 99% 8.0 mph NE12.9 kmh NE 13.0 mph20.9 kmh 30.45 in1031.2 mb 0.00 in0.0 mm 0.00 in/hr0.0 mm/hr 0.00 in0.0 mm
01:43 PM 31.4°F-0.3°C 31.2°F-0.4°C 99% 9.0 mph NE14.5 kmh NE 13.0 mph20.9 kmh 30.45 in1031.2 mb 0.00 in0.0 mm 0.00 in/hr0.0 mm/hr 0.00 in0.0 mm
01:45 PM 31.4°F-0.3°C 31.2°F-0.4°C 99% 12.0 mph NE19.3 kmh NE 14.0 mph22.5 kmh 30.45 in1031.2 mb 0.00 in0.0 mm 0.00 in/hr0.0 mm/hr 0.00 in0.0 mm
01:46 PM 31.3°F-0.4°C 31.1°F-0.5°C 99% 10.0 mph NE16.1 kmh NE 14.0 mph22.5 kmh 30.45 in1031.2 mb 0.00 in0.0 mm 0.00 in/hr0.0 mm/hr 0.00 in0.0 mm
01:47 PM 31.4°F-0.3°C 31.2°F-0.4°C 99% 12.0 mph NE19.3 kmh NE 14.0 mph22.5 kmh 30.45 in1031.2 mb 0.00 in0.0 mm 0.00 in/hr0.0 mm/hr 0.00 in0.0 mm
01:49 PM 31.4°F-0.3°C 31.2°F-0.4°C 99% 9.0 mph NE14.5 kmh NE 14.0 mph22.5 kmh 30.45 in1031.2 mb 0.00 in0.0 mm 0.00 in/hr0.0 mm/hr 0.00 in0.0 mm
01:50 PM 31.4°F-0.3°C 31.2°F-0.4°C 99% 8.0 mph NE12.9 kmh NE 14.0 mph22.5 kmh 30.46 in1031.5 mb 0.00 in0.0 mm 0.00 in/hr0.0 mm/hr 0.00 in0.0 mm
01:51 PM 31.4°F-0.3°C 31.2°F-0.4°C 99% 10.0 mph NE16.1 kmh NE 14.0 mph22.5 kmh 30.46 in1031.5 mb 0.00 in0.0 mm 0.00 in/hr0.0 mm/hr 0.00 in0.0 mm
01:53 PM 31.4°F-0.3°C 31.2°F-0.4°C 99% 9.0 mph NE14.5 kmh NE 14.0 mph22.5 kmh 30.46 in1031.5 mb 0.00 in0.0 mm 0.00 in/hr0.0 mm/hr 0.00 in0.0 mm
01:54 PM 31.4°F-0.3°C 31.2°F-0.4°C 99% 10.0 mph NE16.1 kmh NE 14.0 mph22.5 kmh 30.46 in1031.5 mb 0.00 in0.0 mm 0.00 in/hr0.0 mm/hr 0.00 in0.0 mm
01:55 PM 31.4°F-0.3°C 31.2°F-0.4°C 99% 9.0 mph NE14.5 kmh NE 14.0 mph22.5 kmh 30.46 in1031.5 mb 0.00 in0.0 mm 0.00 in/hr0.0 mm/hr 0.00 in0.0 mm
01:56 PM 31.4°F-0.3°C 31.2°F-0.4°C 99% 7.0 mph NE11.3 kmh NE 14.0 mph22.5 kmh 30.46 in1031.5 mb 0.00 in0.0 mm 0.00 in/hr0.0 mm/hr 0.00 in0.0 mm
01:57 PM 31.4°F-0.3°C 31.2°F-0.4°C 99% 10.0 mph NE16.1 kmh NE 14.0 mph22.5 kmh 30.46 in1031.5 mb 0.00 in0.0 mm 0.00 in/hr0.0 mm/hr 0.00 in0.0 mm
01:59 PM 31.4°F-0.3°C 31.2°F-0.4°C 99% 9.0 mph NE14.5 kmh NE 14.0 mph22.5 kmh 30.46 in1031.5 mb 0.00 in0.0 mm 0.00 in/hr0.0 mm/hr 0.00 in0.0 mm
02:00 PM 31.5°F-0.3°C 31.3°F-0.4°C 99% 9.0 mph NE14.5 kmh NE 14.0 mph22.5 kmh 30.45 in1031.2 mb 0.00 in0.0 mm 0.00 in/hr0.0 mm/hr 0.00 in0.0 mm
02:02 PM 31.5°F-0.3°C 31.3°F-0.4°C 99% 12.0 mph NE19.3 kmh NE 13.0 mph20.9 kmh 30.45 in1031.2 mb 0.00 in0.0 mm 0.00 in/hr0.0 mm/hr 0.00 in0.0 mm
02:03 PM 31.5°F-0.3°C 31.3°F-0.4°C 99% 9.0 mph NE14.5 kmh NE 13.0 mph20.9 kmh 30.45 in1031.2 mb 0.00 in0.0 mm 0.00 in/hr0.0 mm/hr 0.00 in0.0 mm
02:05 PM 31.5°F-0.3°C 31.3°F-0.4°C 99% 11.0 mph NE17.7 kmh NE 13.0 mph20.9 kmh 30.46 in1031.5 mb 0.00 in0.0 mm 0.00 in/hr0.0 mm/hr 0.00 in0.0 mm
02:07 PM 31.5°F-0.3°C 31.3°F-0.4°C 99% 9.0 mph NE14.5 kmh NE 13.0 mph20.9 kmh 30.46 in1031.5 mb 0.00 in0.0 mm 0.00 in/hr0.0 mm/hr 0.00 in0.0 mm
02:08 PM 31.5°F-0.3°C 31.3°F-0.4°C 99% 11.0 mph NE17.7 kmh NE 13.0 mph20.9 kmh 30.46 in1031.5 mb 0.00 in0.0 mm 0.00 in/hr0.0 mm/hr 0.00 in0.0 mm
02:09 PM 31.5°F-0.3°C 31.3°F-0.4°C 99% 9.0 mph NE14.5 kmh NE 13.0 mph20.9 kmh 30.47 in1031.8 mb 0.00 in0.0 mm 0.00 in/hr0.0 mm/hr 0.00 in0.0 mm
02:10 PM 31.5°F-0.3°C 31.3°F-0.4°C 99% 10.0 mph NE16.1 kmh NE 13.0 mph20.9 kmh 30.47 in1031.8 mb 0.00 in0.0 mm 0.00 in/hr0.0 mm/hr 0.00 in0.0 mm
02:11 PM 31.5°F-0.3°C 31.3°F-0.4°C 99% 9.0 mph NE14.5 kmh NE 13.0 mph20.9 kmh 30.47 in1031.8 mb 0.00 in0.0 mm 0.00 in/hr0.0 mm/hr 0.00 in0.0 mm
02:13 PM 31.5°F-0.3°C 31.3°F-0.4°C 99% 8.0 mph NE12.9 kmh NE 13.0 mph20.9 kmh 30.47 in1031.8 mb 0.00 in0.0 mm 0.00 in/hr0.0 mm/hr 0.00 in0.0 mm
02:14 PM 31.5°F-0.3°C 31.3°F-0.4°C 99% 9.0 mph NE14.5 kmh NE 13.0 mph20.9 kmh 30.47 in1031.8 mb 0.00 in0.0 mm 0.00 in/hr0.0 mm/hr 0.00 in0.0 mm
02:16 PM 31.6°F-0.2°C 31.4°F-0.3°C 99% 9.0 mph NE14.5 kmh NE 13.0 mph20.9 kmh 30.47 in1031.8 mb 0.00 in0.0 mm 0.00 in/hr0.0 mm/hr 0.00 in0.0 mm
02:17 PM 31.6°F-0.2°C 31.4°F-0.3°C 99% 7.0 mph NE11.3 kmh NE 13.0 mph20.9 kmh 30.47 in1031.8 mb 0.00 in0.0 mm 0.00 in/hr0.0 mm/hr 0.00 in0.0 mm
02:19 PM 31.6°F-0.2°C 31.4°F-0.3°C 99% 7.0 mph NE11.3 kmh NE 13.0 mph20.9 kmh 30.47 in1031.8 mb 0.00 in0.0 mm 0.00 in/hr0.0 mm/hr 0.00 in0.0 mm
02:20 PM 31.6°F-0.2°C 31.4°F-0.3°C 99% 10.0 mph ENE16.1 kmh ENE 13.0 mph20.9 kmh 30.47 in1031.8 mb 0.00 in0.0 mm 0.00 in/hr0.0 mm/hr 0.00 in0.0 mm
02:21 PM 31.6°F-0.2°C 31.4°F-0.3°C 99% 8.0 mph NE12.9 kmh NE 13.0 mph20.9 kmh 30.47 in1031.8 mb 0.00 in0.0 mm 0.00 in/hr0.0 mm/hr 0.00 in0.0 mm
02:22 PM 31.7°F-0.2°C 31.5°F-0.3°C 99% 8.0 mph NE12.9 kmh NE 13.0 mph20.9 kmh 30.47 in1031.8 mb 0.00 in0.0 mm 0.00 in/hr0.0 mm/hr 0.00 in0.0 mm
02:24 PM 31.7°F-0.2°C 31.5°F-0.3°C 99% 9.0 mph NE14.5 kmh NE 13.0 mph20.9 kmh 30.47 in1031.8 mb 0.00 in0.0 mm 0.00 in/hr0.0 mm/hr 0.00 in0.0 mm
02:25 PM 31.7°F-0.2°C 31.5°F-0.3°C 99% 7.0 mph NE11.3 kmh NE 13.0 mph20.9 kmh 30.47 in1031.8 mb 0.00 in0.0 mm 0.00 in/hr0.0 mm/hr 0.00 in0.0 mm
02:26 PM 31.7°F-0.2°C 31.5°F-0.3°C 99% 5.0 mph NE8.0 kmh NE 13.0 mph20.9 kmh 30.47 in1031.8 mb 0.00 in0.0 mm 0.00 in/hr0.0 mm/hr 0.00 in0.0 mm
02:28 PM 31.7°F-0.2°C 31.5°F-0.3°C 99% 11.0 mph NE17.7 kmh NE 13.0 mph20.9 kmh 30.47 in1031.8 mb 0.00 in0.0 mm 0.00 in/hr0.0 mm/hr 0.00 in0.0 mm
02:29 PM 31.6°F-0.2°C 31.4°F-0.3°C 99% 8.0 mph NE12.9 kmh NE 13.0 mph20.9 kmh 30.47 in1031.8 mb 0.00 in0.0 mm 0.00 in/hr0.0 mm/hr 0.00 in0.0 mm
02:30 PM 31.6°F-0.2°C 31.4°F-0.3°C 99% 8.0 mph NNE12.9 kmh NNE 13.0 mph20.9 kmh 30.47 in1031.8 mb 0.00 in0.0 mm 0.00 in/hr0.0 mm/hr 0.00 in0.0 mm
02:31 PM 31.6°F-0.2°C 31.4°F-0.3°C 99% 7.0 mph NNE11.3 kmh NNE 10.0 mph16.1 kmh 30.47 in1031.8 mb 0.00 in0.0 mm 0.00 in/hr0.0 mm/hr 0.00 in0.0 mm
02:32 PM 31.6°F-0.2°C 31.4°F-0.3°C 99% 9.0 mph NE14.5 kmh NE 12.0 mph19.3 kmh 30.46 in1031.5 mb 0.00 in0.0 mm 0.00 in/hr0.0 mm/hr 0.00 in0.0 mm
02:33 PM 31.6°F-0.2°C 31.4°F-0.3°C 99% 10.0 mph NE16.1 kmh NE 12.0 mph19.3 kmh 30.46 in1031.5 mb 0.00 in0.0 mm 0.00 in/hr0.0 mm/hr 0.00 in0.0 mm
02:35 PM 31.6°F-0.2°C 31.4°F-0.3°C 99% 7.0 mph NE11.3 kmh NE 13.0 mph20.9 kmh 30.46 in1031.5 mb 0.00 in0.0 mm 0.00 in/hr0.0 mm/hr 0.00 in0.0 mm
02:36 PM 31.5°F-0.3°C 31.3°F-0.4°C 99% 10.0 mph NE16.1 kmh NE 13.0 mph20.9 kmh 30.46 in1031.5 mb 0.00 in0.0 mm 0.00 in/hr0.0 mm/hr 0.00 in0.0 mm
02:38 PM 31.5°F-0.3°C 31.3°F-0.4°C 99% 8.0 mph NE12.9 kmh NE 13.0 mph20.9 kmh 30.46 in1031.5 mb 0.00 in0.0 mm 0.00 in/hr0.0 mm/hr 0.00 in0.0 mm
02:40 PM 31.6°F-0.2°C 31.4°F-0.3°C 99% 9.0 mph NE14.5 kmh NE 13.0 mph20.9 kmh 30.46 in1031.5 mb 0.00 in0.0 mm 0.00 in/hr0.0 mm/hr 0.00 in0.0 mm
02:41 PM 31.6°F-0.2°C 31.4°F-0.3°C 99% 10.0 mph NE16.1 kmh NE 13.0 mph20.9 kmh 30.46 in1031.5 mb 0.00 in0.0 mm 0.00 in/hr0.0 mm/hr 0.00 in0.0 mm
02:43 PM 31.6°F-0.2°C 31.4°F-0.3°C 99% 7.0 mph NE11.3 kmh NE 13.0 mph20.9 kmh 30.46 in1031.5 mb 0.00 in0.0 mm 0.00 in/hr0.0 mm/hr 0.00 in0.0 mm
02:44 PM 31.6°F-0.2°C 31.4°F-0.3°C 99% 10.0 mph NE16.1 kmh NE 13.0 mph20.9 kmh 30.46 in1031.5 mb 0.00 in0.0 mm 0.00 in/hr0.0 mm/hr 0.00 in0.0 mm
02:45 PM 31.6°F-0.2°C 31.4°F-0.3°C 99% 11.0 mph NE17.7 kmh NE 13.0 mph20.9 kmh 30.46 in1031.5 mb 0.00 in0.0 mm 0.00 in/hr0.0 mm/hr 0.00 in0.0 mm
02:46 PM 31.6°F-0.2°C 31.4°F-0.3°C 99% 12.0 mph NE19.3 kmh NE 13.0 mph20.9 kmh 30.46 in1031.5 mb 0.00 in0.0 mm 0.00 in/hr0.0 mm/hr 0.00 in0.0 mm
02:47 PM 31.6°F-0.2°C 31.4°F-0.3°C 99% 8.0 mph NE12.9 kmh NE 13.0 mph20.9 kmh 30.46 in1031.5 mb 0.00 in0.0 mm 0.00 in/hr0.0 mm/hr 0.00 in0.0 mm
02:48 PM 31.6°F-0.2°C 31.4°F-0.3°C 99% 9.0 mph ENE14.5 kmh ENE 13.0 mph20.9 kmh 30.46 in1031.5 mb 0.00 in0.0 mm 0.00 in/hr0.0 mm/hr 0.00 in0.0 mm
02:49 PM 31.6°F-0.2°C 31.4°F-0.3°C 99% 9.0 mph ENE14.5 kmh ENE 13.0 mph20.9 kmh 30.46 in1031.5 mb 0.00 in0.0 mm 0.00 in/hr0.0 mm/hr 0.00 in0.0 mm
02:50 PM 31.6°F-0.2°C 31.4°F-0.3°C 99% 7.0 mph ENE11.3 kmh ENE 13.0 mph20.9 kmh 30.46 in1031.5 mb 0.00 in0.0 mm 0.00 in/hr0.0 mm/hr 0.00 in0.0 mm
02:51 PM 31.6°F-0.2°C 31.4°F-0.3°C 99% 10.0 mph ENE16.1 kmh ENE 13.0 mph20.9 kmh 30.46 in1031.5 mb 0.00 in0.0 mm 0.00 in/hr0.0 mm/hr 0.00 in0.0 mm
02:52 PM 31.6°F-0.2°C 31.4°F-0.3°C 99% 9.0 mph ENE14.5 kmh ENE 13.0 mph20.9 kmh 30.46 in1031.5 mb 0.00 in0.0 mm 0.00 in/hr0.0 mm/hr 0.00 in0.0 mm
02:54 PM 31.7°F-0.2°C 31.5°F-0.3°C 99% 10.0 mph ENE16.1 kmh ENE 13.0 mph20.9 kmh 30.46 in1031.5 mb 0.00 in0.0 mm 0.00 in/hr0.0 mm/hr 0.00 in0.0 mm
02:55 PM 31.7°F-0.2°C 31.5°F-0.3°C 99% 10.0 mph NE16.1 kmh NE 13.0 mph20.9 kmh 30.46 in1031.5 mb 0.00 in0.0 mm 0.00 in/hr0.0 mm/hr 0.00 in0.0 mm
02:56 PM 31.7°F-0.2°C 31.5°F-0.3°C 99% 12.0 mph NE19.3 kmh NE 13.0 mph20.9 kmh 30.46 in1031.5 mb 0.00 in0.0 mm 0.00 in/hr0.0 mm/hr 0.00 in0.0 mm
02:58 PM 31.7°F-0.2°C 31.5°F-0.3°C 99% 10.0 mph NE16.1 kmh NE 13.0 mph20.9 kmh 30.46 in1031.5 mb 0.00 in0.0 mm 0.00 in/hr0.0 mm/hr 0.00 in0.0 mm
02:59 PM 31.7°F-0.2°C 31.5°F-0.3°C 99% 9.0 mph NE14.5 kmh NE 14.0 mph22.5 kmh 30.46 in1031.5 mb 0.00 in0.0 mm 0.00 in/hr0.0 mm/hr 0.00 in0.0 mm
03:00 PM 31.7°F-0.2°C 31.5°F-0.3°C 99% 8.0 mph NE12.9 kmh NE 14.0 mph22.5 kmh 30.46 in1031.5 mb 0.00 in0.0 mm 0.00 in/hr0.0 mm/hr 0.00 in0.0 mm
03:01 PM 31.7°F-0.2°C 31.5°F-0.3°C 99% 8.0 mph NE12.9 kmh NE 12.0 mph19.3 kmh 30.46 in1031.5 mb 0.00 in0.0 mm 0.00 in/hr0.0 mm/hr 0.00 in0.0 mm
03:03 PM 31.6°F-0.2°C 31.4°F-0.3°C 99% 10.0 mph NE16.1 kmh NE 12.0 mph19.3 kmh 30.46 in1031.5 mb 0.00 in0.0 mm 0.00 in/hr0.0 mm/hr 0.00 in0.0 mm
03:04 PM 31.6°F-0.2°C 31.4°F-0.3°C 99% 9.0 mph NE14.5 kmh NE 12.0 mph19.3 kmh 30.46 in1031.5 mb 0.00 in0.0 mm 0.00 in/hr0.0 mm/hr 0.00 in0.0 mm
03:05 PM 31.7°F-0.2°C 31.5°F-0.3°C 99% 11.0 mph NE17.7 kmh NE 12.0 mph19.3 kmh 30.45 in1031.2 mb 0.00 in0.0 mm 0.00 in/hr0.0 mm/hr 0.00 in0.0 mm
03:07 PM 31.7°F-0.2°C 31.5°F-0.3°C 99% 10.0 mph ENE16.1 kmh ENE 12.0 mph19.3 kmh 30.45 in1031.2 mb 0.00 in0.0 mm 0.00 in/hr0.0 mm/hr 0.00 in0.0 mm
03:09 PM 31.6°F-0.2°C 31.4°F-0.3°C 99% 10.0 mph NE16.1 kmh NE 12.0 mph19.3 kmh 30.45 in1031.2 mb 0.00 in0.0 mm 0.00 in/hr0.0 mm/hr 0.00 in0.0 mm
03:10 PM 31.7°F-0.2°C 31.5°F-0.3°C 99% 12.0 mph ENE19.3 kmh ENE 13.0 mph20.9 kmh 30.45 in1031.2 mb 0.00 in0.0 mm 0.00 in/hr0.0 mm/hr 0.00 in0.0 mm
03:11 PM 31.7°F-0.2°C 31.5°F-0.3°C 99% 7.0 mph ENE11.3 kmh ENE 13.0 mph20.9 kmh 30.46 in1031.5 mb 0.00 in0.0 mm 0.00 in/hr0.0 mm/hr 0.00 in0.0 mm
03:13 PM 31.7°F-0.2°C 31.5°F-0.3°C 99% 10.0 mph ENE16.1 kmh ENE 13.0 mph20.9 kmh 30.46 in1031.5 mb 0.00 in0.0 mm 0.00 in/hr0.0 mm/hr 0.00 in0.0 mm
03:14 PM 31.7°F-0.2°C 31.5°F-0.3°C 99% 9.0 mph ENE14.5 kmh ENE 13.0 mph20.9 kmh 30.46 in1031.5 mb 0.00 in0.0 mm 0.00 in/hr0.0 mm/hr 0.00 in0.0 mm
03:15 PM 31.7°F-0.2°C 31.5°F-0.3°C 99% 10.0 mph ENE16.1 kmh ENE 13.0 mph20.9 kmh 30.46 in1031.5 mb 0.00 in0.0 mm 0.00 in/hr0.0 mm/hr 0.00 in0.0 mm
03:17 PM 31.7°F-0.2°C 31.5°F-0.3°C 99% 7.0 mph E11.3 kmh E 13.0 mph20.9 kmh 30.46 in1031.5 mb 0.00 in0.0 mm 0.00 in/hr0.0 mm/hr 0.00 in0.0 mm
03:18 PM 31.7°F-0.2°C 31.5°F-0.3°C 99% 10.0 mph ENE16.1 kmh ENE 13.0 mph20.9 kmh 30.46 in1031.5 mb 0.00 in0.0 mm 0.00 in/hr0.0 mm/hr 0.00 in0.0 mm
03:20 PM 31.7°F-0.2°C 31.5°F-0.3°C 99% 9.0 mph E14.5 kmh E 13.0 mph20.9 kmh 30.46 in1031.5 mb 0.00 in0.0 mm 0.00 in/hr0.0 mm/hr 0.00 in0.0 mm
03:21 PM 31.7°F-0.2°C 31.5°F-0.3°C 99% 7.0 mph ENE11.3 kmh ENE 13.0 mph20.9 kmh 30.46 in1031.5 mb 0.00 in0.0 mm 0.00 in/hr0.0 mm/hr 0.00 in0.0 mm
03:23 PM 31.7°F-0.2°C 31.5°F-0.3°C 99% 7.0 mph ENE11.3 kmh ENE 13.0 mph20.9 kmh 30.46 in1031.5 mb 0.00 in0.0 mm 0.00 in/hr0.0 mm/hr 0.00 in0.0 mm
03:25 PM 31.7°F-0.2°C 31.5°F-0.3°C 99% 8.0 mph NE12.9 kmh NE 13.0 mph20.9 kmh 30.46 in1031.5 mb 0.00 in0.0 mm 0.00 in/hr0.0 mm/hr 0.00 in0.0 mm
03:26 PM 31.7°F-0.2°C 31.5°F-0.3°C 99% 11.0 mph ENE17.7 kmh ENE 13.0 mph20.9 kmh 30.47 in1031.8 mb 0.00 in0.0 mm 0.00 in/hr0.0 mm/hr 0.00 in0.0 mm
03:28 PM 31.8°F-0.1°C 31.6°F-0.2°C 99% 7.0 mph ENE11.3 kmh ENE 13.0 mph20.9 kmh 30.47 in1031.8 mb 0.00 in0.0 mm 0.00 in/hr0.0 mm/hr 0.00 in0.0 mm
03:29 PM 31.7°F-0.2°C 31.5°F-0.3°C 99% 6.0 mph E9.7 kmh E 13.0 mph20.9 kmh 30.47 in1031.8 mb 0.00 in0.0 mm 0.00 in/hr0.0 mm/hr 0.00 in0.0 mm
03:30 PM 31.8°F-0.1°C 31.6°F-0.2°C 99% 9.0 mph NE14.5 kmh NE 13.0 mph20.9 kmh 30.47 in1031.8 mb 0.00 in0.0 mm 0.00 in/hr0.0 mm/hr 0.00 in0.0 mm
03:31 PM 31.8°F-0.1°C 31.6°F-0.2°C 99% 8.0 mph ENE12.9 kmh ENE 9.0 mph14.5 kmh 30.47 in1031.8 mb 0.00 in0.0 mm 0.00 in/hr0.0 mm/hr 0.00 in0.0 mm
03:33 PM 31.8°F-0.1°C 31.6°F-0.2°C 99% 7.0 mph ENE11.3 kmh ENE 9.0 mph14.5 kmh 30.47 in1031.8 mb 0.00 in0.0 mm 0.00 in/hr0.0 mm/hr 0.00 in0.0 mm
03:35 PM 31.8°F-0.1°C 31.6°F-0.2°C 99% 9.0 mph ENE14.5 kmh ENE 11.0 mph17.7 kmh 30.47 in1031.8 mb 0.00 in0.0 mm 0.00 in/hr0.0 mm/hr 0.00 in0.0 mm
03:36 PM 31.8°F-0.1°C 31.6°F-0.2°C 99% 9.0 mph NE14.5 kmh NE 11.0 mph17.7 kmh 30.47 in1031.8 mb 0.00 in0.0 mm 0.00 in/hr0.0 mm/hr 0.00 in0.0 mm
03:38 PM 31.8°F-0.1°C 31.6°F-0.2°C 99% 5.0 mph ENE8.0 kmh ENE 11.0 mph17.7 kmh 30.47 in1031.8 mb 0.00 in0.0 mm 0.00 in/hr0.0 mm/hr 0.00 in0.0 mm
03:40 PM 31.8°F-0.1°C 31.6°F-0.2°C 99% 9.0 mph NE14.5 kmh NE 11.0 mph17.7 kmh 30.47 in1031.8 mb 0.00 in0.0 mm 0.00 in/hr0.0 mm/hr 0.00 in0.0 mm
03:41 PM 31.8°F-0.1°C 31.6°F-0.2°C 99% 10.0 mph NE16.1 kmh NE 11.0 mph17.7 kmh 30.47 in1031.8 mb 0.00 in0.0 mm 0.00 in/hr0.0 mm/hr 0.00 in0.0 mm
03:42 PM 31.7°F-0.2°C 31.5°F-0.3°C 99% 7.0 mph NE11.3 kmh NE 11.0 mph17.7 kmh 30.47 in1031.8 mb 0.00 in0.0 mm 0.00 in/hr0.0 mm/hr 0.00 in0.0 mm
03:43 PM 31.7°F-0.2°C 31.5°F-0.3°C 99% 8.0 mph NE12.9 kmh NE 11.0 mph17.7 kmh 30.47 in1031.8 mb 0.00 in0.0 mm 0.00 in/hr0.0 mm/hr 0.00 in0.0 mm
03:44 PM 31.7°F-0.2°C 31.5°F-0.3°C 99% 9.0 mph NE14.5 kmh NE 11.0 mph17.7 kmh 30.47 in1031.8 mb 0.00 in0.0 mm 0.00 in/hr0.0 mm/hr 0.00 in0.0 mm
03:45 PM 31.7°F-0.2°C 31.5°F-0.3°C 99% 8.0 mph NE12.9 kmh NE 11.0 mph17.7 kmh 30.47 in1031.8 mb 0.00 in0.0 mm 0.00 in/hr0.0 mm/hr 0.00 in0.0 mm
03:47 PM 31.8°F-0.1°C 31.6°F-0.2°C 99% 9.0 mph NE14.5 kmh NE 11.0 mph17.7 kmh 30.47 in1031.8 mb 0.00 in0.0 mm 0.00 in/hr0.0 mm/hr 0.00 in0.0 mm
03:49 PM 31.8°F-0.1°C 31.6°F-0.2°C 99% 10.0 mph NE16.1 kmh NE 11.0 mph17.7 kmh 30.47 in1031.8 mb 0.00 in0.0 mm 0.00 in/hr0.0 mm/hr 0.00 in0.0 mm
03:50 PM 31.8°F-0.1°C 31.6°F-0.2°C 99% 10.0 mph NE16.1 kmh NE 11.0 mph17.7 kmh 30.47 in1031.8 mb 0.00 in0.0 mm 0.00 in/hr0.0 mm/hr 0.00 in0.0 mm
03:51 PM 31.8°F-0.1°C 31.6°F-0.2°C 99% 10.0 mph NE16.1 kmh NE 11.0 mph17.7 kmh 30.47 in1031.8 mb 0.00 in0.0 mm 0.00 in/hr0.0 mm/hr 0.00 in0.0 mm
03:52 PM 31.8°F-0.1°C 31.6°F-0.2°C 99% 10.0 mph NE16.1 kmh NE 11.0 mph17.7 kmh 30.47 in1031.8 mb 0.00 in0.0 mm 0.00 in/hr0.0 mm/hr 0.00 in0.0 mm
03:54 PM 31.7°F-0.2°C 31.5°F-0.3°C 99% 6.0 mph NNE9.7 kmh NNE 11.0 mph17.7 kmh 30.48 in1032.2 mb 0.00 in0.0 mm 0.00 in/hr0.0 mm/hr 0.00 in0.0 mm
03:56 PM 31.7°F-0.2°C 31.5°F-0.3°C 99% 7.0 mph NE11.3 kmh NE 11.0 mph17.7 kmh 30.48 in1032.2 mb 0.00 in0.0 mm 0.00 in/hr0.0 mm/hr 0.00 in0.0 mm
03:57 PM 31.7°F-0.2°C 31.5°F-0.3°C 99% 9.0 mph NE14.5 kmh NE 11.0 mph17.7 kmh 30.48 in1032.2 mb 0.00 in0.0 mm 0.00 in/hr0.0 mm/hr 0.00 in0.0 mm
03:59 PM 31.7°F-0.2°C 31.5°F-0.3°C 99% 8.0 mph NE12.9 kmh NE 11.0 mph17.7 kmh 30.48 in1032.2 mb 0.00 in0.0 mm 0.00 in/hr0.0 mm/hr 0.00 in0.0 mm
04:00 PM 31.7°F-0.2°C 31.5°F-0.3°C 99% 9.0 mph NE14.5 kmh NE 10.0 mph16.1 kmh 30.47 in1031.8 mb 0.00 in0.0 mm 0.00 in/hr0.0 mm/hr 0.00 in0.0 mm
04:01 PM 31.7°F-0.2°C 31.5°F-0.3°C 99% 9.0 mph NE14.5 kmh NE 10.0 mph16.1 kmh 30.47 in1031.8 mb 0.00 in0.0 mm 0.00 in/hr0.0 mm/hr 0.00 in0.0 mm
04:03 PM 31.7°F-0.2°C 31.5°F-0.3°C 99% 8.0 mph NNE12.9 kmh NNE 11.0 mph17.7 kmh 30.47 in1031.8 mb 0.00 in0.0 mm 0.00 in/hr0.0 mm/hr 0.00 in0.0 mm
04:04 PM 31.7°F-0.2°C 31.5°F-0.3°C 99% 9.0 mph NE14.5 kmh NE 11.0 mph17.7 kmh 30.47 in1031.8 mb 0.00 in0.0 mm 0.00 in/hr0.0 mm/hr 0.00 in0.0 mm
04:06 PM 31.7°F-0.2°C 31.5°F-0.3°C 99% 9.0 mph NE14.5 kmh NE 11.0 mph17.7 kmh 30.47 in1031.8 mb 0.00 in0.0 mm 0.00 in/hr0.0 mm/hr 0.00 in0.0 mm
04:07 PM 31.7°F-0.2°C 31.5°F-0.3°C 99% 10.0 mph NE16.1 kmh NE 11.0 mph17.7 kmh 30.48 in1032.2 mb 0.00 in0.0 mm 0.00 in/hr0.0 mm/hr 0.00 in0.0 mm
04:08 PM 31.7°F-0.2°C 31.5°F-0.3°C 99% 12.0 mph NE19.3 kmh NE 12.0 mph19.3 kmh 30.48 in1032.2 mb 0.00 in0.0 mm 0.00 in/hr0.0 mm/hr 0.00 in0.0 mm
04:10 PM 31.8°F-0.1°C 31.6°F-0.2°C 99% 7.0 mph NE11.3 kmh NE 12.0 mph19.3 kmh 30.48 in1032.2 mb 0.00 in0.0 mm 0.00 in/hr0.0 mm/hr 0.00 in0.0 mm
04:11 PM 31.8°F-0.1°C 31.6°F-0.2°C 99% 8.0 mph NE12.9 kmh NE 12.0 mph19.3 kmh 30.47 in1031.8 mb 0.00 in0.0 mm 0.00 in/hr0.0 mm/hr 0.00 in0.0 mm
04:12 PM 31.8°F-0.1°C 31.6°F-0.2°C 99% 8.0 mph NE12.9 kmh NE 12.0 mph19.3 kmh 30.47 in1031.8 mb 0.00 in0.0 mm 0.00 in/hr0.0 mm/hr 0.00 in0.0 mm
04:13 PM 31.8°F-0.1°C 31.6°F-0.2°C 99% 11.0 mph NE17.7 kmh NE 12.0 mph19.3 kmh 30.47 in1031.8 mb 0.00 in0.0 mm 0.00 in/hr0.0 mm/hr 0.00 in0.0 mm
04:15 PM 31.8°F-0.1°C 31.6°F-0.2°C 99% 11.0 mph NE17.7 kmh NE 12.0 mph19.3 kmh 30.47 in1031.8 mb 0.00 in0.0 mm 0.00 in/hr0.0 mm/hr 0.00 in0.0 mm
04:16 PM 31.8°F-0.1°C 31.6°F-0.2°C 99% 7.0 mph NE11.3 kmh NE 12.0 mph19.3 kmh 30.47 in1031.8 mb 0.00 in0.0 mm 0.00 in/hr0.0 mm/hr 0.00 in0.0 mm
04:17 PM 31.8°F-0.1°C 31.6°F-0.2°C 99% 7.0 mph NE11.3 kmh NE 12.0 mph19.3 kmh 30.47 in1031.8 mb 0.00 in0.0 mm 0.00 in/hr0.0 mm/hr 0.00 in0.0 mm
04:19 PM 31.8°F-0.1°C 31.6°F-0.2°C 99% 8.0 mph NE12.9 kmh NE 12.0 mph19.3 kmh 30.47 in1031.8 mb 0.00 in0.0 mm 0.00 in/hr0.0 mm/hr 0.00 in0.0 mm
04:20 PM 31.7°F-0.2°C 31.5°F-0.3°C 99% 11.0 mph NE17.7 kmh NE 12.0 mph19.3 kmh 30.47 in1031.8 mb 0.00 in0.0 mm 0.00 in/hr0.0 mm/hr 0.00 in0.0 mm
04:22 PM 31.7°F-0.2°C 31.5°F-0.3°C 99% 7.0 mph NE11.3 kmh NE 12.0 mph19.3 kmh 30.47 in1031.8 mb 0.00 in0.0 mm 0.00 in/hr0.0 mm/hr 0.00 in0.0 mm
04:23 PM 31.7°F-0.2°C 31.5°F-0.3°C 99% 7.0 mph NE11.3 kmh NE 12.0 mph19.3 kmh 30.47 in1031.8 mb 0.00 in0.0 mm 0.00 in/hr0.0 mm/hr 0.00 in0.0 mm
04:25 PM 31.7°F-0.2°C 31.5°F-0.3°C 99% 7.0 mph NE11.3 kmh NE 12.0 mph19.3 kmh 30.48 in1032.2 mb 0.00 in0.0 mm 0.00 in/hr0.0 mm/hr 0.00 in0.0 mm
04:26 PM 31.7°F-0.2°C 31.5°F-0.3°C 99% 7.0 mph NE11.3 kmh NE 12.0 mph19.3 kmh 30.47 in1031.8 mb 0.00 in0.0 mm 0.00 in/hr0.0 mm/hr 0.00 in0.0 mm
04:28 PM 31.7°F-0.2°C 31.5°F-0.3°C 99% 7.0 mph NE11.3 kmh NE 12.0 mph19.3 kmh 30.47 in1031.8 mb 0.00 in0.0 mm 0.00 in/hr0.0 mm/hr 0.00 in0.0 mm
04:30 PM 31.7°F-0.2°C 31.5°F-0.3°C 99% 9.0 mph NE14.5 kmh NE 12.0 mph19.3 kmh 30.47 in1031.8 mb 0.00 in0.0 mm 0.00 in/hr0.0 mm/hr 0.00 in0.0 mm
04:32 PM 31.7°F-0.2°C 31.5°F-0.3°C 99% 6.0 mph NE9.7 kmh NE 10.0 mph16.1 kmh 30.47 in1031.8 mb 0.00 in0.0 mm 0.00 in/hr0.0 mm/hr 0.00 in0.0 mm
04:33 PM 31.7°F-0.2°C 31.2°F-0.4°C 98% 6.0 mph NE9.7 kmh NE 11.0 mph17.7 kmh 30.47 in1031.8 mb 0.00 in0.0 mm 0.00 in/hr0.0 mm/hr 0.00 in0.0 mm
04:35 PM 31.7°F-0.2°C 31.2°F-0.4°C 98% 11.0 mph NE17.7 kmh NE 11.0 mph17.7 kmh 30.47 in1031.8 mb 0.00 in0.0 mm 0.00 in/hr0.0 mm/hr 0.00 in0.0 mm
04:37 PM 31.7°F-0.2°C 31.2°F-0.4°C 98% 8.0 mph NE12.9 kmh NE 11.0 mph17.7 kmh 30.47 in1031.8 mb 0.00 in0.0 mm 0.00 in/hr0.0 mm/hr 0.00 in0.0 mm
04:38 PM 31.7°F-0.2°C 31.2°F-0.4°C 98% 4.0 mph NE6.4 kmh NE 11.0 mph17.7 kmh 30.47 in1031.8 mb 0.00 in0.0 mm 0.00 in/hr0.0 mm/hr 0.00 in0.0 mm
04:40 PM 31.7°F-0.2°C 31.2°F-0.4°C 98% 11.0 mph NE17.7 kmh NE 11.0 mph17.7 kmh 30.47 in1031.8 mb 0.00 in0.0 mm 0.00 in/hr0.0 mm/hr 0.00 in0.0 mm
04:41 PM 31.7°F-0.2°C 31.2°F-0.4°C 98% 8.0 mph NE12.9 kmh NE 11.0 mph17.7 kmh 30.47 in1031.8 mb 0.00 in0.0 mm 0.00 in/hr0.0 mm/hr 0.00 in0.0 mm
04:43 PM 31.7°F-0.2°C 31.2°F-0.4°C 98% 9.0 mph NE14.5 kmh NE 11.0 mph17.7 kmh 30.47 in1031.8 mb 0.00 in0.0 mm 0.00 in/hr0.0 mm/hr 0.00 in0.0 mm
04:44 PM 31.8°F-0.1°C 31.3°F-0.4°C 98% 9.0 mph NE14.5 kmh NE 11.0 mph17.7 kmh 30.47 in1031.8 mb 0.00 in0.0 mm 0.00 in/hr0.0 mm/hr 0.00 in0.0 mm
04:46 PM 31.7°F-0.2°C 31.2°F-0.4°C 98% 9.0 mph ENE14.5 kmh ENE 11.0 mph17.7 kmh 30.46 in1031.5 mb 0.00 in0.0 mm 0.00 in/hr0.0 mm/hr 0.00 in0.0 mm
04:47 PM 31.8°F-0.1°C 31.3°F-0.4°C 98% 6.0 mph NE9.7 kmh NE 11.0 mph17.7 kmh 30.47 in1031.8 mb 0.00 in0.0 mm 0.00 in/hr0.0 mm/hr 0.00 in0.0 mm
04:49 PM 31.8°F-0.1°C 31.3°F-0.4°C 98% 6.0 mph NE9.7 kmh NE 11.0 mph17.7 kmh 30.46 in1031.5 mb 0.00 in0.0 mm 0.00 in/hr0.0 mm/hr 0.00 in0.0 mm
04:50 PM 31.8°F-0.1°C 31.3°F-0.4°C 98% 7.0 mph NE11.3 kmh NE 11.0 mph17.7 kmh 30.46 in1031.5 mb 0.00 in0.0 mm 0.00 in/hr0.0 mm/hr 0.00 in0.0 mm
04:52 PM 31.8°F-0.1°C 31.3°F-0.4°C 98% 9.0 mph NE14.5 kmh NE 11.0 mph17.7 kmh 30.46 in1031.5 mb 0.00 in0.0 mm 0.00 in/hr0.0 mm/hr 0.00 in0.0 mm
04:54 PM 31.8°F-0.1°C 31.3°F-0.4°C 98% 9.0 mph ENE14.5 kmh ENE 11.0 mph17.7 kmh 30.46 in1031.5 mb 0.00 in0.0 mm 0.00 in/hr0.0 mm/hr 0.00 in0.0 mm
04:55 PM 31.8°F-0.1°C 31.3°F-0.4°C 98% 8.0 mph NE12.9 kmh NE 11.0 mph17.7 kmh 30.46 in1031.5 mb 0.00 in0.0 mm 0.00 in/hr0.0 mm/hr 0.00 in0.0 mm
04:57 PM 31.9°F-0.1°C 31.4°F-0.3°C 98% 5.0 mph NE8.0 kmh NE 11.0 mph17.7 kmh 30.46 in1031.5 mb 0.00 in0.0 mm 0.00 in/hr0.0 mm/hr 0.00 in0.0 mm
04:59 PM 31.9°F-0.1°C 31.4°F-0.3°C 98% 6.0 mph NE9.7 kmh NE 11.0 mph17.7 kmh 30.45 in1031.2 mb 0.00 in0.0 mm 0.00 in/hr0.0 mm/hr 0.00 in0.0 mm
05:00 PM 31.9°F-0.1°C 31.4°F-0.3°C 98% 7.0 mph NE11.3 kmh NE 11.0 mph17.7 kmh 30.45 in1031.2 mb 0.00 in0.0 mm 0.00 in/hr0.0 mm/hr 0.00 in0.0 mm
05:01 PM 31.9°F-0.1°C 31.4°F-0.3°C 98% 7.0 mph NE11.3 kmh NE 8.0 mph12.9 kmh 30.45 in1031.2 mb 0.00 in0.0 mm 0.00 in/hr0.0 mm/hr 0.00 in0.0 mm
05:03 PM 31.9°F-0.1°C 31.4°F-0.3°C 98% 8.0 mph NE12.9 kmh NE 9.0 mph14.5 kmh 30.45 in1031.2 mb 0.00 in0.0 mm 0.00 in/hr0.0 mm/hr 0.00 in0.0 mm
05:04 PM 31.9°F-0.1°C 31.4°F-0.3°C 98% 9.0 mph ENE14.5 kmh ENE 10.0 mph16.1 kmh 30.45 in1031.2 mb 0.00 in0.0 mm 0.00 in/hr0.0 mm/hr 0.00 in0.0 mm
05:05 PM 31.9°F-0.1°C 31.4°F-0.3°C 98% 7.0 mph NE11.3 kmh NE 10.0 mph16.1 kmh 30.45 in1031.2 mb 0.00 in0.0 mm 0.00 in/hr0.0 mm/hr 0.00 in0.0 mm
05:06 PM 31.9°F-0.1°C 31.4°F-0.3°C 98% 6.0 mph NE9.7 kmh NE 10.0 mph16.1 kmh 30.45 in1031.2 mb 0.00 in0.0 mm 0.00 in/hr0.0 mm/hr 0.00 in0.0 mm
05:07 PM 32.0°F0.0°C 31.5°F-0.3°C 98% 8.0 mph NE12.9 kmh NE 10.0 mph16.1 kmh 30.45 in1031.2 mb 0.00 in0.0 mm 0.00 in/hr0.0 mm/hr 0.00 in0.0 mm
05:09 PM 31.9°F-0.1°C 31.4°F-0.3°C 98% 9.0 mph E14.5 kmh E 10.0 mph16.1 kmh 30.44 in1030.8 mb 0.00 in0.0 mm 0.00 in/hr0.0 mm/hr 0.00 in0.0 mm
05:10 PM 31.9°F-0.1°C 31.4°F-0.3°C 98% 7.0 mph E11.3 kmh E 10.0 mph16.1 kmh 30.44 in1030.8 mb 0.00 in0.0 mm 0.00 in/hr0.0 mm/hr 0.00 in0.0 mm
05:12 PM 31.9°F-0.1°C 31.4°F-0.3°C 98% 8.0 mph ENE12.9 kmh ENE 10.0 mph16.1 kmh 30.44 in1030.8 mb 0.00 in0.0 mm 0.00 in/hr0.0 mm/hr 0.00 in0.0 mm
05:14 PM 31.9°F-0.1°C 31.4°F-0.3°C 98% 9.0 mph E14.5 kmh E 10.0 mph16.1 kmh 30.44 in1030.8 mb 0.00 in0.0 mm 0.00 in/hr0.0 mm/hr 0.00 in0.0 mm
05:16 PM 31.9°F-0.1°C 31.4°F-0.3°C 98% 7.0 mph E11.3 kmh E 10.0 mph16.1 kmh 30.44 in1030.8 mb 0.00 in0.0 mm 0.00 in/hr0.0 mm/hr 0.00 in0.0 mm
05:17 PM 31.9°F-0.1°C 31.4°F-0.3°C 98% 10.0 mph E16.1 kmh E 10.0 mph16.1 kmh 30.44 in1030.8 mb 0.00 in0.0 mm 0.00 in/hr0.0 mm/hr 0.00 in0.0 mm
05:19 PM 31.9°F-0.1°C 31.4°F-0.3°C 98% 9.0 mph ENE14.5 kmh ENE 11.0 mph17.7 kmh 30.44 in1030.8 mb 0.00 in0.0 mm 0.00 in/hr0.0 mm/hr 0.00 in0.0 mm
05:20 PM 31.9°F-0.1°C 31.4°F-0.3°C 98% 10.0 mph ENE16.1 kmh ENE 13.0 mph20.9 kmh 30.44 in1030.8 mb 0.00 in0.0 mm 0.00 in/hr0.0 mm/hr 0.00 in0.0 mm
05:21 PM 31.9°F-0.1°C 31.4°F-0.3°C 98% 10.0 mph ENE16.1 kmh ENE 13.0 mph20.9 kmh 30.44 in1030.8 mb 0.00 in0.0 mm 0.00 in/hr0.0 mm/hr 0.00 in0.0 mm
05:22 PM 31.9°F-0.1°C 31.4°F-0.3°C 98% 10.0 mph ENE16.1 kmh ENE 13.0 mph20.9 kmh 30.44 in1030.8 mb 0.00 in0.0 mm 0.00 in/hr0.0 mm/hr 0.00 in0.0 mm
05:23 PM 31.9°F-0.1°C 31.4°F-0.3°C 98% 9.0 mph ENE14.5 kmh ENE 13.0 mph20.9 kmh 30.44 in1030.8 mb 0.00 in0.0 mm 0.00 in/hr0.0 mm/hr 0.00 in0.0 mm
05:24 PM 31.8°F-0.1°C 31.3°F-0.4°C 98% 11.0 mph ENE17.7 kmh ENE 13.0 mph20.9 kmh 30.44 in1030.8 mb 0.00 in0.0 mm 0.00 in/hr0.0 mm/hr 0.00 in0.0 mm
05:26 PM 31.8°F-0.1°C 31.3°F-0.4°C 98% 9.0 mph ENE14.5 kmh ENE 13.0 mph20.9 kmh 30.44 in1030.8 mb 0.00 in0.0 mm 0.00 in/hr0.0 mm/hr 0.00 in0.0 mm
05:27 PM 31.8°F-0.1°C 31.3°F-0.4°C 98% 9.0 mph ENE14.5 kmh ENE 13.0 mph20.9 kmh 30.44 in1030.8 mb 0.00 in0.0 mm 0.00 in/hr0.0 mm/hr 0.00 in0.0 mm
05:29 PM 31.8°F-0.1°C 31.3°F-0.4°C 98% 10.0 mph ENE16.1 kmh ENE 13.0 mph20.9 kmh 30.44 in1030.8 mb 0.00 in0.0 mm 0.00 in/hr0.0 mm/hr 0.00 in0.0 mm
05:30 PM 31.8°F-0.1°C 31.3°F-0.4°C 98% 9.0 mph E14.5 kmh E 13.0 mph20.9 kmh 30.44 in1030.8 mb 0.00 in0.0 mm 0.00 in/hr0.0 mm/hr 0.00 in0.0 mm
05:32 PM 31.8°F-0.1°C 31.3°F-0.4°C 98% 8.0 mph ENE12.9 kmh ENE 11.0 mph17.7 kmh 30.44 in1030.8 mb 0.00 in0.0 mm 0.00 in/hr0.0 mm/hr 0.00 in0.0 mm
05:34 PM 31.8°F-0.1°C 31.3°F-0.4°C 98% 9.0 mph NE14.5 kmh NE 11.0 mph17.7 kmh 30.44 in1030.8 mb 0.00 in0.0 mm 0.00 in/hr0.0 mm/hr 0.00 in0.0 mm
05:36 PM 31.8°F-0.1°C 31.3°F-0.4°C 98% 10.0 mph NE16.1 kmh NE 12.0 mph19.3 kmh 30.44 in1030.8 mb 0.00 in0.0 mm 0.00 in/hr0.0 mm/hr 0.00 in0.0 mm
05:37 PM 31.8°F-0.1°C 31.3°F-0.4°C 98% 9.0 mph NE14.5 kmh NE 12.0 mph19.3 kmh 30.44 in1030.8 mb 0.00 in0.0 mm 0.00 in/hr0.0 mm/hr 0.00 in0.0 mm
05:39 PM 31.8°F-0.1°C 31.3°F-0.4°C 98% 10.0 mph NE16.1 kmh NE 12.0 mph19.3 kmh 30.44 in1030.8 mb 0.00 in0.0 mm 0.00 in/hr0.0 mm/hr 0.00 in0.0 mm
05:40 PM 31.8°F-0.1°C 31.3°F-0.4°C 98% 9.0 mph NE14.5 kmh NE 13.0 mph20.9 kmh 30.44 in1030.8 mb 0.00 in0.0 mm 0.00 in/hr0.0 mm/hr 0.00 in0.0 mm
05:41 PM 31.9°F-0.1°C 31.4°F-0.3°C 98% 8.0 mph NE12.9 kmh NE 13.0 mph20.9 kmh 30.44 in1030.8 mb 0.00 in0.0 mm 0.00 in/hr0.0 mm/hr 0.00 in0.0 mm
05:42 PM 31.9°F-0.1°C 31.4°F-0.3°C 98% 8.0 mph NE12.9 kmh NE 13.0 mph20.9 kmh 30.45 in1031.2 mb 0.00 in0.0 mm 0.00 in/hr0.0 mm/hr 0.00 in0.0 mm
05:43 PM 31.9°F-0.1°C 31.2°F-0.4°C 97% 6.0 mph NE9.7 kmh NE 13.0 mph20.9 kmh 30.45 in1031.2 mb 0.00 in0.0 mm 0.00 in/hr0.0 mm/hr 0.00 in0.0 mm
05:45 PM 31.9°F-0.1°C 31.2°F-0.4°C 97% 9.0 mph NE14.5 kmh NE 13.0 mph20.9 kmh 30.45 in1031.2 mb 0.00 in0.0 mm 0.00 in/hr0.0 mm/hr 0.00 in0.0 mm
05:46 PM 31.9°F-0.1°C 31.4°F-0.3°C 98% 7.0 mph ENE11.3 kmh ENE 13.0 mph20.9 kmh 30.45 in1031.2 mb 0.00 in0.0 mm 0.00 in/hr0.0 mm/hr 0.00 in0.0 mm
05:48 PM 31.9°F-0.1°C 31.4°F-0.3°C 98% 8.0 mph ENE12.9 kmh ENE 13.0 mph20.9 kmh 30.45 in1031.2 mb 0.00 in0.0 mm 0.00 in/hr0.0 mm/hr 0.00 in0.0 mm
05:49 PM 31.9°F-0.1°C 31.4°F-0.3°C 98% 4.0 mph ENE6.4 kmh ENE 13.0 mph20.9 kmh 30.45 in1031.2 mb 0.00 in0.0 mm 0.00 in/hr0.0 mm/hr 0.00 in0.0 mm
05:50 PM 31.9°F-0.1°C 31.4°F-0.3°C 98% 9.0 mph E14.5 kmh E 13.0 mph20.9 kmh 30.45 in1031.2 mb 0.00 in0.0 mm 0.00 in/hr0.0 mm/hr 0.00 in0.0 mm
05:51 PM 31.9°F-0.1°C 31.4°F-0.3°C 98% 10.0 mph ENE16.1 kmh ENE 13.0 mph20.9 kmh 30.45 in1031.2 mb 0.00 in0.0 mm 0.00 in/hr0.0 mm/hr 0.00 in0.0 mm
05:53 PM 31.9°F-0.1°C 31.2°F-0.4°C 97% 8.0 mph E12.9 kmh E 13.0 mph20.9 kmh 30.45 in1031.2 mb 0.00 in0.0 mm 0.00 in/hr0.0 mm/hr 0.00 in0.0 mm
05:54 PM 31.9°F-0.1°C 31.2°F-0.4°C 97% 7.0 mph E11.3 kmh E 13.0 mph20.9 kmh 30.45 in1031.2 mb 0.00 in0.0 mm 0.00 in/hr0.0 mm/hr 0.00 in0.0 mm
05:55 PM 32.0°F0.0°C 31.3°F-0.4°C 97% 9.0 mph E14.5 kmh E 13.0 mph20.9 kmh 30.45 in1031.2 mb 0.00 in0.0 mm 0.00 in/hr0.0 mm/hr 0.00 in0.0 mm
05:56 PM 32.0°F0.0°C 31.3°F-0.4°C 97% 5.0 mph E8.0 kmh E 13.0 mph20.9 kmh 30.45 in1031.2 mb 0.00 in0.0 mm 0.00 in/hr0.0 mm/hr 0.00 in0.0 mm
05:57 PM 32.0°F0.0°C 31.3°F-0.4°C 97% 10.0 mph ENE16.1 kmh ENE 13.0 mph20.9 kmh 30.45 in1031.2 mb 0.00 in0.0 mm 0.00 in/hr0.0 mm/hr 0.00 in0.0 mm
05:59 PM 32.0°F0.0°C 31.3°F-0.4°C 97% 9.0 mph ENE14.5 kmh ENE 13.0 mph20.9 kmh 30.45 in1031.2 mb 0.00 in0.0 mm 0.00 in/hr0.0 mm/hr 0.00 in0.0 mm
06:00 PM 32.0°F0.0°C 31.3°F-0.4°C 97% 8.0 mph ENE12.9 kmh ENE 13.0 mph20.9 kmh 30.45 in1031.2 mb 0.00 in0.0 mm 0.00 in/hr0.0 mm/hr 0.00 in0.0 mm
06:02 PM 32.0°F0.0°C 31.3°F-0.4°C 97% 8.0 mph ENE12.9 kmh ENE 9.0 mph14.5 kmh 30.46 in1031.5 mb 0.00 in0.0 mm 0.00 in/hr0.0 mm/hr 0.00 in0.0 mm
06:03 PM 32.0°F0.0°C 31.3°F-0.4°C 97% 7.0 mph NE11.3 kmh NE 9.0 mph14.5 kmh 30.46 in1031.5 mb 0.00 in0.0 mm 0.00 in/hr0.0 mm/hr 0.00 in0.0 mm
06:05 PM 32.0°F0.0°C 31.3°F-0.4°C 97% 10.0 mph NE16.1 kmh NE 11.0 mph17.7 kmh 30.46 in1031.5 mb 0.00 in0.0 mm 0.00 in/hr0.0 mm/hr 0.00 in0.0 mm
06:07 PM 32.0°F0.0°C 31.3°F-0.4°C 97% 10.0 mph NE16.1 kmh NE 11.0 mph17.7 kmh 30.46 in1031.5 mb 0.00 in0.0 mm 0.00 in/hr0.0 mm/hr 0.00 in0.0 mm
06:08 PM 32.0°F0.0°C 31.3°F-0.4°C 97% 8.0 mph NE12.9 kmh NE 11.0 mph17.7 kmh 30.46 in1031.5 mb 0.00 in0.0 mm 0.00 in/hr0.0 mm/hr 0.00 in0.0 mm
06:10 PM 32.0°F0.0°C 31.3°F-0.4°C 97% 8.0 mph NE12.9 kmh NE 11.0 mph17.7 kmh 30.47 in1031.8 mb 0.00 in0.0 mm 0.00 in/hr0.0 mm/hr 0.00 in0.0 mm
06:11 PM 32.0°F0.0°C 31.3°F-0.4°C 97% 8.0 mph NE12.9 kmh NE 11.0 mph17.7 kmh 30.47 in1031.8 mb 0.00 in0.0 mm 0.00 in/hr0.0 mm/hr 0.00 in0.0 mm
06:13 PM 32.0°F0.0°C 31.3°F-0.4°C 97% 10.0 mph NE16.1 kmh NE 12.0 mph19.3 kmh 30.47 in1031.8 mb 0.00 in0.0 mm 0.00 in/hr0.0 mm/hr 0.00 in0.0 mm
06:15 PM 32.0°F0.0°C 31.3°F-0.4°C 97% 9.0 mph NE14.5 kmh NE 12.0 mph19.3 kmh 30.47 in1031.8 mb 0.00 in0.0 mm 0.00 in/hr0.0 mm/hr 0.00 in0.0 mm
06:16 PM 32.0°F0.0°C 31.3°F-0.4°C 97% 7.0 mph ENE11.3 kmh ENE 12.0 mph19.3 kmh 30.47 in1031.8 mb 0.00 in0.0 mm 0.00 in/hr0.0 mm/hr 0.00 in0.0 mm
06:17 PM 32.0°F0.0°C 31.3°F-0.4°C 97% 9.0 mph ENE14.5 kmh ENE 12.0 mph19.3 kmh 30.47 in1031.8 mb 0.00 in0.0 mm 0.00 in/hr0.0 mm/hr 0.00 in0.0 mm
06:18 PM 32.0°F0.0°C 31.3°F-0.4°C 97% 8.0 mph NE12.9 kmh NE 12.0 mph19.3 kmh 30.47 in1031.8 mb 0.00 in0.0 mm 0.00 in/hr0.0 mm/hr 0.00 in0.0 mm
06:20 PM 32.0°F0.0°C 31.3°F-0.4°C 97% 7.0 mph NE11.3 kmh NE 12.0 mph19.3 kmh 30.46 in1031.5 mb 0.00 in0.0 mm 0.00 in/hr0.0 mm/hr 0.00 in0.0 mm
06:22 PM 32.0°F0.0°C 31.3°F-0.4°C 97% 9.0 mph NE14.5 kmh NE 12.0 mph19.3 kmh 30.46 in1031.5 mb 0.00 in0.0 mm 0.00 in/hr0.0 mm/hr 0.00 in0.0 mm
06:23 PM 32.0°F0.0°C 31.3°F-0.4°C 97% 8.0 mph NE12.9 kmh NE 12.0 mph19.3 kmh 30.46 in1031.5 mb 0.00 in0.0 mm 0.00 in/hr0.0 mm/hr 0.00 in0.0 mm
06:25 PM 32.0°F0.0°C 31.3°F-0.4°C 97% 9.0 mph ENE14.5 kmh ENE 12.0 mph19.3 kmh 30.46 in1031.5 mb 0.00 in0.0 mm 0.00 in/hr0.0 mm/hr 0.00 in0.0 mm
06:26 PM 32.0°F0.0°C 31.3°F-0.4°C 97% 9.0 mph NE14.5 kmh NE 12.0 mph19.3 kmh 30.47 in1031.8 mb 0.00 in0.0 mm 0.00 in/hr0.0 mm/hr 0.00 in0.0 mm
06:28 PM 32.0°F0.0°C 31.3°F-0.4°C 97% 6.0 mph NE9.7 kmh NE 12.0 mph19.3 kmh 30.47 in1031.8 mb 0.00 in0.0 mm 0.00 in/hr0.0 mm/hr 0.00 in0.0 mm
06:29 PM 32.0°F0.0°C 31.3°F-0.4°C 97% 7.0 mph NE11.3 kmh NE 12.0 mph19.3 kmh 30.47 in1031.8 mb 0.00 in0.0 mm 0.00 in/hr0.0 mm/hr 0.00 in0.0 mm
06:30 PM 32.1°F0.1°C 31.4°F-0.3°C 97% 8.0 mph NE12.9 kmh NE 12.0 mph19.3 kmh 30.47 in1031.8 mb 0.00 in0.0 mm 0.00 in/hr0.0 mm/hr 0.00 in0.0 mm
06:31 PM 32.0°F0.0°C 31.3°F-0.4°C 97% 9.0 mph NE14.5 kmh NE 11.0 mph17.7 kmh 30.46 in1031.5 mb 0.00 in0.0 mm 0.00 in/hr0.0 mm/hr 0.00 in0.0 mm
06:33 PM 32.0°F0.0°C 31.3°F-0.4°C 97% 10.0 mph NE16.1 kmh NE 12.0 mph19.3 kmh 30.46 in1031.5 mb 0.00 in0.0 mm 0.00 in/hr0.0 mm/hr 0.00 in0.0 mm
06:35 PM 32.0°F0.0°C 31.3°F-0.4°C 97% 9.0 mph NE14.5 kmh NE 12.0 mph19.3 kmh 30.47 in1031.8 mb 0.00 in0.0 mm 0.00 in/hr0.0 mm/hr 0.00 in0.0 mm
06:36 PM 32.1°F0.1°C 31.4°F-0.3°C 97% 8.0 mph NE12.9 kmh NE 12.0 mph19.3 kmh 30.47 in1031.8 mb 0.00 in0.0 mm 0.00 in/hr0.0 mm/hr 0.00 in0.0 mm
06:38 PM 32.1°F0.1°C 31.4°F-0.3°C 97% 8.0 mph NE12.9 kmh NE 12.0 mph19.3 kmh 30.47 in1031.8 mb 0.00 in0.0 mm 0.00 in/hr0.0 mm/hr 0.00 in0.0 mm
06:39 PM 32.1°F0.1°C 31.4°F-0.3°C 97% 6.0 mph NE9.7 kmh NE 12.0 mph19.3 kmh 30.46 in1031.5 mb 0.00 in0.0 mm 0.00 in/hr0.0 mm/hr 0.00 in0.0 mm
06:40 PM 32.1°F0.1°C 31.4°F-0.3°C 97% 6.0 mph NE9.7 kmh NE 12.0 mph19.3 kmh 30.46 in1031.5 mb 0.00 in0.0 mm 0.00 in/hr0.0 mm/hr 0.00 in0.0 mm
06:41 PM 32.1°F0.1°C 31.4°F-0.3°C 97% 8.0 mph NE12.9 kmh NE 12.0 mph19.3 kmh 30.46 in1031.5 mb 0.00 in0.0 mm 0.00 in/hr0.0 mm/hr 0.00 in0.0 mm
06:42 PM 32.1°F0.1°C 31.4°F-0.3°C 97% 8.0 mph NE12.9 kmh NE 12.0 mph19.3 kmh 30.46 in1031.5 mb 0.00 in0.0 mm 0.00 in/hr0.0 mm/hr 0.00 in0.0 mm
06:44 PM 32.1°F0.1°C 31.4°F-0.3°C 97% 8.0 mph NE12.9 kmh NE 12.0 mph19.3 kmh 30.46 in1031.5 mb 0.00 in0.0 mm 0.00 in/hr0.0 mm/hr 0.00 in0.0 mm
06:45 PM 32.1°F0.1°C 31.4°F-0.3°C 97% 7.0 mph NNE11.3 kmh NNE 12.0 mph19.3 kmh 30.47 in1031.8 mb 0.00 in0.0 mm 0.00 in/hr0.0 mm/hr 0.00 in0.0 mm
06:47 PM 32.1°F0.1°C 31.4°F-0.3°C 97% 8.0 mph NE12.9 kmh NE 12.0 mph19.3 kmh 30.47 in1031.8 mb 0.00 in0.0 mm 0.00 in/hr0.0 mm/hr 0.00 in0.0 mm
06:49 PM 32.1°F0.1°C 31.4°F-0.3°C 97% 6.0 mph NE9.7 kmh NE 12.0 mph19.3 kmh 30.47 in1031.8 mb 0.00 in0.0 mm 0.00 in/hr0.0 mm/hr 0.00 in0.0 mm
06:50 PM 32.1°F0.1°C 31.4°F-0.3°C 97% 8.0 mph NE12.9 kmh NE 12.0 mph19.3 kmh 30.47 in1031.8 mb 0.00 in0.0 mm 0.00 in/hr0.0 mm/hr 0.00 in0.0 mm
06:51 PM 32.1°F0.1°C 31.4°F-0.3°C 97% 9.0 mph NE14.5 kmh NE 12.0 mph19.3 kmh 30.47 in1031.8 mb 0.00 in0.0 mm 0.00 in/hr0.0 mm/hr 0.00 in0.0 mm
06:52 PM 32.1°F0.1°C 31.1°F-0.5°C 96% 8.0 mph NE12.9 kmh NE 12.0 mph19.3 kmh 30.48 in1032.2 mb 0.00 in0.0 mm 0.00 in/hr0.0 mm/hr 0.00 in0.0 mm
06:54 PM 32.1°F0.1°C 31.1°F-0.5°C 96% 7.0 mph NNE11.3 kmh NNE 12.0 mph19.3 kmh 30.48 in1032.2 mb 0.00 in0.0 mm 0.00 in/hr0.0 mm/hr 0.00 in0.0 mm
06:55 PM 32.1°F0.1°C 31.1°F-0.5°C 96% 8.0 mph NE12.9 kmh NE 12.0 mph19.3 kmh 30.47 in1031.8 mb 0.00 in0.0 mm 0.00 in/hr0.0 mm/hr 0.00 in0.0 mm
06:56 PM 32.1°F0.1°C 31.1°F-0.5°C 96% 8.0 mph NE12.9 kmh NE 12.0 mph19.3 kmh 30.47 in1031.8 mb 0.00 in0.0 mm 0.00 in/hr0.0 mm/hr 0.00 in0.0 mm
06:58 PM 32.1°F0.1°C 31.1°F-0.5°C 96% 10.0 mph NE16.1 kmh NE 12.0 mph19.3 kmh 30.48 in1032.2 mb 0.00 in0.0 mm 0.00 in/hr0.0 mm/hr 0.00 in0.0 mm
06:59 PM 32.2°F0.1°C 31.2°F-0.4°C 96% 10.0 mph NE16.1 kmh NE 12.0 mph19.3 kmh 30.48 in1032.2 mb 0.00 in0.0 mm 0.00 in/hr0.0 mm/hr 0.00 in0.0 mm
07:00 PM 32.1°F0.1°C 31.1°F-0.5°C 96% 7.0 mph NE11.3 kmh NE 12.0 mph19.3 kmh 30.48 in1032.2 mb 0.00 in0.0 mm 0.00 in/hr0.0 mm/hr 0.00 in0.0 mm
07:01 PM 32.2°F0.1°C 31.2°F-0.4°C 96% 7.0 mph NE11.3 kmh NE 7.0 mph11.3 kmh 30.48 in1032.2 mb 0.00 in0.0 mm 0.00 in/hr0.0 mm/hr 0.00 in0.0 mm
07:02 PM 32.2°F0.1°C 31.2°F-0.4°C 96% 6.0 mph NE9.7 kmh NE 8.0 mph12.9 kmh 30.48 in1032.2 mb 0.00 in0.0 mm 0.00 in/hr0.0 mm/hr 0.00 in0.0 mm
07:04 PM 32.2°F0.1°C 31.2°F-0.4°C 96% 6.0 mph NE9.7 kmh NE 8.0 mph12.9 kmh 30.47 in1031.8 mb 0.00 in0.0 mm 0.00 in/hr0.0 mm/hr 0.00 in0.0 mm
07:05 PM 32.2°F0.1°C 31.2°F-0.4°C 96% 11.0 mph NE17.7 kmh NE 11.0 mph17.7 kmh 30.48 in1032.2 mb 0.00 in0.0 mm 0.00 in/hr0.0 mm/hr 0.00 in0.0 mm
07:07 PM 32.2°F0.1°C 31.2°F-0.4°C 96% 9.0 mph NE14.5 kmh NE 11.0 mph17.7 kmh 30.48 in1032.2 mb 0.00 in0.0 mm 0.00 in/hr0.0 mm/hr 0.00 in0.0 mm
07:09 PM 32.2°F0.1°C 31.2°F-0.4°C 96% 8.0 mph NE12.9 kmh NE 11.0 mph17.7 kmh 30.48 in1032.2 mb 0.00 in0.0 mm 0.00 in/hr0.0 mm/hr 0.00 in0.0 mm
07:10 PM 32.2°F0.1°C 31.2°F-0.4°C 96% 7.0 mph NE11.3 kmh NE 11.0 mph17.7 kmh 30.48 in1032.2 mb 0.00 in0.0 mm 0.00 in/hr0.0 mm/hr 0.00 in0.0 mm
07:12 PM 32.2°F0.1°C 31.2°F-0.4°C 96% 9.0 mph NE14.5 kmh NE 11.0 mph17.7 kmh 30.47 in1031.8 mb 0.00 in0.0 mm 0.00 in/hr0.0 mm/hr 0.00 in0.0 mm
07:14 PM 32.2°F0.1°C 31.2°F-0.4°C 96% 12.0 mph NE19.3 kmh NE 12.0 mph19.3 kmh 30.47 in1031.8 mb 0.00 in0.0 mm 0.00 in/hr0.0 mm/hr 0.00 in0.0 mm
07:15 PM 32.2°F0.1°C 31.2°F-0.4°C 96% 11.0 mph NE17.7 kmh NE 12.0 mph19.3 kmh 30.47 in1031.8 mb 0.00 in0.0 mm 0.00 in/hr0.0 mm/hr 0.00 in0.0 mm
07:16 PM 32.2°F0.1°C 31.2°F-0.4°C 96% 11.0 mph NE17.7 kmh NE 13.0 mph20.9 kmh 30.47 in1031.8 mb 0.00 in0.0 mm 0.00 in/hr0.0 mm/hr 0.00 in0.0 mm
07:18 PM 32.2°F0.1°C 31.2°F-0.4°C 96% 8.0 mph NE12.9 kmh NE 13.0 mph20.9 kmh 30.47 in1031.8 mb 0.00 in0.0 mm 0.00 in/hr0.0 mm/hr 0.00 in0.0 mm
07:19 PM 32.2°F0.1°C 31.2°F-0.4°C 96% 10.0 mph NE16.1 kmh NE 13.0 mph20.9 kmh 30.47 in1031.8 mb 0.00 in0.0 mm 0.00 in/hr0.0 mm/hr 0.00 in0.0 mm
07:20 PM 32.2°F0.1°C 31.2°F-0.4°C 96% 11.0 mph NE17.7 kmh NE 13.0 mph20.9 kmh 30.47 in1031.8 mb 0.00 in0.0 mm 0.00 in/hr0.0 mm/hr 0.00 in0.0 mm
07:21 PM 32.2°F0.1°C 31.2°F-0.4°C 96% 12.0 mph NE19.3 kmh NE 13.0 mph20.9 kmh 30.47 in1031.8 mb 0.00 in0.0 mm 0.00 in/hr0.0 mm/hr 0.00 in0.0 mm
07:23 PM 32.2°F0.1°C 31.2°F-0.4°C 96% 13.0 mph NE20.9 kmh NE 13.0 mph20.9 kmh 30.47 in1031.8 mb 0.00 in0.0 mm 0.00 in/hr0.0 mm/hr 0.00 in0.0 mm
07:24 PM 32.2°F0.1°C 31.2°F-0.4°C 96% 12.0 mph NE19.3 kmh NE 13.0 mph20.9 kmh 30.47 in1031.8 mb 0.00 in0.0 mm 0.00 in/hr0.0 mm/hr 0.00 in0.0 mm
07:25 PM 32.2°F0.1°C 31.2°F-0.4°C 96% 10.0 mph NNE16.1 kmh NNE 13.0 mph20.9 kmh 30.47 in1031.8 mb 0.00 in0.0 mm 0.00 in/hr0.0 mm/hr 0.00 in0.0 mm
07:27 PM 32.2°F0.1°C 31.2°F-0.4°C 96% 11.0 mph NE17.7 kmh NE 13.0 mph20.9 kmh 30.47 in1031.8 mb 0.00 in0.0 mm 0.00 in/hr0.0 mm/hr 0.00 in0.0 mm
07:28 PM 32.2°F0.1°C 31.2°F-0.4°C 96% 12.0 mph NE19.3 kmh NE 14.0 mph22.5 kmh 30.47 in1031.8 mb 0.00 in0.0 mm 0.00 in/hr0.0 mm/hr 0.00 in0.0 mm
07:30 PM 32.2°F0.1°C 30.9°F-0.6°C 95% 11.0 mph NE17.7 kmh NE 14.0 mph22.5 kmh 30.47 in1031.8 mb 0.00 in0.0 mm 0.00 in/hr0.0 mm/hr 0.00 in0.0 mm
07:31 PM 32.2°F0.1°C 30.9°F-0.6°C 95% 8.0 mph NE12.9 kmh NE 10.0 mph16.1 kmh 30.47 in1031.8 mb 0.00 in0.0 mm 0.00 in/hr0.0 mm/hr 0.00 in0.0 mm
07:33 PM 32.2°F0.1°C 30.9°F-0.6°C 95% 8.0 mph NE12.9 kmh NE 10.0 mph16.1 kmh 30.47 in1031.8 mb 0.00 in0.0 mm 0.00 in/hr0.0 mm/hr 0.00 in0.0 mm
07:34 PM 32.2°F0.1°C 30.9°F-0.6°C 95% 8.0 mph NE12.9 kmh NE 10.0 mph16.1 kmh 30.47 in1031.8 mb 0.00 in0.0 mm 0.00 in/hr0.0 mm/hr 0.00 in0.0 mm
07:35 PM 32.3°F0.2°C 31.0°F-0.6°C 95% 6.0 mph NE9.7 kmh NE 10.0 mph16.1 kmh 30.47 in1031.8 mb 0.00 in0.0 mm 0.00 in/hr0.0 mm/hr 0.00 in0.0 mm
07:36 PM 32.3°F0.2°C 31.0°F-0.6°C 95% 7.0 mph NE11.3 kmh NE 10.0 mph16.1 kmh 30.47 in1031.8 mb 0.00 in0.0 mm 0.00 in/hr0.0 mm/hr 0.00 in0.0 mm
07:38 PM 32.3°F0.2°C 31.3°F-0.4°C 96% 8.0 mph NE12.9 kmh NE 10.0 mph16.1 kmh 30.47 in1031.8 mb 0.00 in0.0 mm 0.00 in/hr0.0 mm/hr 0.00 in0.0 mm
07:39 PM 32.2°F0.1°C 31.2°F-0.4°C 96% 9.0 mph NE14.5 kmh NE 10.0 mph16.1 kmh 30.47 in1031.8 mb 0.00 in0.0 mm 0.00 in/hr0.0 mm/hr 0.00 in0.0 mm
07:40 PM 32.2°F0.1°C 31.2°F-0.4°C 96% 6.0 mph NE9.7 kmh NE 10.0 mph16.1 kmh 30.47 in1031.8 mb 0.00 in0.0 mm 0.00 in/hr0.0 mm/hr 0.00 in0.0 mm
07:41 PM 32.2°F0.1°C 31.2°F-0.4°C 96% 7.0 mph NE11.3 kmh NE 10.0 mph16.1 kmh 30.47 in1031.8 mb 0.00 in0.0 mm 0.00 in/hr0.0 mm/hr 0.00 in0.0 mm
07:43 PM 32.2°F0.1°C 31.2°F-0.4°C 96% 9.0 mph NE14.5 kmh NE 10.0 mph16.1 kmh 30.47 in1031.8 mb 0.00 in0.0 mm 0.00 in/hr0.0 mm/hr 0.00 in0.0 mm
07:44 PM 32.2°F0.1°C 31.2°F-0.4°C 96% 7.0 mph NNE11.3 kmh NNE 10.0 mph16.1 kmh 30.47 in1031.8 mb 0.00 in0.0 mm 0.00 in/hr0.0 mm/hr 0.00 in0.0 mm
07:46 PM 32.2°F0.1°C 31.2°F-0.4°C 96% 7.0 mph NE11.3 kmh NE 10.0 mph16.1 kmh 30.47 in1031.8 mb 0.00 in0.0 mm 0.00 in/hr0.0 mm/hr 0.00 in0.0 mm
07:47 PM 32.2°F0.1°C 31.2°F-0.4°C 96% 7.0 mph NE11.3 kmh NE 10.0 mph16.1 kmh 30.47 in1031.8 mb 0.00 in0.0 mm 0.00 in/hr0.0 mm/hr 0.00 in0.0 mm
07:49 PM 32.2°F0.1°C 31.2°F-0.4°C 96% 7.0 mph NE11.3 kmh NE 10.0 mph16.1 kmh 30.47 in1031.8 mb 0.00 in0.0 mm 0.00 in/hr0.0 mm/hr 0.00 in0.0 mm
07:50 PM 32.2°F0.1°C 31.2°F-0.4°C 96% 7.0 mph NE11.3 kmh NE 10.0 mph16.1 kmh 30.47 in1031.8 mb 0.00 in0.0 mm 0.00 in/hr0.0 mm/hr 0.00 in0.0 mm
07:51 PM 32.1°F0.1°C 31.1°F-0.5°C 96% 7.0 mph NNE11.3 kmh NNE 10.0 mph16.1 kmh 30.47 in1031.8 mb 0.00 in0.0 mm 0.00 in/hr0.0 mm/hr 0.00 in0.0 mm
07:53 PM 32.1°F0.1°C 31.1°F-0.5°C 96% 7.0 mph NE11.3 kmh NE 10.0 mph16.1 kmh 30.47 in1031.8 mb 0.00 in0.0 mm 0.00 in/hr0.0 mm/hr 0.00 in0.0 mm
07:55 PM 32.1°F0.1°C 31.1°F-0.5°C 96% 8.0 mph NE12.9 kmh NE 10.0 mph16.1 kmh 30.47 in1031.8 mb 0.00 in0.0 mm 0.00 in/hr0.0 mm/hr 0.00 in0.0 mm
07:56 PM 32.1°F0.1°C 31.1°F-0.5°C 96% 11.0 mph NE17.7 kmh NE 12.0 mph19.3 kmh 30.47 in1031.8 mb 0.00 in0.0 mm 0.00 in/hr0.0 mm/hr 0.00 in0.0 mm
07:57 PM 32.1°F0.1°C 31.1°F-0.5°C 96% 9.0 mph NE14.5 kmh NE 12.0 mph19.3 kmh 30.47 in1031.8 mb 0.00 in0.0 mm 0.00 in/hr0.0 mm/hr 0.00 in0.0 mm
07:59 PM 32.1°F0.1°C 31.1°F-0.5°C 96% 7.0 mph NE11.3 kmh NE 12.0 mph19.3 kmh 30.47 in1031.8 mb 0.00 in0.0 mm 0.00 in/hr0.0 mm/hr 0.00 in0.0 mm
08:00 PM 32.1°F0.1°C 31.1°F-0.5°C 96% 8.0 mph NE12.9 kmh NE 12.0 mph19.3 kmh 30.47 in1031.8 mb 0.00 in0.0 mm 0.00 in/hr0.0 mm/hr 0.00 in0.0 mm
08:01 PM 32.1°F0.1°C 31.1°F-0.5°C 96% 9.0 mph NE14.5 kmh NE 9.0 mph14.5 kmh 30.47 in1031.8 mb 0.00 in0.0 mm 0.00 in/hr0.0 mm/hr 0.00 in0.0 mm
08:02 PM 32.1°F0.1°C 31.1°F-0.5°C 96% 7.0 mph NE11.3 kmh NE 9.0 mph14.5 kmh 30.47 in1031.8 mb 0.00 in0.0 mm 0.00 in/hr0.0 mm/hr 0.00 in0.0 mm
08:04 PM 32.1°F0.1°C 31.1°F-0.5°C 96% 7.0 mph NNE11.3 kmh NNE 10.0 mph16.1 kmh 30.47 in1031.8 mb 0.00 in0.0 mm 0.00 in/hr0.0 mm/hr 0.00 in0.0 mm
08:06 PM 32.1°F0.1°C 31.1°F-0.5°C 96% 7.0 mph N11.3 kmh N 10.0 mph16.1 kmh 30.47 in1031.8 mb 0.00 in0.0 mm 0.00 in/hr0.0 mm/hr 0.00 in0.0 mm
08:07 PM 32.1°F0.1°C 31.1°F-0.5°C 96% 7.0 mph NNE11.3 kmh NNE 10.0 mph16.1 kmh 30.47 in1031.8 mb 0.00 in0.0 mm 0.00 in/hr0.0 mm/hr 0.00 in0.0 mm
08:09 PM 32.1°F0.1°C 31.1°F-0.5°C 96% 11.0 mph NNE17.7 kmh NNE 13.0 mph20.9 kmh 30.47 in1031.8 mb 0.00 in0.0 mm 0.00 in/hr0.0 mm/hr 0.00 in0.0 mm
08:10 PM 32.0°F0.0°C 31.0°F-0.6°C 96% 11.0 mph NE17.7 kmh NE 13.0 mph20.9 kmh 30.47 in1031.8 mb 0.00 in0.0 mm 0.00 in/hr0.0 mm/hr 0.00 in0.0 mm
08:11 PM 32.0°F0.0°C 31.0°F-0.6°C 96% 10.0 mph NE16.1 kmh NE 13.0 mph20.9 kmh 30.47 in1031.8 mb 0.00 in0.0 mm 0.00 in/hr0.0 mm/hr 0.00 in0.0 mm
08:13 PM 32.0°F0.0°C 30.7°F-0.7°C 95% 10.0 mph NE16.1 kmh NE 13.0 mph20.9 kmh 30.47 in1031.8 mb 0.00 in0.0 mm 0.00 in/hr0.0 mm/hr 0.00 in0.0 mm
08:15 PM 32.0°F0.0°C 30.7°F-0.7°C 95% 9.0 mph NE14.5 kmh NE 13.0 mph20.9 kmh 30.47 in1031.8 mb 0.00 in0.0 mm 0.00 in/hr0.0 mm/hr 0.00 in0.0 mm
08:16 PM 32.0°F0.0°C 30.7°F-0.7°C 95% 10.0 mph NE16.1 kmh NE 13.0 mph20.9 kmh 30.46 in1031.5 mb 0.00 in0.0 mm 0.00 in/hr0.0 mm/hr 0.00 in0.0 mm
08:19 PM 32.0°F0.0°C 30.7°F-0.7°C 95% 12.0 mph NE19.3 kmh NE 14.0 mph22.5 kmh 30.47 in1031.8 mb 0.00 in0.0 mm 0.00 in/hr0.0 mm/hr 0.00 in0.0 mm
08:20 PM 31.9°F-0.1°C 30.6°F-0.8°C 95% 9.0 mph NE14.5 kmh NE 15.0 mph24.1 kmh 30.47 in1031.8 mb 0.00 in0.0 mm 0.00 in/hr0.0 mm/hr 0.00 in0.0 mm
08:21 PM 31.9°F-0.1°C 30.6°F-0.8°C 95% 10.0 mph NNE16.1 kmh NNE 15.0 mph24.1 kmh 30.47 in1031.8 mb 0.00 in0.0 mm 0.00 in/hr0.0 mm/hr 0.00 in0.0 mm
08:23 PM 31.9°F-0.1°C 30.6°F-0.8°C 95% 11.0 mph NNE17.7 kmh NNE 15.0 mph24.1 kmh 30.47 in1031.8 mb 0.00 in0.0 mm 0.00 in/hr0.0 mm/hr 0.00 in0.0 mm
08:24 PM 31.9°F-0.1°C 30.6°F-0.8°C 95% 9.0 mph NE14.5 kmh NE 15.0 mph24.1 kmh 30.47 in1031.8 mb 0.00 in0.0 mm 0.00 in/hr0.0 mm/hr 0.00 in0.0 mm
08:25 PM 31.8°F-0.1°C 30.5°F-0.8°C 95% 12.0 mph NE19.3 kmh NE 15.0 mph24.1 kmh 30.47 in1031.8 mb 0.00 in0.0 mm 0.00 in/hr0.0 mm/hr 0.00 in0.0 mm
08:26 PM 31.8°F-0.1°C 30.5°F-0.8°C 95% 14.0 mph ENE22.5 kmh ENE 15.0 mph24.1 kmh 30.47 in1031.8 mb 0.00 in0.0 mm 0.00 in/hr0.0 mm/hr 0.00 in0.0 mm
08:27 PM 31.8°F-0.1°C 30.3°F-0.9°C 94% 13.0 mph NE20.9 kmh NE 15.0 mph24.1 kmh 30.47 in1031.8 mb 0.00 in0.0 mm 0.00 in/hr0.0 mm/hr 0.00 in0.0 mm
08:29 PM 31.8°F-0.1°C 30.5°F-0.8°C 95% 12.0 mph NE19.3 kmh NE 15.0 mph24.1 kmh 30.47 in1031.8 mb 0.00 in0.0 mm 0.00 in/hr0.0 mm/hr 0.00 in0.0 mm
08:30 PM 31.8°F-0.1°C 30.3°F-0.9°C 94% 13.0 mph ENE20.9 kmh ENE 15.0 mph24.1 kmh 30.47 in1031.8 mb 0.00 in0.0 mm 0.00 in/hr0.0 mm/hr 0.00 in0.0 mm
08:31 PM 31.8°F-0.1°C 30.3°F-0.9°C 94% 9.0 mph ENE14.5 kmh ENE 15.0 mph24.1 kmh 30.47 in1031.8 mb 0.00 in0.0 mm 0.00 in/hr0.0 mm/hr 0.00 in0.0 mm
08:33 PM 31.8°F-0.1°C 30.3°F-0.9°C 94% 11.0 mph NE17.7 kmh NE 15.0 mph24.1 kmh 30.47 in1031.8 mb 0.00 in0.0 mm 0.00 in/hr0.0 mm/hr 0.00 in0.0 mm
08:34 PM 31.8°F-0.1°C 30.3°F-0.9°C 94% 9.0 mph NE14.5 kmh NE 15.0 mph24.1 kmh 30.47 in1031.8 mb 0.00 in0.0 mm 0.00 in/hr0.0 mm/hr 0.00 in0.0 mm
08:35 PM 31.9°F-0.1°C 30.6°F-0.8°C 95% 8.0 mph NE12.9 kmh NE 15.0 mph24.1 kmh 30.47 in1031.8 mb 0.00 in0.0 mm 0.00 in/hr0.0 mm/hr 0.00 in0.0 mm
08:37 PM 31.9°F-0.1°C 30.4°F-0.9°C 94% 7.0 mph NE11.3 kmh NE 15.0 mph24.1 kmh 30.47 in1031.8 mb 0.00 in0.0 mm 0.00 in/hr0.0 mm/hr 0.00 in0.0 mm
08:39 PM 31.9°F-0.1°C 30.6°F-0.8°C 95% 8.0 mph NNE12.9 kmh NNE 15.0 mph24.1 kmh 30.47 in1031.8 mb 0.00 in0.0 mm 0.00 in/hr0.0 mm/hr 0.00 in0.0 mm
08:40 PM 31.9°F-0.1°C 30.6°F-0.8°C 95% 9.0 mph NNE14.5 kmh NNE 15.0 mph24.1 kmh 30.47 in1031.8 mb 0.00 in0.0 mm 0.00 in/hr0.0 mm/hr 0.00 in0.0 mm
08:42 PM 31.8°F-0.1°C 30.5°F-0.8°C 95% 12.0 mph NNE19.3 kmh NNE 15.0 mph24.1 kmh 30.47 in1031.8 mb 0.00 in0.0 mm 0.00 in/hr0.0 mm/hr 0.00 in0.0 mm
08:44 PM 31.8°F-0.1°C 30.5°F-0.8°C 95% 11.0 mph NNE17.7 kmh NNE 15.0 mph24.1 kmh 30.47 in1031.8 mb 0.00 in0.0 mm 0.00 in/hr0.0 mm/hr 0.00 in0.0 mm
08:45 PM 31.8°F-0.1°C 30.5°F-0.8°C 95% 15.0 mph NE24.1 kmh NE 16.0 mph25.7 kmh 30.47 in1031.8 mb 0.00 in0.0 mm 0.00 in/hr0.0 mm/hr 0.00 in0.0 mm
08:46 PM 31.8°F-0.1°C 30.3°F-0.9°C 94% 10.0 mph NE16.1 kmh NE 16.0 mph25.7 kmh 30.47 in1031.8 mb 0.00 in0.0 mm 0.00 in/hr0.0 mm/hr 0.00 in0.0 mm
08:48 PM 31.8°F-0.1°C 30.3°F-0.9°C 94% 10.0 mph NE16.1 kmh NE 16.0 mph25.7 kmh 30.47 in1031.8 mb 0.00 in0.0 mm 0.00 in/hr0.0 mm/hr 0.00 in0.0 mm
08:50 PM 31.7°F-0.2°C 30.2°F-1.0°C 94% 8.0 mph NE12.9 kmh NE 16.0 mph25.7 kmh 30.48 in1032.2 mb 0.00 in0.0 mm 0.00 in/hr0.0 mm/hr 0.00 in0.0 mm
08:51 PM 31.7°F-0.2°C 30.2°F-1.0°C 94% 13.0 mph NE20.9 kmh NE 16.0 mph25.7 kmh 30.48 in1032.2 mb 0.00 in0.0 mm 0.00 in/hr0.0 mm/hr 0.00 in0.0 mm
08:53 PM 31.7°F-0.2°C 30.2°F-1.0°C 94% 10.0 mph NE16.1 kmh NE 16.0 mph25.7 kmh 30.48 in1032.2 mb 0.00 in0.0 mm 0.00 in/hr0.0 mm/hr 0.00 in0.0 mm
08:55 PM 31.7°F-0.2°C 30.2°F-1.0°C 94% 8.0 mph NE12.9 kmh NE 16.0 mph25.7 kmh 30.48 in1032.2 mb 0.00 in0.0 mm 0.00 in/hr0.0 mm/hr 0.00 in0.0 mm
08:56 PM 31.7°F-0.2°C 30.2°F-1.0°C 94% 8.0 mph NE12.9 kmh NE 16.0 mph25.7 kmh 30.48 in1032.2 mb 0.00 in0.0 mm 0.00 in/hr0.0 mm/hr 0.00 in0.0 mm
08:57 PM 31.7°F-0.2°C 30.2°F-1.0°C 94% 12.0 mph ENE19.3 kmh ENE 16.0 mph25.7 kmh 30.48 in1032.2 mb 0.00 in0.0 mm 0.00 in/hr0.0 mm/hr 0.00 in0.0 mm
08:58 PM 31.7°F-0.2°C 30.2°F-1.0°C 94% 10.0 mph NE16.1 kmh NE 16.0 mph25.7 kmh 30.48 in1032.2 mb 0.00 in0.0 mm 0.00 in/hr0.0 mm/hr 0.00 in0.0 mm
08:59 PM 31.7°F-0.2°C 30.2°F-1.0°C 94% 11.0 mph NE17.7 kmh NE 16.0 mph25.7 kmh 30.48 in1032.2 mb 0.00 in0.0 mm 0.00 in/hr0.0 mm/hr 0.00 in0.0 mm
09:00 PM 31.7°F-0.2°C 30.2°F-1.0°C 94% 10.0 mph NE16.1 kmh NE 16.0 mph25.7 kmh 30.48 in1032.2 mb 0.00 in0.0 mm 0.00 in/hr0.0 mm/hr 0.00 in0.0 mm
09:02 PM 31.7°F-0.2°C 30.2°F-1.0°C 94% 10.0 mph NE16.1 kmh NE 13.0 mph20.9 kmh 30.48 in1032.2 mb 0.00 in0.0 mm 0.00 in/hr0.0 mm/hr 0.00 in0.0 mm
09:04 PM 31.7°F-0.2°C 30.2°F-1.0°C 94% 10.0 mph ENE16.1 kmh ENE 15.0 mph24.1 kmh 30.48 in1032.2 mb 0.00 in0.0 mm 0.00 in/hr0.0 mm/hr 0.00 in0.0 mm
09:05 PM 31.7°F-0.2°C 29.9°F-1.2°C 93% 9.0 mph NE14.5 kmh NE 15.0 mph24.1 kmh 30.49 in1032.5 mb 0.00 in0.0 mm 0.00 in/hr0.0 mm/hr 0.00 in0.0 mm
09:06 PM 31.7°F-0.2°C 29.9°F-1.2°C 93% 10.0 mph NE16.1 kmh NE 15.0 mph24.1 kmh 30.49 in1032.5 mb 0.00 in0.0 mm 0.00 in/hr0.0 mm/hr 0.00 in0.0 mm
09:08 PM 31.7°F-0.2°C 29.9°F-1.2°C 93% 11.0 mph NE17.7 kmh NE 15.0 mph24.1 kmh 30.49 in1032.5 mb 0.00 in0.0 mm 0.00 in/hr0.0 mm/hr 0.00 in0.0 mm
09:10 PM 31.7°F-0.2°C 29.9°F-1.2°C 93% 10.0 mph NE16.1 kmh NE 15.0 mph24.1 kmh 30.49 in1032.5 mb 0.00 in0.0 mm 0.00 in/hr0.0 mm/hr 0.00 in0.0 mm
09:11 PM 31.7°F-0.2°C 30.2°F-1.0°C 94% 9.0 mph NE14.5 kmh NE 15.0 mph24.1 kmh 30.49 in1032.5 mb 0.00 in0.0 mm 0.00 in/hr0.0 mm/hr 0.00 in0.0 mm
09:13 PM 31.7°F-0.2°C 30.2°F-1.0°C 94% 8.0 mph NE12.9 kmh NE 15.0 mph24.1 kmh 30.49 in1032.5 mb 0.00 in0.0 mm 0.00 in/hr0.0 mm/hr 0.00 in0.0 mm
09:15 PM 31.7°F-0.2°C 30.2°F-1.0°C 94% 7.0 mph NE11.3 kmh NE 15.0 mph24.1 kmh 30.49 in1032.5 mb 0.00 in0.0 mm 0.00 in/hr0.0 mm/hr 0.00 in0.0 mm
09:17 PM 31.7°F-0.2°C 30.2°F-1.0°C 94% 9.0 mph NE14.5 kmh NE 15.0 mph24.1 kmh 30.48 in1032.2 mb 0.00 in0.0 mm 0.00 in/hr0.0 mm/hr 0.00 in0.0 mm
09:18 PM 31.7°F-0.2°C 30.2°F-1.0°C 94% 11.0 mph NE17.7 kmh NE 15.0 mph24.1 kmh 30.48 in1032.2 mb 0.00 in0.0 mm 0.00 in/hr0.0 mm/hr 0.00 in0.0 mm
09:20 PM 31.7°F-0.2°C 30.2°F-1.0°C 94% 10.0 mph NE16.1 kmh NE 15.0 mph24.1 kmh 30.48 in1032.2 mb 0.00 in0.0 mm 0.00 in/hr0.0 mm/hr 0.00 in0.0 mm
09:21 PM 31.7°F-0.2°C 30.2°F-1.0°C 94% 13.0 mph NE20.9 kmh NE 15.0 mph24.1 kmh 30.48 in1032.2 mb 0.00 in0.0 mm 0.00 in/hr0.0 mm/hr 0.00 in0.0 mm
09:23 PM 31.7°F-0.2°C 30.2°F-1.0°C 94% 11.0 mph ENE17.7 kmh ENE 15.0 mph24.1 kmh 30.48 in1032.2 mb 0.00 in0.0 mm 0.00 in/hr0.0 mm/hr 0.00 in0.0 mm
09:25 PM 31.7°F-0.2°C 30.2°F-1.0°C 94% 6.0 mph NE9.7 kmh NE 15.0 mph24.1 kmh 30.48 in1032.2 mb 0.00 in0.0 mm 0.00 in/hr0.0 mm/hr 0.00 in0.0 mm
09:26 PM 31.7°F-0.2°C 30.2°F-1.0°C 94% 7.0 mph NE11.3 kmh NE 15.0 mph24.1 kmh 30.48 in1032.2 mb 0.00 in0.0 mm 0.00 in/hr0.0 mm/hr 0.00 in0.0 mm
09:28 PM 31.7°F-0.2°C 30.2°F-1.0°C 94% 7.0 mph NE11.3 kmh NE 15.0 mph24.1 kmh 30.48 in1032.2 mb 0.00 in0.0 mm 0.00 in/hr0.0 mm/hr 0.00 in0.0 mm
09:30 PM 31.7°F-0.2°C 30.2°F-1.0°C 94% 7.0 mph NE11.3 kmh NE 7.0 mph11.3 kmh 30.49 in1032.5 mb 0.00 in0.0 mm 0.00 in/hr0.0 mm/hr 0.00 in0.0 mm
09:31 PM 31.7°F-0.2°C 30.2°F-1.0°C 94% 7.0 mph NE11.3 kmh NE 7.0 mph11.3 kmh 30.49 in1032.5 mb 0.00 in0.0 mm 0.00 in/hr0.0 mm/hr 0.00 in0.0 mm
09:32 PM 31.7°F-0.2°C 30.2°F-1.0°C 94% 9.0 mph NE14.5 kmh NE 10.0 mph16.1 kmh 30.49 in1032.5 mb 0.00 in0.0 mm 0.00 in/hr0.0 mm/hr 0.00 in0.0 mm
09:34 PM 31.7°F-0.2°C 30.2°F-1.0°C 94% 6.0 mph NE9.7 kmh NE 10.0 mph16.1 kmh 30.49 in1032.5 mb 0.00 in0.0 mm 0.00 in/hr0.0 mm/hr 0.00 in0.0 mm
09:35 PM 31.7°F-0.2°C 30.2°F-1.0°C 94% 9.0 mph NE14.5 kmh NE 10.0 mph16.1 kmh 30.49 in1032.5 mb 0.00 in0.0 mm 0.00 in/hr0.0 mm/hr 0.00 in0.0 mm
09:36 PM 31.7°F-0.2°C 30.2°F-1.0°C 94% 8.0 mph NE12.9 kmh NE 10.0 mph16.1 kmh 30.49 in1032.5 mb 0.00 in0.0 mm 0.00 in/hr0.0 mm/hr 0.00 in0.0 mm
09:38 PM 31.7°F-0.2°C 30.2°F-1.0°C 94% 6.0 mph NE9.7 kmh NE 10.0 mph16.1 kmh 30.49 in1032.5 mb 0.00 in0.0 mm 0.00 in/hr0.0 mm/hr 0.00 in0.0 mm
09:39 PM 31.7°F-0.2°C 30.2°F-1.0°C 94% 7.0 mph NE11.3 kmh NE 10.0 mph16.1 kmh 30.49 in1032.5 mb 0.00 in0.0 mm 0.00 in/hr0.0 mm/hr 0.00 in0.0 mm
09:40 PM 31.7°F-0.2°C 30.2°F-1.0°C 94% 11.0 mph NE17.7 kmh NE 11.0 mph17.7 kmh 30.49 in1032.5 mb 0.00 in0.0 mm 0.00 in/hr0.0 mm/hr 0.00 in0.0 mm
09:41 PM 31.7°F-0.2°C 29.9°F-1.2°C 93% 8.0 mph NE12.9 kmh NE 11.0 mph17.7 kmh 30.49 in1032.5 mb 0.00 in0.0 mm 0.00 in/hr0.0 mm/hr 0.00 in0.0 mm
09:43 PM 31.7°F-0.2°C 29.9°F-1.2°C 93% 9.0 mph NE14.5 kmh NE 12.0 mph19.3 kmh 30.49 in1032.5 mb 0.00 in0.0 mm 0.00 in/hr0.0 mm/hr 0.00 in0.0 mm
09:44 PM 31.7°F-0.2°C 29.9°F-1.2°C 93% 12.0 mph NE19.3 kmh NE 12.0 mph19.3 kmh 30.48 in1032.2 mb 0.00 in0.0 mm 0.00 in/hr0.0 mm/hr 0.00 in0.0 mm
09:45 PM 31.7°F-0.2°C 29.9°F-1.2°C 93% 10.0 mph NE16.1 kmh NE 12.0 mph19.3 kmh 30.48 in1032.2 mb 0.00 in0.0 mm 0.00 in/hr0.0 mm/hr 0.00 in0.0 mm
09:47 PM 31.7°F-0.2°C 29.9°F-1.2°C 93% 10.0 mph NE16.1 kmh NE 12.0 mph19.3 kmh 30.48 in1032.2 mb 0.00 in0.0 mm 0.00 in/hr0.0 mm/hr 0.00 in0.0 mm
09:48 PM 31.7°F-0.2°C 29.9°F-1.2°C 93% 10.0 mph NE16.1 kmh NE 12.0 mph19.3 kmh 30.48 in1032.2 mb 0.00 in0.0 mm 0.00 in/hr0.0 mm/hr 0.00 in0.0 mm
09:49 PM 31.7°F-0.2°C 29.9°F-1.2°C 93% 9.0 mph NE14.5 kmh NE 12.0 mph19.3 kmh 30.48 in1032.2 mb 0.00 in0.0 mm 0.00 in/hr0.0 mm/hr 0.00 in0.0 mm
09:50 PM 31.8°F-0.1°C 30.0°F-1.1°C 93% 6.0 mph NE9.7 kmh NE 12.0 mph19.3 kmh 30.48 in1032.2 mb 0.00 in0.0 mm 0.00 in/hr0.0 mm/hr 0.00 in0.0 mm
09:52 PM 31.8°F-0.1°C 30.0°F-1.1°C 93% 6.0 mph NE9.7 kmh NE 12.0 mph19.3 kmh 30.48 in1032.2 mb 0.00 in0.0 mm 0.00 in/hr0.0 mm/hr 0.00 in0.0 mm
09:54 PM 31.8°F-0.1°C 30.0°F-1.1°C 93% 7.0 mph NE11.3 kmh NE 12.0 mph19.3 kmh 30.48 in1032.2 mb 0.00 in0.0 mm 0.00 in/hr0.0 mm/hr 0.00 in0.0 mm
09:55 PM 31.7°F-0.2°C 29.9°F-1.2°C 93% 8.0 mph NE12.9 kmh NE 12.0 mph19.3 kmh 30.48 in1032.2 mb 0.00 in0.0 mm 0.00 in/hr0.0 mm/hr 0.00 in0.0 mm
09:57 PM 31.8°F-0.1°C 30.0°F-1.1°C 93% 7.0 mph NE11.3 kmh NE 12.0 mph19.3 kmh 30.48 in1032.2 mb 0.00 in0.0 mm 0.00 in/hr0.0 mm/hr 0.00 in0.0 mm
09:59 PM 31.8°F-0.1°C 30.0°F-1.1°C 93% 5.0 mph NE8.0 kmh NE 12.0 mph19.3 kmh 30.48 in1032.2 mb 0.00 in0.0 mm 0.00 in/hr0.0 mm/hr 0.00 in0.0 mm
10:00 PM 31.8°F-0.1°C 30.0°F-1.1°C 93% 5.0 mph NE8.0 kmh NE 6.0 mph9.7 kmh 30.48 in1032.2 mb 0.00 in0.0 mm 0.00 in/hr0.0 mm/hr 0.00 in0.0 mm
10:02 PM 31.8°F-0.1°C 30.0°F-1.1°C 93% 5.0 mph NE8.0 kmh NE 6.0 mph9.7 kmh 30.48 in1032.2 mb 0.00 in0.0 mm 0.00 in/hr0.0 mm/hr 0.00 in0.0 mm
10:05 PM 31.8°F-0.1°C 30.0°F-1.1°C 93% 7.0 mph NE11.3 kmh NE 7.0 mph11.3 kmh 30.48 in1032.2 mb 0.00 in0.0 mm 0.00 in/hr0.0 mm/hr 0.00 in0.0 mm
10:07 PM 31.7°F-0.2°C 29.9°F-1.2°C 93% 6.0 mph NE9.7 kmh NE 7.0 mph11.3 kmh 30.48 in1032.2 mb 0.00 in0.0 mm 0.00 in/hr0.0 mm/hr 0.00 in0.0 mm
10:08 PM 31.7°F-0.2°C 29.9°F-1.2°C 93% 5.0 mph NE8.0 kmh NE 7.0 mph11.3 kmh 30.48 in1032.2 mb 0.00 in0.0 mm 0.00 in/hr0.0 mm/hr 0.00 in0.0 mm
10:10 PM 31.7°F-0.2°C 29.9°F-1.2°C 93% 5.0 mph NE8.0 kmh NE 7.0 mph11.3 kmh 30.48 in1032.2 mb 0.00 in0.0 mm 0.00 in/hr0.0 mm/hr 0.00 in0.0 mm
10:11 PM 31.7°F-0.2°C 29.9°F-1.2°C 93% 5.0 mph NE8.0 kmh NE 7.0 mph11.3 kmh 30.48 in1032.2 mb 0.00 in0.0 mm 0.00 in/hr0.0 mm/hr 0.00 in0.0 mm
10:13 PM 31.7°F-0.2°C 29.9°F-1.2°C 93% 5.0 mph NE8.0 kmh NE 7.0 mph11.3 kmh 30.48 in1032.2 mb 0.00 in0.0 mm 0.00 in/hr0.0 mm/hr 0.00 in0.0 mm
10:15 PM 31.7°F-0.2°C 29.9°F-1.2°C 93% 7.0 mph NE11.3 kmh NE 8.0 mph12.9 kmh 30.48 in1032.2 mb 0.00 in0.0 mm 0.00 in/hr0.0 mm/hr 0.00 in0.0 mm
10:16 PM 31.7°F-0.2°C 29.9°F-1.2°C 93% 5.0 mph NE8.0 kmh NE 8.0 mph12.9 kmh 30.48 in1032.2 mb 0.00 in0.0 mm 0.00 in/hr0.0 mm/hr 0.00 in0.0 mm
10:17 PM 31.8°F-0.1°C 30.0°F-1.1°C 93% 6.0 mph NNE9.7 kmh NNE 8.0 mph12.9 kmh 30.47 in1031.8 mb 0.00 in0.0 mm 0.00 in/hr0.0 mm/hr 0.00 in0.0 mm
10:19 PM 31.7°F-0.2°C 29.9°F-1.2°C 93% 6.0 mph NNE9.7 kmh NNE 8.0 mph12.9 kmh 30.47 in1031.8 mb 0.00 in0.0 mm 0.00 in/hr0.0 mm/hr 0.00 in0.0 mm
10:20 PM 31.7°F-0.2°C 29.9°F-1.2°C 93% 7.0 mph NNE11.3 kmh NNE 8.0 mph12.9 kmh 30.47 in1031.8 mb 0.00 in0.0 mm 0.00 in/hr0.0 mm/hr 0.00 in0.0 mm
10:21 PM 31.7°F-0.2°C 30.2°F-1.0°C 94% 6.0 mph NNE9.7 kmh NNE 8.0 mph12.9 kmh 30.47 in1031.8 mb 0.00 in0.0 mm 0.00 in/hr0.0 mm/hr 0.00 in0.0 mm
10:22 PM 31.7°F-0.2°C 29.9°F-1.2°C 93% 5.0 mph NNE8.0 kmh NNE 8.0 mph12.9 kmh 30.47 in1031.8 mb 0.00 in0.0 mm 0.00 in/hr0.0 mm/hr 0.00 in0.0 mm
10:24 PM 31.7°F-0.2°C 29.9°F-1.2°C 93% 4.0 mph NNE6.4 kmh NNE 8.0 mph12.9 kmh 30.47 in1031.8 mb 0.00 in0.0 mm 0.00 in/hr0.0 mm/hr 0.00 in0.0 mm
10:25 PM 31.7°F-0.2°C 29.9°F-1.2°C 93% 6.0 mph NNE9.7 kmh NNE 8.0 mph12.9 kmh 30.47 in1031.8 mb 0.00 in0.0 mm 0.00 in/hr0.0 mm/hr 0.00 in0.0 mm
10:26 PM 31.7°F-0.2°C 29.9°F-1.2°C 93% 5.0 mph NNE8.0 kmh NNE 8.0 mph12.9 kmh 30.47 in1031.8 mb 0.00 in0.0 mm 0.00 in/hr0.0 mm/hr 0.00 in0.0 mm
10:28 PM 31.7°F-0.2°C 29.9°F-1.2°C 93% 5.0 mph NNE8.0 kmh NNE 8.0 mph12.9 kmh 30.47 in1031.8 mb 0.00 in0.0 mm 0.00 in/hr0.0 mm/hr 0.00 in0.0 mm
10:29 PM 31.7°F-0.2°C 29.9°F-1.2°C 93% 4.0 mph N6.4 kmh N 8.0 mph12.9 kmh 30.47 in1031.8 mb 0.00 in0.0 mm 0.00 in/hr0.0 mm/hr 0.00 in0.0 mm
10:30 PM 31.7°F-0.2°C 29.9°F-1.2°C 93% 4.0 mph N6.4 kmh N 8.0 mph12.9 kmh 30.47 in1031.8 mb 0.00 in0.0 mm 0.00 in/hr0.0 mm/hr 0.00 in0.0 mm
10:31 PM 31.7°F-0.2°C 29.9°F-1.2°C 93% 5.0 mph NNE8.0 kmh NNE 6.0 mph9.7 kmh 30.47 in1031.8 mb 0.00 in0.0 mm 0.00 in/hr0.0 mm/hr 0.00 in0.0 mm
10:32 PM 31.7°F-0.2°C 30.2°F-1.0°C 94% 3.0 mph NNE4.8 kmh NNE 6.0 mph9.7 kmh 30.47 in1031.8 mb 0.00 in0.0 mm 0.00 in/hr0.0 mm/hr 0.00 in0.0 mm
10:34 PM 31.6°F-0.2°C 30.1°F-1.1°C 94% 4.0 mph N6.4 kmh N 6.0 mph9.7 kmh 30.47 in1031.8 mb 0.00 in0.0 mm 0.00 in/hr0.0 mm/hr 0.00 in0.0 mm
10:36 PM 31.6°F-0.2°C 30.1°F-1.1°C 94% 3.0 mph N4.8 kmh N 6.0 mph9.7 kmh 30.47 in1031.8 mb 0.00 in0.0 mm 0.00 in/hr0.0 mm/hr 0.00 in0.0 mm
10:37 PM 31.6°F-0.2°C 30.1°F-1.1°C 94% 4.0 mph N6.4 kmh N 6.0 mph9.7 kmh 30.47 in1031.8 mb 0.00 in0.0 mm 0.00 in/hr0.0 mm/hr 0.00 in0.0 mm
10:39 PM 31.5°F-0.3°C 30.0°F-1.1°C 94% 5.0 mph N8.0 kmh N 6.0 mph9.7 kmh 30.47 in1031.8 mb 0.00 in0.0 mm 0.00 in/hr0.0 mm/hr 0.00 in0.0 mm
10:40 PM 31.5°F-0.3°C 30.0°F-1.1°C 94% 4.0 mph N6.4 kmh N 6.0 mph9.7 kmh 30.47 in1031.8 mb 0.00 in0.0 mm 0.00 in/hr0.0 mm/hr 0.00 in0.0 mm
10:41 PM 31.5°F-0.3°C 30.0°F-1.1°C 94% 5.0 mph NNE8.0 kmh NNE 6.0 mph9.7 kmh 30.47 in1031.8 mb 0.00 in0.0 mm 0.00 in/hr0.0 mm/hr 0.00 in0.0 mm
10:43 PM 31.4°F-0.3°C 29.9°F-1.2°C 94% 4.0 mph NNE6.4 kmh NNE 6.0 mph9.7 kmh 30.47 in1031.8 mb 0.00 in0.0 mm 0.00 in/hr0.0 mm/hr 0.00 in0.0 mm
10:45 PM 31.4°F-0.3°C 29.9°F-1.2°C 94% 5.0 mph N8.0 kmh N 6.0 mph9.7 kmh 30.47 in1031.8 mb 0.00 in0.0 mm 0.00 in/hr0.0 mm/hr 0.00 in0.0 mm
10:46 PM 31.3°F-0.4°C 29.8°F-1.2°C 94% 5.0 mph N8.0 kmh N 7.0 mph11.3 kmh 30.47 in1031.8 mb 0.00 in0.0 mm 0.00 in/hr0.0 mm/hr 0.00 in0.0 mm
10:47 PM 31.3°F-0.4°C 29.8°F-1.2°C 94% 5.0 mph N8.0 kmh N 7.0 mph11.3 kmh 30.47 in1031.8 mb 0.00 in0.0 mm 0.00 in/hr0.0 mm/hr 0.00 in0.0 mm
10:49 PM 31.2°F-0.4°C 29.7°F-1.3°C 94% 5.0 mph N8.0 kmh N 7.0 mph11.3 kmh 30.46 in1031.5 mb 0.00 in0.0 mm 0.00 in/hr0.0 mm/hr 0.00 in0.0 mm
10:50 PM 31.2°F-0.4°C 29.7°F-1.3°C 94% 6.0 mph N9.7 kmh N 8.0 mph12.9 kmh 30.46 in1031.5 mb 0.00 in0.0 mm 0.00 in/hr0.0 mm/hr 0.00 in0.0 mm
10:52 PM 31.1°F-0.5°C 29.6°F-1.3°C 94% 6.0 mph N9.7 kmh N 8.0 mph12.9 kmh 30.46 in1031.5 mb 0.00 in0.0 mm 0.00 in/hr0.0 mm/hr 0.00 in0.0 mm
10:53 PM 31.1°F-0.5°C 29.6°F-1.3°C 94% 4.0 mph NNE6.4 kmh NNE 8.0 mph12.9 kmh 30.46 in1031.5 mb 0.00 in0.0 mm 0.00 in/hr0.0 mm/hr 0.00 in0.0 mm
10:55 PM 31.0°F-0.6°C 29.5°F-1.4°C 94% 4.0 mph N6.4 kmh N 8.0 mph12.9 kmh 30.46 in1031.5 mb 0.00 in0.0 mm 0.00 in/hr0.0 mm/hr 0.00 in0.0 mm
10:57 PM 30.9°F-0.6°C 29.4°F-1.4°C 94% 4.0 mph NNE6.4 kmh NNE 8.0 mph12.9 kmh 30.46 in1031.5 mb 0.00 in0.0 mm 0.00 in/hr0.0 mm/hr 0.00 in0.0 mm
10:59 PM 30.9°F-0.6°C 29.4°F-1.4°C 94% 3.0 mph NNE4.8 kmh NNE 8.0 mph12.9 kmh 30.46 in1031.5 mb 0.00 in0.0 mm 0.00 in/hr0.0 mm/hr 0.00 in0.0 mm
11:00 PM 30.8°F-0.7°C 29.3°F-1.5°C 94% 5.0 mph N8.0 kmh N 8.0 mph12.9 kmh 30.46 in1031.5 mb 0.00 in0.0 mm 0.00 in/hr0.0 mm/hr 0.00 in0.0 mm
11:02 PM 30.7°F-0.7°C 29.2°F-1.6°C 94% 5.0 mph NNE8.0 kmh NNE 6.0 mph9.7 kmh 30.46 in1031.5 mb 0.00 in0.0 mm 0.00 in/hr0.0 mm/hr 0.00 in0.0 mm
11:03 PM 30.7°F-0.7°C 29.4°F-1.4°C 95% 4.0 mph N6.4 kmh N 6.0 mph9.7 kmh 30.46 in1031.5 mb 0.00 in0.0 mm 0.00 in/hr0.0 mm/hr 0.00 in0.0 mm
11:04 PM 30.7°F-0.7°C 29.4°F-1.4°C 95% 3.0 mph N4.8 kmh N 6.0 mph9.7 kmh 30.47 in1031.8 mb 0.00 in0.0 mm 0.00 in/hr0.0 mm/hr 0.00 in0.0 mm
11:05 PM 30.6°F-0.8°C 29.1°F-1.6°C 94% 3.0 mph N4.8 kmh N 6.0 mph9.7 kmh 30.47 in1031.8 mb 0.00 in0.0 mm 0.00 in/hr0.0 mm/hr 0.00 in0.0 mm
11:07 PM 30.6°F-0.8°C 29.1°F-1.6°C 94% 4.0 mph N6.4 kmh N 6.0 mph9.7 kmh 30.47 in1031.8 mb 0.00 in0.0 mm 0.00 in/hr0.0 mm/hr 0.00 in0.0 mm
11:08 PM 30.6°F-0.8°C 29.1°F-1.6°C 94% 4.0 mph N6.4 kmh N 6.0 mph9.7 kmh 30.47 in1031.8 mb 0.00 in0.0 mm 0.00 in/hr0.0 mm/hr 0.00 in0.0 mm
11:10 PM 30.5°F-0.8°C 29.2°F-1.6°C 95% 5.0 mph N8.0 kmh N 6.0 mph9.7 kmh 30.47 in1031.8 mb 0.00 in0.0 mm 0.00 in/hr0.0 mm/hr 0.00 in0.0 mm
11:12 PM 30.5°F-0.8°C 29.2°F-1.6°C 95% 7.0 mph N11.3 kmh N 7.0 mph11.3 kmh 30.47 in1031.8 mb 0.00 in0.0 mm 0.00 in/hr0.0 mm/hr 0.00 in0.0 mm
11:13 PM 30.4°F-0.9°C 29.1°F-1.6°C 95% 6.0 mph N9.7 kmh N 7.0 mph11.3 kmh 30.46 in1031.5 mb 0.00 in0.0 mm 0.00 in/hr0.0 mm/hr 0.00 in0.0 mm
11:15 PM 30.4°F-0.9°C 29.1°F-1.6°C 95% 6.0 mph N9.7 kmh N 7.0 mph11.3 kmh 30.46 in1031.5 mb 0.00 in0.0 mm 0.00 in/hr0.0 mm/hr 0.00 in0.0 mm
11:16 PM 30.4°F-0.9°C 29.1°F-1.6°C 95% 5.0 mph N8.0 kmh N 7.0 mph11.3 kmh 30.47 in1031.8 mb 0.00 in0.0 mm 0.00 in/hr0.0 mm/hr 0.00 in0.0 mm
11:18 PM 30.3°F-0.9°C 29.0°F-1.7°C 95% 5.0 mph N8.0 kmh N 7.0 mph11.3 kmh 30.47 in1031.8 mb 0.00 in0.0 mm 0.00 in/hr0.0 mm/hr 0.00 in0.0 mm
11:20 PM 30.3°F-0.9°C 29.0°F-1.7°C 95% 6.0 mph N9.7 kmh N 7.0 mph11.3 kmh 30.47 in1031.8 mb 0.00 in0.0 mm 0.00 in/hr0.0 mm/hr 0.00 in0.0 mm
11:21 PM 30.3°F-0.9°C 29.0°F-1.7°C 95% 6.0 mph N9.7 kmh N 7.0 mph11.3 kmh 30.47 in1031.8 mb 0.00 in0.0 mm 0.00 in/hr0.0 mm/hr 0.00 in0.0 mm
11:23 PM 30.2°F-1.0°C 28.9°F-1.7°C 95% 6.0 mph N9.7 kmh N 7.0 mph11.3 kmh 30.47 in1031.8 mb 0.00 in0.0 mm 0.00 in/hr0.0 mm/hr 0.00 in0.0 mm
11:24 PM 30.2°F-1.0°C 28.9°F-1.7°C 95% 7.0 mph N11.3 kmh N 7.0 mph11.3 kmh 30.47 in1031.8 mb 0.00 in0.0 mm 0.00 in/hr0.0 mm/hr 0.00 in0.0 mm
11:25 PM 30.2°F-1.0°C 28.9°F-1.7°C 95% 6.0 mph N9.7 kmh N 7.0 mph11.3 kmh 30.47 in1031.8 mb 0.00 in0.0 mm 0.00 in/hr0.0 mm/hr 0.00 in0.0 mm
11:26 PM 30.2°F-1.0°C 28.9°F-1.7°C 95% 6.0 mph N9.7 kmh N 7.0 mph11.3 kmh 30.47 in1031.8 mb 0.00 in0.0 mm 0.00 in/hr0.0 mm/hr 0.00 in0.0 mm
11:28 PM 30.3°F-0.9°C 29.0°F-1.7°C 95% 4.0 mph N6.4 kmh N 7.0 mph11.3 kmh 30.47 in1031.8 mb 0.00 in0.0 mm 0.00 in/hr0.0 mm/hr 0.00 in0.0 mm
11:29 PM 30.3°F-0.9°C 29.0°F-1.7°C 95% 5.0 mph N8.0 kmh N 7.0 mph11.3 kmh 30.47 in1031.8 mb 0.00 in0.0 mm 0.00 in/hr0.0 mm/hr 0.00 in0.0 mm
11:30 PM 30.3°F-0.9°C 29.0°F-1.7°C 95% 4.0 mph N6.4 kmh N 7.0 mph11.3 kmh 30.47 in1031.8 mb 0.00 in0.0 mm 0.00 in/hr0.0 mm/hr 0.00 in0.0 mm
11:31 PM 30.3°F-0.9°C 29.0°F-1.7°C 95% 5.0 mph N8.0 kmh N 6.0 mph9.7 kmh 30.47 in1031.8 mb 0.00 in0.0 mm 0.00 in/hr0.0 mm/hr 0.00 in0.0 mm
11:33 PM 30.3°F-0.9°C 29.0°F-1.7°C 95% 6.0 mph N9.7 kmh N 7.0 mph11.3 kmh 30.47 in1031.8 mb 0.00 in0.0 mm 0.00 in/hr0.0 mm/hr 0.00 in0.0 mm
11:35 PM 30.4°F-0.9°C 29.1°F-1.6°C 95% 7.0 mph N11.3 kmh N 8.0 mph12.9 kmh 30.46 in1031.5 mb 0.00 in0.0 mm 0.00 in/hr0.0 mm/hr 0.00 in0.0 mm
11:36 PM 30.3°F-0.9°C 29.0°F-1.7°C 95% 7.0 mph N11.3 kmh N 8.0 mph12.9 kmh 30.46 in1031.5 mb 0.00 in0.0 mm 0.00 in/hr0.0 mm/hr 0.00 in0.0 mm
11:37 PM 30.4°F-0.9°C 29.1°F-1.6°C 95% 7.0 mph N11.3 kmh N 9.0 mph14.5 kmh 30.46 in1031.5 mb 0.00 in0.0 mm 0.00 in/hr0.0 mm/hr 0.00 in0.0 mm
11:39 PM 30.4°F-0.9°C 29.1°F-1.6°C 95% 7.0 mph N11.3 kmh N 9.0 mph14.5 kmh 30.47 in1031.8 mb 0.00 in0.0 mm 0.00 in/hr0.0 mm/hr 0.00 in0.0 mm
11:40 PM 30.4°F-0.9°C 29.1°F-1.6°C 95% 6.0 mph N9.7 kmh N 9.0 mph14.5 kmh 30.47 in1031.8 mb 0.00 in0.0 mm 0.00 in/hr0.0 mm/hr 0.00 in0.0 mm
11:42 PM 30.4°F-0.9°C 29.1°F-1.6°C 95% 7.0 mph N11.3 kmh N 9.0 mph14.5 kmh 30.46 in1031.5 mb 0.00 in0.0 mm 0.00 in/hr0.0 mm/hr 0.00 in0.0 mm
11:44 PM 30.4°F-0.9°C 29.1°F-1.6°C 95% 8.0 mph N12.9 kmh N 10.0 mph16.1 kmh 30.46 in1031.5 mb 0.00 in0.0 mm 0.00 in/hr0.0 mm/hr 0.00 in0.0 mm
11:45 PM 30.5°F-0.8°C 29.2°F-1.6°C 95% 8.0 mph N12.9 kmh N 10.0 mph16.1 kmh 30.46 in1031.5 mb 0.00 in0.0 mm 0.00 in/hr0.0 mm/hr 0.00 in0.0 mm
11:47 PM 30.5°F-0.8°C 29.5°F-1.4°C 96% 7.0 mph N11.3 kmh N 10.0 mph16.1 kmh 30.46 in1031.5 mb 0.00 in0.0 mm 0.00 in/hr0.0 mm/hr 0.00 in0.0 mm
11:48 PM 30.5°F-0.8°C 29.5°F-1.4°C 96% 6.0 mph N9.7 kmh N 10.0 mph16.1 kmh 30.46 in1031.5 mb 0.00 in0.0 mm 0.00 in/hr0.0 mm/hr 0.00 in0.0 mm
11:49 PM 30.5°F-0.8°C 29.5°F-1.4°C 96% 9.0 mph N14.5 kmh N 10.0 mph16.1 kmh 30.46 in1031.5 mb 0.00 in0.0 mm 0.00 in/hr0.0 mm/hr 0.00 in0.0 mm
11:50 PM 30.4°F-0.9°C 29.4°F-1.4°C 96% 7.0 mph N11.3 kmh N 10.0 mph16.1 kmh 30.46 in1031.5 mb 0.00 in0.0 mm 0.00 in/hr0.0 mm/hr 0.00 in0.0 mm
11:51 PM 30.5°F-0.8°C 29.5°F-1.4°C 96% 7.0 mph N11.3 kmh N 10.0 mph16.1 kmh 30.46 in1031.5 mb 0.00 in0.0 mm 0.00 in/hr0.0 mm/hr 0.00 in0.0 mm
11:53 PM 30.5°F-0.8°C 29.5°F-1.4°C 96% 8.0 mph N12.9 kmh N 11.0 mph17.7 kmh 30.46 in1031.5 mb 0.00 in0.0 mm 0.00 in/hr0.0 mm/hr 0.00 in0.0 mm
11:54 PM 30.4°F-0.9°C 29.4°F-1.4°C 96% 7.0 mph NNE11.3 kmh NNE 11.0 mph17.7 kmh 30.46 in1031.5 mb 0.00 in0.0 mm 0.00 in/hr0.0 mm/hr 0.00 in0.0 mm
11:55 PM 30.4°F-0.9°C 29.4°F-1.4°C 96% 8.0 mph N12.9 kmh N 11.0 mph17.7 kmh 30.47 in1031.8 mb 0.00 in0.0 mm 0.00 in/hr0.0 mm/hr 0.00 in0.0 mm
11:57 PM 30.4°F-0.9°C 29.4°F-1.4°C 96% 9.0 mph N14.5 kmh N 11.0 mph17.7 kmh 30.47 in1031.8 mb 0.00 in0.0 mm 0.00 in/hr0.0 mm/hr 0.00 in0.0 mm
11:58 PM 30.4°F-0.9°C 29.4°F-1.4°C 96% 9.0 mph N14.5 kmh N 11.0 mph17.7 kmh 30.47 in1031.8 mb 0.00 in0.0 mm 0.00 in/hr0.0 mm/hr 0.00 in0.0 mm